<?xml version='1.0' encoding='UTF-8'?><gpx version="1.1" creator="JPX - https://github.com/jenetics/jpx" xmlns="http://www.topografix.com/GPX/1/1"><trk><trkseg><trkpt lat="46.45570621514758" lon="11.248626128955712"><ele>533.0</ele><time>2026-04-06T14:05:05Z</time></trkpt><trkpt lat="46.455625414812616" lon="11.248600909757073"><ele>533.0</ele><time>2026-04-06T14:05:06Z</time></trkpt><trkpt lat="46.455542242675705" lon="11.248567717485727"><ele>533.0</ele><time>2026-04-06T14:05:07Z</time></trkpt><trkpt lat="46.455451581536515" lon="11.248529239723787"><ele>533.0</ele><time>2026-04-06T14:05:07.999Z</time></trkpt><trkpt lat="46.45534849855657" lon="11.248457546221319"><ele>533.0</ele><time>2026-04-06T14:05:08.999Z</time></trkpt><trkpt lat="46.45523798633083" lon="11.248404090115839"><ele>531.25</ele><time>2026-04-06T14:05:09.999Z</time></trkpt><trkpt lat="46.45512466016788" lon="11.248364310629007"><ele>529.5</ele><time>2026-04-06T14:05:10.999Z</time></trkpt><trkpt lat="46.45498228656528" lon="11.248292474508839"><ele>527.75</ele><time>2026-04-06T14:05:11.999Z</time></trkpt><trkpt lat="46.45485342571165" lon="11.248214997836794"><ele>526.0</ele><time>2026-04-06T14:05:12.999Z</time></trkpt><trkpt lat="46.45474107132763" lon="11.24814121813673"><ele>527.0</ele><time>2026-04-06T14:05:13.999Z</time></trkpt><trkpt lat="46.45464358929602" lon="11.248069912751115"><ele>528.0</ele><time>2026-04-06T14:05:14.999Z</time></trkpt><trkpt lat="46.45454112892074" lon="11.2480068073254"><ele>529.0</ele><time>2026-04-06T14:05:15.999Z</time></trkpt><trkpt lat="46.454436151080586" lon="11.247939752828133"><ele>530.0</ele><time>2026-04-06T14:05:16.999Z</time></trkpt><trkpt lat="46.454332930987036" lon="11.247877501141014"><ele>531.0</ele><time>2026-04-06T14:05:17.999Z</time></trkpt><trkpt lat="46.45423758970571" lon="11.247824495532841"><ele>531.0</ele><time>2026-04-06T14:05:18.998Z</time></trkpt><trkpt lat="46.45415579596549" lon="11.247770158374319"><ele>531.0</ele><time>2026-04-06T14:05:19.998Z</time></trkpt><trkpt lat="46.45407733503063" lon="11.247724183933636"><ele>531.0</ele><time>2026-04-06T14:05:20.998Z</time></trkpt><trkpt lat="46.453996371918414" lon="11.247665607569257"><ele>531.0</ele><time>2026-04-06T14:05:21.998Z</time></trkpt><trkpt lat="46.4539082257119" lon="11.247586754326036"><ele>531.0</ele><time>2026-04-06T14:05:22.998Z</time></trkpt><trkpt lat="46.4538312501049" lon="11.24753395546047"><ele>532.25</ele><time>2026-04-06T14:05:23.998Z</time></trkpt><trkpt lat="46.45374146408713" lon="11.247473001133466"><ele>533.5</ele><time>2026-04-06T14:05:24.998Z</time></trkpt><trkpt lat="46.45363264794558" lon="11.247432290748618"><ele>534.75</ele><time>2026-04-06T14:05:25.998Z</time></trkpt><trkpt lat="46.45350919736376" lon="11.247378690690486"><ele>536.0</ele><time>2026-04-06T14:05:26.998Z</time></trkpt><trkpt lat="46.45334582140224" lon="11.24733631517371"><ele>536.0</ele><time>2026-04-06T14:05:27.998Z</time></trkpt><trkpt lat="46.45319267737511" lon="11.247298524141206"><ele>536.0</ele><time>2026-04-06T14:05:28.998Z</time></trkpt><trkpt lat="46.453042914328705" lon="11.247254347290845"><ele>536.0</ele><time>2026-04-06T14:05:29.998Z</time></trkpt><trkpt lat="46.4528756557695" lon="11.247199861939373"><ele>537.3333333333333</ele><time>2026-04-06T14:05:30.998Z</time></trkpt><trkpt lat="46.452680741374124" lon="11.247144099115886"><ele>538.6666666666666</ele><time>2026-04-06T14:05:31.998Z</time></trkpt><trkpt lat="46.45250379555147" lon="11.247102597032308"><ele>540.0</ele><time>2026-04-06T14:05:32.998Z</time></trkpt><trkpt lat="46.452352616030396" lon="11.24706167368777"><ele>540.0</ele><time>2026-04-06T14:05:33.998Z</time></trkpt><trkpt lat="46.45222560713626" lon="11.247018545692965"><ele>540.0</ele><time>2026-04-06T14:05:34.998Z</time></trkpt><trkpt lat="46.45212138223108" lon="11.246963122967513"><ele>540.0</ele><time>2026-04-06T14:05:35.998Z</time></trkpt><trkpt lat="46.45200800636472" lon="11.246898335487012"><ele>540.0</ele><time>2026-04-06T14:05:36.998Z</time></trkpt><trkpt lat="46.45186051291252" lon="11.246850501404408"><ele>538.3333333333334</ele><time>2026-04-06T14:05:37.998Z</time></trkpt><trkpt lat="46.45168670293781" lon="11.246807887827863"><ele>536.6666666666667</ele><time>2026-04-06T14:05:38.998Z</time></trkpt><trkpt lat="46.45151774271347" lon="11.246769172241171"><ele>535.0</ele><time>2026-04-06T14:05:39.998Z</time></trkpt><trkpt lat="46.45137738992693" lon="11.246738882214407"><ele>534.5</ele><time>2026-04-06T14:05:40.998Z</time></trkpt><trkpt lat="46.451262817264514" lon="11.246715097929798"><ele>534.0</ele><time>2026-04-06T14:05:41.998Z</time></trkpt><trkpt lat="46.45117192474934" lon="11.246697031979803"><ele>533.5</ele><time>2026-04-06T14:05:42.998Z</time></trkpt><trkpt lat="46.4511030012693" lon="11.24668711221173"><ele>533.0</ele><time>2026-04-06T14:05:43.998Z</time></trkpt><trkpt lat="46.451047467460775" lon="11.246737095210376"><ele>532.5</ele><time>2026-04-06T14:05:44.998Z</time></trkpt><trkpt lat="46.45104339131085" lon="11.24689042168126"><ele>532.0</ele><time>2026-04-06T14:05:45.998Z</time></trkpt><trkpt lat="46.45104539382379" lon="11.24702527720336"><ele>532.0</ele><time>2026-04-06T14:05:46.998Z</time></trkpt><trkpt lat="46.45104187763449" lon="11.247190451736536"><ele>532.0</ele><time>2026-04-06T14:05:47.998Z</time></trkpt><trkpt lat="46.45103571677143" lon="11.247351052774588"><ele>532.0</ele><time>2026-04-06T14:05:48.998Z</time></trkpt><trkpt lat="46.45103080656093" lon="11.247502420428773"><ele>532.0</ele><time>2026-04-06T14:05:49.998Z</time></trkpt><trkpt lat="46.45103025723915" lon="11.24764979514214"><ele>532.0</ele><time>2026-04-06T14:05:50.998Z</time></trkpt><trkpt lat="46.451025260120325" lon="11.247778995123783"><ele>530.8000000000001</ele><time>2026-04-06T14:05:51.998Z</time></trkpt><trkpt lat="46.45100216718166" lon="11.247878311575345"><ele>529.6</ele><time>2026-04-06T14:05:52.999Z</time></trkpt><trkpt lat="46.4509506481671" lon="11.247961295059442"><ele>528.4000000000001</ele><time>2026-04-06T14:05:53.999Z</time></trkpt><trkpt lat="46.45086660785009" lon="11.248041429523147"><ele>527.2</ele><time>2026-04-06T14:05:54.999Z</time></trkpt><trkpt lat="46.45077013371716" lon="11.248151385561911"><ele>526.0</ele><time>2026-04-06T14:05:55.999Z</time></trkpt><trkpt lat="46.45065816759719" lon="11.24829862678142"><ele>523.25</ele><time>2026-04-06T14:05:56.999Z</time></trkpt><trkpt lat="46.45054809297026" lon="11.248454011113392"><ele>520.5</ele><time>2026-04-06T14:05:57.999Z</time></trkpt><trkpt lat="46.450450136252165" lon="11.248596555796361"><ele>517.75</ele><time>2026-04-06T14:05:58.999Z</time></trkpt><trkpt lat="46.45036225914651" lon="11.248717167940141"><ele>515.0</ele><time>2026-04-06T14:05:59.999Z</time></trkpt><trkpt lat="46.45028788117687" lon="11.248839648184612"><ele>513.5</ele><time>2026-04-06T14:06:00.999Z</time></trkpt><trkpt lat="46.45023084238173" lon="11.248990539983007"><ele>512.0</ele><time>2026-04-06T14:06:01.999Z</time></trkpt><trkpt lat="46.450193142323606" lon="11.24917531221198"><ele>510.5</ele><time>2026-04-06T14:06:02.999Z</time></trkpt><trkpt lat="46.45016259762611" lon="11.249374396759313"><ele>509.0</ele><time>2026-04-06T14:06:03.999Z</time></trkpt><trkpt lat="46.450149975006454" lon="11.24956020661824"><ele>509.0</ele><time>2026-04-06T14:06:04.999Z</time></trkpt><trkpt lat="46.45012905308704" lon="11.249741994575974"><ele>509.0</ele><time>2026-04-06T14:06:05.999Z</time></trkpt><trkpt lat="46.45012943730549" lon="11.249937998313735"><ele>509.0</ele><time>2026-04-06T14:06:06.999Z</time></trkpt><trkpt lat="46.4501261943054" lon="11.250114469198987"><ele>509.0</ele><time>2026-04-06T14:06:07.999Z</time></trkpt><trkpt lat="46.45012215864748" lon="11.25030276023897"><ele>508.5</ele><time>2026-04-06T14:06:08.999Z</time></trkpt><trkpt lat="46.4501553385998" lon="11.250490705102013"><ele>508.0</ele><time>2026-04-06T14:06:09.999Z</time></trkpt><trkpt lat="46.45017660775811" lon="11.250669541063491"><ele>507.5</ele><time>2026-04-06T14:06:10.999Z</time></trkpt><trkpt lat="46.45020362647397" lon="11.2508257555538"><ele>507.0</ele><time>2026-04-06T14:06:11.999Z</time></trkpt><trkpt lat="46.450217380376756" lon="11.25096843098687"><ele>507.0</ele><time>2026-04-06T14:06:12.999Z</time></trkpt><trkpt lat="46.45018549605428" lon="11.251114586930246"><ele>507.0</ele><time>2026-04-06T14:06:13.999Z</time></trkpt><trkpt lat="46.450081011509155" lon="11.25123881747913"><ele>507.0</ele><time>2026-04-06T14:06:14.999Z</time></trkpt><trkpt lat="46.45000128992385" lon="11.251444381041917"><ele>507.0</ele><time>2026-04-06T14:06:15.999Z</time></trkpt><trkpt lat="46.44992916813325" lon="11.251653239738193"><ele>504.0</ele><time>2026-04-06T14:06:16.999Z</time></trkpt><trkpt lat="46.449858148944216" lon="11.251816669428738"><ele>501.00000000000006</ele><time>2026-04-06T14:06:17.999Z</time></trkpt><trkpt lat="46.44980229834639" lon="11.251956691390765"><ele>498.00000000000006</ele><time>2026-04-06T14:06:18.999Z</time></trkpt><trkpt lat="46.44976742054953" lon="11.252089680698067"><ele>495.0</ele><time>2026-04-06T14:06:19.999Z</time></trkpt><trkpt lat="46.449773835537364" lon="11.252229970164445"><ele>492.0</ele><time>2026-04-06T14:06:20.999Z</time></trkpt><trkpt lat="46.449822647030544" lon="11.252388394789207"><ele>489.75</ele><time>2026-04-06T14:06:21.999Z</time></trkpt><trkpt lat="46.44989363454107" lon="11.252566255890155"><ele>487.5</ele><time>2026-04-06T14:06:22.999Z</time></trkpt><trkpt lat="46.449946861815654" lon="11.25274975330443"><ele>485.25</ele><time>2026-04-06T14:06:23.999Z</time></trkpt><trkpt lat="46.45000283483079" lon="11.252919436493384"><ele>483.0</ele><time>2026-04-06T14:06:24.999Z</time></trkpt><trkpt lat="46.450046925338334" lon="11.253079459380226"><ele>481.4</ele><time>2026-04-06T14:06:25.999Z</time></trkpt><trkpt lat="46.45008631797163" lon="11.253220756895443"><ele>479.79999999999995</ele><time>2026-04-06T14:06:26.999Z</time></trkpt><trkpt lat="46.450115717643676" lon="11.253353915205954"><ele>478.2</ele><time>2026-04-06T14:06:27.999Z</time></trkpt><trkpt lat="46.450156587376" lon="11.253476751258182"><ele>476.6</ele><time>2026-04-06T14:06:28.999Z</time></trkpt><trkpt lat="46.45026292493689" lon="11.25353945693866"><ele>475.0</ele><time>2026-04-06T14:06:29.999Z</time></trkpt><trkpt lat="46.45037407358873" lon="11.253626842550002"><ele>475.0</ele><time>2026-04-06T14:06:30.999Z</time></trkpt><trkpt lat="46.45049199924328" lon="11.253733281840036"><ele>475.0</ele><time>2026-04-06T14:06:31.999Z</time></trkpt><trkpt lat="46.45059205838742" lon="11.25382268928519"><ele>475.0</ele><time>2026-04-06T14:06:32.999Z</time></trkpt><trkpt lat="46.4506368860604" lon="11.253895433325733"><ele>475.0</ele><time>2026-04-06T14:06:33.999Z</time></trkpt><trkpt lat="46.450660394903046" lon="11.25403717265566"><ele>475.0</ele><time>2026-04-06T14:06:35.999Z</time></trkpt><trkpt lat="46.45066920359363" lon="11.254162692364686"><ele>473.4</ele><time>2026-04-06T14:06:36.999Z</time></trkpt><trkpt lat="46.45066006767023" lon="11.25432160517364"><ele>471.8</ele><time>2026-04-06T14:06:37.999Z</time></trkpt><trkpt lat="46.45071308526785" lon="11.25446420481766"><ele>470.20000000000005</ele><time>2026-04-06T14:06:38.999Z</time></trkpt><trkpt lat="46.450746229908994" lon="11.254586495436355"><ele>468.6</ele><time>2026-04-06T14:06:39.999Z</time></trkpt><trkpt lat="46.450786037783814" lon="11.254677082709724"><ele>467.0</ele><time>2026-04-06T14:06:40.999Z</time></trkpt><trkpt lat="46.45071940093758" lon="11.25483236612055"><ele>466.6</ele><time>2026-04-06T14:06:42.999Z</time></trkpt><trkpt lat="46.450651871324965" lon="11.254934858742379"><ele>466.20000000000005</ele><time>2026-04-06T14:06:43.999Z</time></trkpt><trkpt lat="46.45055853477687" lon="11.25502229453866"><ele>465.8</ele><time>2026-04-06T14:06:44.999Z</time></trkpt><trkpt lat="46.45048728796298" lon="11.255091170014905"><ele>465.4</ele><time>2026-04-06T14:06:45.999Z</time></trkpt><trkpt lat="46.45044276842763" lon="11.255192628318957"><ele>465.0</ele><time>2026-04-06T14:06:46.999Z</time></trkpt><trkpt lat="46.45046290046629" lon="11.25536673773408"><ele>465.0</ele><time>2026-04-06T14:06:47.999Z</time></trkpt><trkpt lat="46.45046427663547" lon="11.255559809814658"><ele>465.0</ele><time>2026-04-06T14:06:48.999Z</time></trkpt><trkpt lat="46.450445228991825" lon="11.25573004287821"><ele>465.0</ele><time>2026-04-06T14:06:49.999Z</time></trkpt><trkpt lat="46.450415441628905" lon="11.255887416259563"><ele>465.0</ele><time>2026-04-06T14:06:50.999Z</time></trkpt><trkpt lat="46.45033845521255" lon="11.256031759172709"><ele>462.5</ele><time>2026-04-06T14:06:51.999Z</time></trkpt><trkpt lat="46.45029179686855" lon="11.256201997603139"><ele>460.0</ele><time>2026-04-06T14:06:52.999Z</time></trkpt><trkpt lat="46.450254746979134" lon="11.256361779806358"><ele>457.5</ele><time>2026-04-06T14:06:53.999Z</time></trkpt><trkpt lat="46.45024090961319" lon="11.25653429780899"><ele>455.0</ele><time>2026-04-06T14:06:54.999Z</time></trkpt><trkpt lat="46.45024309730752" lon="11.256724126416646"><ele>453.4</ele><time>2026-04-06T14:06:55.999Z</time></trkpt><trkpt lat="46.45024325296125" lon="11.256892155201959"><ele>451.8</ele><time>2026-04-06T14:06:56.999Z</time></trkpt><trkpt lat="46.45022915544366" lon="11.257049283238672"><ele>450.20000000000005</ele><time>2026-04-06T14:06:57.999Z</time></trkpt><trkpt lat="46.4502206668209" lon="11.257187118225577"><ele>448.6</ele><time>2026-04-06T14:06:58.999Z</time></trkpt><trkpt lat="46.45022260312708" lon="11.257298030053189"><ele>447.0</ele><time>2026-04-06T14:06:59.999Z</time></trkpt><trkpt lat="46.450220363372985" lon="11.25743285561828"><ele>447.0</ele><time>2026-04-06T14:07:01.999Z</time></trkpt><trkpt lat="46.45003726261662" lon="11.257336238296189"><ele>447.0</ele><time>2026-04-06T14:07:04.999Z</time></trkpt><trkpt lat="46.4499371989632" lon="11.257245682854002"><ele>447.0</ele><time>2026-04-06T14:07:05.999Z</time></trkpt><trkpt lat="46.449826559207466" lon="11.257150103772009"><ele>447.0</ele><time>2026-04-06T14:07:06.999Z</time></trkpt><trkpt lat="46.44969872446643" lon="11.257043598854104"><ele>449.0</ele><time>2026-04-06T14:07:07.999Z</time></trkpt><trkpt lat="46.449565411926365" lon="11.256967845216526"><ele>451.0</ele><time>2026-04-06T14:07:08.999Z</time></trkpt><trkpt lat="46.449414755234535" lon="11.25693915926226"><ele>453.0</ele><time>2026-04-06T14:07:09.999Z</time></trkpt><trkpt lat="46.4492401245361" lon="11.256965653740766"><ele>453.0</ele><time>2026-04-06T14:07:10.999Z</time></trkpt><trkpt lat="46.44907012926867" lon="11.257046067955931"><ele>453.0</ele><time>2026-04-06T14:07:11.999Z</time></trkpt><trkpt lat="46.44890206306708" lon="11.257171507810275"><ele>453.0</ele><time>2026-04-06T14:07:12.999Z</time></trkpt><trkpt lat="46.44876197719429" lon="11.257306100286362"><ele>451.5</ele><time>2026-04-06T14:07:13.999Z</time></trkpt><trkpt lat="46.44864052847265" lon="11.257399890053803"><ele>450.0</ele><time>2026-04-06T14:07:14.999Z</time></trkpt><trkpt lat="46.44851850667458" lon="11.25742176832849"><ele>448.5</ele><time>2026-04-06T14:07:15.999Z</time></trkpt><trkpt lat="46.44838514608756" lon="11.257371861528377"><ele>447.0</ele><time>2026-04-06T14:07:16.999Z</time></trkpt><trkpt lat="46.44825249519893" lon="11.257259273825447"><ele>450.0</ele><time>2026-04-06T14:07:17.999Z</time></trkpt><trkpt lat="46.4481270709839" lon="11.257092256518858"><ele>453.0</ele><time>2026-04-06T14:07:18.999Z</time></trkpt><trkpt lat="46.44801039949257" lon="11.256887924535901"><ele>456.0</ele><time>2026-04-06T14:07:19.999Z</time></trkpt><trkpt lat="46.44790962286296" lon="11.25666390438162"><ele>456.0</ele><time>2026-04-06T14:07:20.999Z</time></trkpt><trkpt lat="46.44781952189609" lon="11.256456550326183"><ele>456.0</ele><time>2026-04-06T14:07:21.999Z</time></trkpt><trkpt lat="46.447700006517444" lon="11.256308781546377"><ele>456.0</ele><time>2026-04-06T14:07:22.999Z</time></trkpt><trkpt lat="46.447543356094215" lon="11.25622310691158"><ele>458.25</ele><time>2026-04-06T14:07:23.999Z</time></trkpt><trkpt lat="46.44738836657868" lon="11.256154307710784"><ele>460.5</ele><time>2026-04-06T14:07:24.999Z</time></trkpt><trkpt lat="46.44728343628465" lon="11.256043458536924"><ele>462.75</ele><time>2026-04-06T14:07:25.999Z</time></trkpt><trkpt lat="46.44718289170662" lon="11.255923121658267"><ele>465.0</ele><time>2026-04-06T14:07:26.998Z</time></trkpt><trkpt lat="46.447128709639436" lon="11.255726874337977"><ele>466.75</ele><time>2026-04-06T14:07:27.998Z</time></trkpt><trkpt lat="46.44704392451007" lon="11.25556572629601"><ele>468.5</ele><time>2026-04-06T14:07:28.998Z</time></trkpt><trkpt lat="46.44695693539861" lon="11.255442824920001"><ele>470.25</ele><time>2026-04-06T14:07:29.998Z</time></trkpt><trkpt lat="46.44685275977114" lon="11.255377150973576"><ele>472.0</ele><time>2026-04-06T14:07:30.998Z</time></trkpt><trkpt lat="46.4467384926725" lon="11.255347391046437"><ele>472.0</ele><time>2026-04-06T14:07:31.998Z</time></trkpt><trkpt lat="46.44661831743485" lon="11.255352826931395"><ele>472.0</ele><time>2026-04-06T14:07:32.998Z</time></trkpt><trkpt lat="46.44649158966727" lon="11.25534213804625"><ele>472.0</ele><time>2026-04-06T14:07:33.998Z</time></trkpt><trkpt lat="46.44635526588078" lon="11.255311118860297"><ele>472.0</ele><time>2026-04-06T14:07:34.998Z</time></trkpt><trkpt lat="46.44621460684953" lon="11.25528078786099"><ele>472.0</ele><time>2026-04-06T14:07:35.998Z</time></trkpt><trkpt lat="46.4460686187595" lon="11.255256409152928"><ele>472.0</ele><time>2026-04-06T14:07:36.998Z</time></trkpt><trkpt lat="46.44593066482822" lon="11.255235757334539"><ele>472.0</ele><time>2026-04-06T14:07:37.998Z</time></trkpt><trkpt lat="46.445798250873224" lon="11.255203427605212"><ele>472.0</ele><time>2026-04-06T14:07:38.998Z</time></trkpt><trkpt lat="46.44569319914079" lon="11.255132481725898"><ele>472.00000000000006</ele><time>2026-04-06T14:07:39.998Z</time></trkpt><trkpt lat="46.44560524190601" lon="11.255076588648375"><ele>472.0</ele><time>2026-04-06T14:07:40.998Z</time></trkpt><trkpt lat="46.44553716099808" lon="11.255022549535438"><ele>472.0</ele><time>2026-04-06T14:07:41.998Z</time></trkpt><trkpt lat="46.44547002596126" lon="11.254992074448714"><ele>472.0</ele><time>2026-04-06T14:07:42.998Z</time></trkpt><trkpt lat="46.44543186891367" lon="11.254917609478992"><ele>472.00000000000006</ele><time>2026-04-06T14:07:43.998Z</time></trkpt><trkpt lat="46.445382266524085" lon="11.254859484474856"><ele>472.0</ele><time>2026-04-06T14:07:44.998Z</time></trkpt><trkpt lat="46.44528032861275" lon="11.254845992931402"><ele>470.6666666666667</ele><time>2026-04-06T14:07:45.998Z</time></trkpt><trkpt lat="46.44513946732047" lon="11.254872748526951"><ele>469.33333333333337</ele><time>2026-04-06T14:07:46.998Z</time></trkpt><trkpt lat="46.444989099492254" lon="11.254924675793134"><ele>468.0</ele><time>2026-04-06T14:07:47.998Z</time></trkpt><trkpt lat="46.44481810841161" lon="11.254965140767581"><ele>468.0</ele><time>2026-04-06T14:07:48.998Z</time></trkpt><trkpt lat="46.444645585970086" lon="11.25500498261983"><ele>468.0</ele><time>2026-04-06T14:07:49.998Z</time></trkpt><trkpt lat="46.444471071208376" lon="11.255047293155808"><ele>468.0</ele><time>2026-04-06T14:07:50.998Z</time></trkpt><trkpt lat="46.444310650714364" lon="11.255069330759529"><ele>471.0</ele><time>2026-04-06T14:07:51.998Z</time></trkpt><trkpt lat="46.44414517282175" lon="11.255061130909226"><ele>474.0</ele><time>2026-04-06T14:07:52.998Z</time></trkpt><trkpt lat="46.443991238046166" lon="11.254949654225195"><ele>477.0</ele><time>2026-04-06T14:07:53.998Z</time></trkpt><trkpt lat="46.44383689958818" lon="11.25483189269387"><ele>477.75</ele><time>2026-04-06T14:07:54.998Z</time></trkpt><trkpt lat="46.44370308007341" lon="11.254741371348885"><ele>478.5</ele><time>2026-04-06T14:07:55.998Z</time></trkpt><trkpt lat="46.44359492131246" lon="11.254626594279447"><ele>479.25</ele><time>2026-04-06T14:07:56.998Z</time></trkpt><trkpt lat="46.44350687958576" lon="11.254513534586188"><ele>480.0</ele><time>2026-04-06T14:07:57.998Z</time></trkpt><trkpt lat="46.44343609816352" lon="11.25440499548661"><ele>480.0</ele><time>2026-04-06T14:07:58.999Z</time></trkpt><trkpt lat="46.4433713711872" lon="11.254344951352232"><ele>480.0</ele><time>2026-04-06T14:07:59.999Z</time></trkpt><trkpt lat="46.44338534664414" lon="11.254154000055344"><ele>480.0</ele><time>2026-04-06T14:08:00.999Z</time></trkpt><trkpt lat="46.44339713248309" lon="11.253947927006818"><ele>480.0</ele><time>2026-04-06T14:08:01.999Z</time></trkpt><trkpt lat="46.44337424677377" lon="11.25371155102132"><ele>483.0</ele><time>2026-04-06T14:08:02.999Z</time></trkpt><trkpt lat="46.443361792885135" lon="11.253458595545547"><ele>486.0</ele><time>2026-04-06T14:08:03.999Z</time></trkpt><trkpt lat="46.44333574863432" lon="11.253187165830338"><ele>489.0</ele><time>2026-04-06T14:08:04.999Z</time></trkpt><trkpt lat="46.44329717976051" lon="11.252934928076314"><ele>491.0</ele><time>2026-04-06T14:08:05.999Z</time></trkpt><trkpt lat="46.44326096428189" lon="11.25266361741399"><ele>493.0</ele><time>2026-04-06T14:08:06.999Z</time></trkpt><trkpt lat="46.44323360964596" lon="11.252377961551149"><ele>495.0</ele><time>2026-04-06T14:08:07.999Z</time></trkpt><trkpt lat="46.4432077824809" lon="11.252072293871716"><ele>495.0</ele><time>2026-04-06T14:08:08.999Z</time></trkpt><trkpt lat="46.44317583504718" lon="11.251770298994783"><ele>495.0</ele><time>2026-04-06T14:08:09.999Z</time></trkpt><trkpt lat="46.44313259289832" lon="11.251505216099162"><ele>495.0</ele><time>2026-04-06T14:08:10.999Z</time></trkpt><trkpt lat="46.44305779172149" lon="11.251274567206938"><ele>497.33333333333337</ele><time>2026-04-06T14:08:11.999Z</time></trkpt><trkpt lat="46.44294429809739" lon="11.251070121796294"><ele>499.6666666666667</ele><time>2026-04-06T14:08:12.999Z</time></trkpt><trkpt lat="46.44278901961332" lon="11.250886587580833"><ele>502.0</ele><time>2026-04-06T14:08:13.999Z</time></trkpt><trkpt lat="46.44261843146284" lon="11.250727118843704"><ele>506.0</ele><time>2026-04-06T14:08:14.999Z</time></trkpt><trkpt lat="46.44247149530257" lon="11.25058856512743"><ele>510.0</ele><time>2026-04-06T14:08:15.999Z</time></trkpt><trkpt lat="46.44235642449062" lon="11.250448287567597"><ele>514.0</ele><time>2026-04-06T14:08:16.999Z</time></trkpt><trkpt lat="46.44226541127856" lon="11.250305247632614"><ele>514.0</ele><time>2026-04-06T14:08:17.999Z</time></trkpt><trkpt lat="46.44219981659887" lon="11.250143691513273"><ele>514.0</ele><time>2026-04-06T14:08:18.999Z</time></trkpt><trkpt lat="46.442180550889184" lon="11.24993001323998"><ele>514.0</ele><time>2026-04-06T14:08:19.999Z</time></trkpt><trkpt lat="46.44222145041867" lon="11.249692127472592"><ele>514.0</ele><time>2026-04-06T14:08:20.999Z</time></trkpt><trkpt lat="46.442228793211626" lon="11.249437920360155"><ele>514.0</ele><time>2026-04-06T14:08:21.999Z</time></trkpt><trkpt lat="46.442243495710606" lon="11.249203631811458"><ele>514.0</ele><time>2026-04-06T14:08:22.999Z</time></trkpt><trkpt lat="46.44231175185303" lon="11.249021498318292"><ele>514.0</ele><time>2026-04-06T14:08:23.999Z</time></trkpt><trkpt lat="46.4424074911399" lon="11.248860439898104"><ele>513.3333333333334</ele><time>2026-04-06T14:08:24.999Z</time></trkpt><trkpt lat="46.44253095670073" lon="11.2487005360457"><ele>512.6666666666666</ele><time>2026-04-06T14:08:25.999Z</time></trkpt><trkpt lat="46.44264457163884" lon="11.24852024183004"><ele>512.0</ele><time>2026-04-06T14:08:26.999Z</time></trkpt><trkpt lat="46.44275474408852" lon="11.248363808452613"><ele>512.0</ele><time>2026-04-06T14:08:27.999Z</time></trkpt><trkpt lat="46.442824202526495" lon="11.248203548421024"><ele>512.0</ele><time>2026-04-06T14:08:28.999Z</time></trkpt><trkpt lat="46.44285197222583" lon="11.248004307977235"><ele>512.0</ele><time>2026-04-06T14:08:29.999Z</time></trkpt><trkpt lat="46.44283183022582" lon="11.24779287857751"><ele>512.0</ele><time>2026-04-06T14:08:30.999Z</time></trkpt><trkpt lat="46.44274827026051" lon="11.247593084421931"><ele>515.6666666666666</ele><time>2026-04-06T14:08:31.999Z</time></trkpt><trkpt lat="46.44262088189167" lon="11.247414285616562"><ele>519.3333333333334</ele><time>2026-04-06T14:08:32.999Z</time></trkpt><trkpt lat="46.44249560776582" lon="11.247253959144608"><ele>523.0</ele><time>2026-04-06T14:08:33.999Z</time></trkpt><trkpt lat="46.442364336309176" lon="11.247148965189504"><ele>523.0</ele><time>2026-04-06T14:08:34.999Z</time></trkpt><trkpt lat="46.44220096085984" lon="11.247114515943665"><ele>523.0</ele><time>2026-04-06T14:08:35.999Z</time></trkpt><trkpt lat="46.442020071068235" lon="11.247127728430673"><ele>523.0</ele><time>2026-04-06T14:08:36.999Z</time></trkpt><trkpt lat="46.44183351067301" lon="11.247132868808498"><ele>521.0</ele><time>2026-04-06T14:08:37.999Z</time></trkpt><trkpt lat="46.44165116320589" lon="11.247014402888368"><ele>519.0</ele><time>2026-04-06T14:08:38.999Z</time></trkpt><trkpt lat="46.44143607714773" lon="11.246976250439483"><ele>517.0</ele><time>2026-04-06T14:08:39.999Z</time></trkpt><trkpt lat="46.44121488173716" lon="11.246995629978727"><ele>517.0</ele><time>2026-04-06T14:08:40.999Z</time></trkpt><trkpt lat="46.440982433047274" lon="11.24698453261186"><ele>517.0</ele><time>2026-04-06T14:08:41.999Z</time></trkpt><trkpt lat="46.44075459015928" lon="11.246999310073022"><ele>517.0</ele><time>2026-04-06T14:08:42.999Z</time></trkpt><trkpt lat="46.44053603995408" lon="11.247016347487559"><ele>517.0</ele><time>2026-04-06T14:08:43.999Z</time></trkpt><trkpt lat="46.440314106431366" lon="11.24703345198843"><ele>517.0</ele><time>2026-04-06T14:08:44.999Z</time></trkpt><trkpt lat="46.44008658506468" lon="11.247050987149034"><ele>533.0</ele><time>2026-04-06T14:08:45.999Z</time></trkpt><trkpt lat="46.43986361208486" lon="11.247067910485178"><ele>549.0</ele><time>2026-04-06T14:08:46.999Z</time></trkpt><trkpt lat="46.43963919385495" lon="11.247075903451297"><ele>565.0</ele><time>2026-04-06T14:08:47.999Z</time></trkpt><trkpt lat="46.439422169005994" lon="11.247053226448129"><ele>566.5</ele><time>2026-04-06T14:08:48.999Z</time></trkpt><trkpt lat="46.43919985067866" lon="11.246998939179868"><ele>568.0</ele><time>2026-04-06T14:08:49.999Z</time></trkpt><trkpt lat="46.43896578415981" lon="11.246935912707537"><ele>564.5</ele><time>2026-04-06T14:08:50.999Z</time></trkpt><trkpt lat="46.43872990975699" lon="11.2468892718859"><ele>561.0</ele><time>2026-04-06T14:08:51.999Z</time></trkpt><trkpt lat="46.438505881915226" lon="11.246811575109518"><ele>561.0</ele><time>2026-04-06T14:08:52.999Z</time></trkpt><trkpt lat="46.438293079155486" lon="11.24670323684264"><ele>561.0</ele><time>2026-04-06T14:08:53.999Z</time></trkpt><trkpt lat="46.43807673177445" lon="11.246561052354279"><ele>571.0</ele><time>2026-04-06T14:08:54.999Z</time></trkpt><trkpt lat="46.43786534653339" lon="11.246407044411374"><ele>581.0</ele><time>2026-04-06T14:08:55.999Z</time></trkpt><trkpt lat="46.43764304540117" lon="11.246249834758617"><ele>581.0</ele><time>2026-04-06T14:08:56.999Z</time></trkpt><trkpt lat="46.437426041414454" lon="11.246101118703175"><ele>581.0</ele><time>2026-04-06T14:08:57.999Z</time></trkpt><trkpt lat="46.437231678691795" lon="11.245963284623457"><ele>575.6666666666666</ele><time>2026-04-06T14:08:58.999Z</time></trkpt><trkpt lat="46.437050854226555" lon="11.245836372309999"><ele>570.3333333333334</ele><time>2026-04-06T14:08:59.999Z</time></trkpt><trkpt lat="46.436862939369774" lon="11.245718876964627"><ele>565.0</ele><time>2026-04-06T14:09:00.999Z</time></trkpt><trkpt lat="46.4366676145897" lon="11.245641868078879"><ele>576.6666666666667</ele><time>2026-04-06T14:09:01.999Z</time></trkpt><trkpt lat="46.43644780264227" lon="11.245617140934925"><ele>588.3333333333334</ele><time>2026-04-06T14:09:02.999Z</time></trkpt><trkpt lat="46.43622119918179" lon="11.245616230798596"><ele>600.0</ele><time>2026-04-06T14:09:03.999Z</time></trkpt><trkpt lat="46.43599918979961" lon="11.245604136411092"><ele>600.0</ele><time>2026-04-06T14:09:04.999Z</time></trkpt><trkpt lat="46.435804348578586" lon="11.245524665375521"><ele>600.0</ele><time>2026-04-06T14:09:05.999Z</time></trkpt><trkpt lat="46.43563390369038" lon="11.245450040313985"><ele>600.0</ele><time>2026-04-06T14:09:06.999Z</time></trkpt><trkpt lat="46.43547777360254" lon="11.245393742893611"><ele>594.0</ele><time>2026-04-06T14:09:07.999Z</time></trkpt><trkpt lat="46.43534019657264" lon="11.24530958781508"><ele>588.0</ele><time>2026-04-06T14:09:08.999Z</time></trkpt><trkpt lat="46.43520586136024" lon="11.245226785875069"><ele>582.0</ele><time>2026-04-06T14:09:09.999Z</time></trkpt><trkpt lat="46.43506402418052" lon="11.24512967572777"><ele>582.0</ele><time>2026-04-06T14:09:10.999Z</time></trkpt><trkpt lat="46.43491933908444" lon="11.245032767349075"><ele>582.0</ele><time>2026-04-06T14:09:11.999Z</time></trkpt><trkpt lat="46.4347690303915" lon="11.244939464431798"><ele>582.0</ele><time>2026-04-06T14:09:12.999Z</time></trkpt><trkpt lat="46.43461102725568" lon="11.244835342196808"><ele>591.6666666666666</ele><time>2026-04-06T14:09:13.999Z</time></trkpt><trkpt lat="46.43444210130896" lon="11.24471765346639"><ele>601.3333333333333</ele><time>2026-04-06T14:09:14.999Z</time></trkpt><trkpt lat="46.43425410027852" lon="11.244588303753334"><ele>611.0</ele><time>2026-04-06T14:09:15.999Z</time></trkpt><trkpt lat="46.43405582213465" lon="11.24445745174408"><ele>611.0</ele><time>2026-04-06T14:09:16.999Z</time></trkpt><trkpt lat="46.433838321105576" lon="11.244334180968272"><ele>611.0</ele><time>2026-04-06T14:09:17.999Z</time></trkpt><trkpt lat="46.43363764626643" lon="11.244238367417305"><ele>611.0</ele><time>2026-04-06T14:09:18.999Z</time></trkpt><trkpt lat="46.43346368257876" lon="11.244164542631891"><ele>614.0</ele><time>2026-04-06T14:09:19.999Z</time></trkpt><trkpt lat="46.433319437783105" lon="11.24408132541204"><ele>617.0</ele><time>2026-04-06T14:09:20.999Z</time></trkpt><trkpt lat="46.43320444349119" lon="11.243926739961609"><ele>620.0</ele><time>2026-04-06T14:09:21.999Z</time></trkpt><trkpt lat="46.43307277917388" lon="11.243785433486394"><ele>614.6666666666666</ele><time>2026-04-06T14:09:22.999Z</time></trkpt><trkpt lat="46.43294427976645" lon="11.24368926144277"><ele>609.3333333333334</ele><time>2026-04-06T14:09:23.999Z</time></trkpt><trkpt lat="46.432785424797565" lon="11.243654749187913"><ele>604.0</ele><time>2026-04-06T14:09:24.999Z</time></trkpt><trkpt lat="46.4326250274185" lon="11.243660386363201"><ele>604.0</ele><time>2026-04-06T14:09:25.999Z</time></trkpt><trkpt lat="46.43248109881282" lon="11.243629924783535"><ele>604.0</ele><time>2026-04-06T14:09:26.999Z</time></trkpt><trkpt lat="46.432376613822534" lon="11.243490540816163"><ele>604.0</ele><time>2026-04-06T14:09:27.999Z</time></trkpt><trkpt lat="46.432255210256464" lon="11.243323126449145"><ele>607.3333333333334</ele><time>2026-04-06T14:09:28.999Z</time></trkpt><trkpt lat="46.43213517172063" lon="11.243140151540993"><ele>610.6666666666666</ele><time>2026-04-06T14:09:29.999Z</time></trkpt><trkpt lat="46.43205110523417" lon="11.24295289558667"><ele>614.0</ele><time>2026-04-06T14:09:30.999Z</time></trkpt><trkpt lat="46.43199449677522" lon="11.242748897925093"><ele>614.0</ele><time>2026-04-06T14:09:31.999Z</time></trkpt><trkpt lat="46.43194895413966" lon="11.242562288213858"><ele>614.0</ele><time>2026-04-06T14:09:32.999Z</time></trkpt><trkpt lat="46.431883271215376" lon="11.242390752582667"><ele>614.0</ele><time>2026-04-06T14:09:33.999Z</time></trkpt><trkpt lat="46.431762403952284" lon="11.242280406270599"><ele>614.0</ele><time>2026-04-06T14:09:34.999Z</time></trkpt><trkpt lat="46.43159731819097" lon="11.242233520434386"><ele>617.6666666666666</ele><time>2026-04-06T14:09:35.999Z</time></trkpt><trkpt lat="46.431419732741816" lon="11.24221060016618"><ele>621.3333333333334</ele><time>2026-04-06T14:09:36.999Z</time></trkpt><trkpt lat="46.431236206558964" lon="11.242175411866379"><ele>625.0</ele><time>2026-04-06T14:09:37.999Z</time></trkpt><trkpt lat="46.43108187317847" lon="11.242066819212999"><ele>625.0</ele><time>2026-04-06T14:09:38.999Z</time></trkpt><trkpt lat="46.430943000961825" lon="11.241877524314086"><ele>625.0</ele><time>2026-04-06T14:09:39.999Z</time></trkpt><trkpt lat="46.43077462269098" lon="11.241673854442933"><ele>625.0</ele><time>2026-04-06T14:09:40.999Z</time></trkpt><trkpt lat="46.43061244730181" lon="11.24145295431317"><ele>619.0</ele><time>2026-04-06T14:09:41.999Z</time></trkpt><trkpt lat="46.43044106427615" lon="11.241218387012857"><ele>613.0</ele><time>2026-04-06T14:09:42.999Z</time></trkpt><trkpt lat="46.430282148527475" lon="11.240977055681121"><ele>613.0</ele><time>2026-04-06T14:09:43.999Z</time></trkpt><trkpt lat="46.43014286131009" lon="11.240719138008133"><ele>613.0</ele><time>2026-04-06T14:09:44.999Z</time></trkpt><trkpt lat="46.430016900895666" lon="11.240441283094816"><ele>624.6666666666667</ele><time>2026-04-06T14:09:45.999Z</time></trkpt><trkpt lat="46.4299097780232" lon="11.240188991678068"><ele>636.3333333333334</ele><time>2026-04-06T14:09:46.999Z</time></trkpt><trkpt lat="46.42981303420016" lon="11.239965212247206"><ele>648.0</ele><time>2026-04-06T14:09:47.999Z</time></trkpt><trkpt lat="46.429711546949015" lon="11.239779528373624"><ele>650.75</ele><time>2026-04-06T14:09:48.999Z</time></trkpt><trkpt lat="46.42958962040086" lon="11.239642070231017"><ele>653.5</ele><time>2026-04-06T14:09:49.999Z</time></trkpt><trkpt lat="46.429446525116575" lon="11.239565681254017"><ele>656.25</ele><time>2026-04-06T14:09:50.999Z</time></trkpt><trkpt lat="46.429311367205834" lon="11.239551440545036"><ele>659.0</ele><time>2026-04-06T14:09:51.999Z</time></trkpt><trkpt lat="46.42918545966929" lon="11.239574388529016"><ele>659.0</ele><time>2026-04-06T14:09:52.999Z</time></trkpt><trkpt lat="46.429055549193606" lon="11.23957374961983"><ele>659.0</ele><time>2026-04-06T14:09:53.999Z</time></trkpt><trkpt lat="46.42893872711002" lon="11.239485993390733"><ele>659.0</ele><time>2026-04-06T14:09:54.999Z</time></trkpt><trkpt lat="46.428849680182466" lon="11.239348100550231"><ele>659.0</ele><time>2026-04-06T14:09:55.999Z</time></trkpt><trkpt lat="46.4287585045125" lon="11.239192394067343"><ele>654.75</ele><time>2026-04-06T14:09:56.999Z</time></trkpt><trkpt lat="46.42865593447057" lon="11.239049767016725"><ele>650.5</ele><time>2026-04-06T14:09:57.999Z</time></trkpt><trkpt lat="46.42856996368806" lon="11.238889982763968"><ele>646.25</ele><time>2026-04-06T14:09:58.999Z</time></trkpt><trkpt lat="46.42852134943936" lon="11.238729206682212"><ele>642.0</ele><time>2026-04-06T14:09:59.999Z</time></trkpt><trkpt lat="46.42849827462173" lon="11.238574532308233"><ele>642.0</ele><time>2026-04-06T14:10:00.999Z</time></trkpt><trkpt lat="46.42852410347372" lon="11.238415532566437"><ele>642.0</ele><time>2026-04-06T14:10:01.999Z</time></trkpt><trkpt lat="46.428597255161996" lon="11.238285416099117"><ele>642.0</ele><time>2026-04-06T14:10:02.999Z</time></trkpt><trkpt lat="46.42867731868844" lon="11.238141530340805"><ele>642.0</ele><time>2026-04-06T14:10:03.999Z</time></trkpt><trkpt lat="46.4287477771379" lon="11.237983216701839"><ele>650.5</ele><time>2026-04-06T14:10:04.999Z</time></trkpt><trkpt lat="46.42882964130728" lon="11.237823583055519"><ele>659.0</ele><time>2026-04-06T14:10:05.999Z</time></trkpt><trkpt lat="46.42890870462612" lon="11.237681669981193"><ele>667.5</ele><time>2026-04-06T14:10:06.999Z</time></trkpt><trkpt lat="46.42895477297764" lon="11.237531537898374"><ele>676.0</ele><time>2026-04-06T14:10:07.999Z</time></trkpt><trkpt lat="46.42896617887041" lon="11.237383849371922"><ele>677.5999999999999</ele><time>2026-04-06T14:10:08.999Z</time></trkpt><trkpt lat="46.42892281871488" lon="11.237239743210784"><ele>679.2</ele><time>2026-04-06T14:10:09.999Z</time></trkpt><trkpt lat="46.4288312143066" lon="11.237147405172419"><ele>680.8</ele><time>2026-04-06T14:10:10.999Z</time></trkpt><trkpt lat="46.42872922337696" lon="11.237105010264807"><ele>682.4000000000001</ele><time>2026-04-06T14:10:11.999Z</time></trkpt><trkpt lat="46.428606803309805" lon="11.2371198386722"><ele>684.0</ele><time>2026-04-06T14:10:12.999Z</time></trkpt><trkpt lat="46.42847079870338" lon="11.237176110859663"><ele>684.0</ele><time>2026-04-06T14:10:13.999Z</time></trkpt><trkpt lat="46.42834980678809" lon="11.237199650990174"><ele>684.0</ele><time>2026-04-06T14:10:14.999Z</time></trkpt><trkpt lat="46.42820759171364" lon="11.23723032547153"><ele>684.0</ele><time>2026-04-06T14:10:15.999Z</time></trkpt><trkpt lat="46.42805454329311" lon="11.237257764443404"><ele>684.0</ele><time>2026-04-06T14:10:16.999Z</time></trkpt><trkpt lat="46.42789271898454" lon="11.237283360840694"><ele>677.6666666666666</ele><time>2026-04-06T14:10:18Z</time></trkpt><trkpt lat="46.42772623666505" lon="11.237311716906095"><ele>671.3333333333333</ele><time>2026-04-06T14:10:19Z</time></trkpt><trkpt lat="46.42756549949385" lon="11.237317928719063"><ele>665.0</ele><time>2026-04-06T14:10:20Z</time></trkpt><trkpt lat="46.427405783524655" lon="11.237297245027218"><ele>665.0</ele><time>2026-04-06T14:10:21Z</time></trkpt><trkpt lat="46.42726485145365" lon="11.237229447221921"><ele>665.0</ele><time>2026-04-06T14:10:22Z</time></trkpt><trkpt lat="46.42714025395802" lon="11.237102130044022"><ele>665.0</ele><time>2026-04-06T14:10:23Z</time></trkpt><trkpt lat="46.42703991048888" lon="11.236925124355865"><ele>663.6666666666666</ele><time>2026-04-06T14:10:24Z</time></trkpt><trkpt lat="46.42697797552713" lon="11.236706481283173"><ele>662.3333333333334</ele><time>2026-04-06T14:10:25Z</time></trkpt><trkpt lat="46.42695655906171" lon="11.236454213778549"><ele>661.0</ele><time>2026-04-06T14:10:26Z</time></trkpt><trkpt lat="46.4269623260979" lon="11.236219594747013"><ele>661.0</ele><time>2026-04-06T14:10:27Z</time></trkpt><trkpt lat="46.42697306788819" lon="11.236023519597294"><ele>661.0</ele><time>2026-04-06T14:10:28Z</time></trkpt><trkpt lat="46.42697422404133" lon="11.235871623491096"><ele>661.0</ele><time>2026-04-06T14:10:29Z</time></trkpt><trkpt lat="46.426941382429625" lon="11.235754719609357"><ele>661.0</ele><time>2026-04-06T14:10:30Z</time></trkpt><trkpt lat="46.42687125517536" lon="11.235694815790703"><ele>661.0</ele><time>2026-04-06T14:10:31Z</time></trkpt><trkpt lat="46.42677952296375" lon="11.235649885936866"><ele>661.25</ele><time>2026-04-06T14:10:32Z</time></trkpt><trkpt lat="46.42668082917837" lon="11.235557313218383"><ele>661.5</ele><time>2026-04-06T14:10:33Z</time></trkpt><trkpt lat="46.426571263130654" lon="11.235411884743428"><ele>661.75</ele><time>2026-04-06T14:10:34Z</time></trkpt><trkpt lat="46.42644520243113" lon="11.235253385530536"><ele>662.0</ele><time>2026-04-06T14:10:35Z</time></trkpt><trkpt lat="46.42631136391137" lon="11.235080435171684"><ele>660.0</ele><time>2026-04-06T14:10:36Z</time></trkpt><trkpt lat="46.426164243318" lon="11.234943449930462"><ele>658.0</ele><time>2026-04-06T14:10:37Z</time></trkpt><trkpt lat="46.425989372407486" lon="11.234804559752188"><ele>656.0</ele><time>2026-04-06T14:10:38Z</time></trkpt><trkpt lat="46.4258324382229" lon="11.234617499359132"><ele>656.0</ele><time>2026-04-06T14:10:39Z</time></trkpt><trkpt lat="46.42570662474083" lon="11.234408456917773"><ele>656.0</ele><time>2026-04-06T14:10:40Z</time></trkpt><trkpt lat="46.42559057252214" lon="11.234202701975565"><ele>656.0</ele><time>2026-04-06T14:10:41Z</time></trkpt><trkpt lat="46.425459232956655" lon="11.234024462199818"><ele>654.3333333333333</ele><time>2026-04-06T14:10:42Z</time></trkpt><trkpt lat="46.42530235865167" lon="11.233865211679328"><ele>652.6666666666666</ele><time>2026-04-06T14:10:43Z</time></trkpt><trkpt lat="46.42513066523124" lon="11.233736712789241"><ele>651.0</ele><time>2026-04-06T14:10:44Z</time></trkpt><trkpt lat="46.42494281885129" lon="11.233625801249506"><ele>651.0</ele><time>2026-04-06T14:10:45Z</time></trkpt><trkpt lat="46.42473621232579" lon="11.23351866218398"><ele>651.0</ele><time>2026-04-06T14:10:46Z</time></trkpt><trkpt lat="46.424527972091624" lon="11.233401671767428"><ele>651.0</ele><time>2026-04-06T14:10:47Z</time></trkpt><trkpt lat="46.4243309243738" lon="11.23328054406976"><ele>647.3333333333334</ele><time>2026-04-06T14:10:48Z</time></trkpt><trkpt lat="46.42414199517756" lon="11.233160549670906"><ele>643.6666666666667</ele><time>2026-04-06T14:10:49Z</time></trkpt><trkpt lat="46.42395981260855" lon="11.233047163390053"><ele>640.0</ele><time>2026-04-06T14:10:50Z</time></trkpt><trkpt lat="46.42377706869" lon="11.232954008952648"><ele>637.0</ele><time>2026-04-06T14:10:51Z</time></trkpt><trkpt lat="46.42358986170437" lon="11.232883860250748"><ele>634.0</ele><time>2026-04-06T14:10:52Z</time></trkpt><trkpt lat="46.42340320538891" lon="11.232834683713127"><ele>631.0</ele><time>2026-04-06T14:10:53Z</time></trkpt><trkpt lat="46.423221907075536" lon="11.232784218829659"><ele>631.0</ele><time>2026-04-06T14:10:54Z</time></trkpt><trkpt lat="46.42305104278949" lon="11.232714282378682"><ele>631.0</ele><time>2026-04-06T14:10:55Z</time></trkpt><trkpt lat="46.42289719132763" lon="11.232621990695032"><ele>631.0</ele><time>2026-04-06T14:10:56Z</time></trkpt><trkpt lat="46.422759114714246" lon="11.232539099921453"><ele>630.6666666666667</ele><time>2026-04-06T14:10:57Z</time></trkpt><trkpt lat="46.422621655806985" lon="11.232509009130881"><ele>630.3333333333334</ele><time>2026-04-06T14:10:58Z</time></trkpt><trkpt lat="46.422469106322744" lon="11.23253598908504"><ele>630.0</ele><time>2026-04-06T14:10:59Z</time></trkpt><trkpt lat="46.422308151175386" lon="11.232545111276307"><ele>625.3333333333334</ele><time>2026-04-06T14:11:00Z</time></trkpt><trkpt lat="46.422143128996105" lon="11.232506694715209"><ele>620.6666666666667</ele><time>2026-04-06T14:11:01Z</time></trkpt><trkpt lat="46.421976142877355" lon="11.232427147689183"><ele>616.0</ele><time>2026-04-06T14:11:02Z</time></trkpt><trkpt lat="46.421828127752654" lon="11.232352724884688"><ele>620.5</ele><time>2026-04-06T14:11:03Z</time></trkpt><trkpt lat="46.4217066104198" lon="11.232281155456395"><ele>625.0</ele><time>2026-04-06T14:11:04Z</time></trkpt><trkpt lat="46.421606885220264" lon="11.232191488726164"><ele>629.5</ele><time>2026-04-06T14:11:05Z</time></trkpt><trkpt lat="46.42154447248832" lon="11.232031992277127"><ele>634.0</ele><time>2026-04-06T14:11:06Z</time></trkpt><trkpt lat="46.42145309989008" lon="11.231883159470547"><ele>634.0</ele><time>2026-04-06T14:11:07Z</time></trkpt><trkpt lat="46.42137204533336" lon="11.23174134328045"><ele>634.0</ele><time>2026-04-06T14:11:08Z</time></trkpt><trkpt lat="46.42126264838418" lon="11.231651005039348"><ele>634.0</ele><time>2026-04-06T14:11:09Z</time></trkpt><trkpt lat="46.421110590336006" lon="11.231655039579376"><ele>634.0</ele><time>2026-04-06T14:11:10Z</time></trkpt><trkpt lat="46.42096230491478" lon="11.231660532307503"><ele>629.2</ele><time>2026-04-06T14:11:11Z</time></trkpt><trkpt lat="46.420839886860016" lon="11.23167527892199"><ele>624.4</ele><time>2026-04-06T14:11:12Z</time></trkpt><trkpt lat="46.420733711207774" lon="11.231681983736447"><ele>619.6</ele><time>2026-04-06T14:11:13Z</time></trkpt><trkpt lat="46.42064611271677" lon="11.23171226074143"><ele>614.8</ele><time>2026-04-06T14:11:14Z</time></trkpt><trkpt lat="46.42059714529217" lon="11.231798602262298"><ele>610.0</ele><time>2026-04-06T14:11:15Z</time></trkpt><trkpt lat="46.420588474897684" lon="11.231910656245683"><ele>610.0</ele><time>2026-04-06T14:11:16Z</time></trkpt><trkpt lat="46.42064205016023" lon="11.232003854166827"><ele>610.0</ele><time>2026-04-06T14:11:17Z</time></trkpt><trkpt lat="46.420735489113376" lon="11.232052973842736"><ele>610.0</ele><time>2026-04-06T14:11:17.999Z</time></trkpt><trkpt lat="46.42085801016146" lon="11.232062082989476"><ele>610.0</ele><time>2026-04-06T14:11:18.999Z</time></trkpt><trkpt lat="46.42097800260198" lon="11.232095859690032"><ele>610.0</ele><time>2026-04-06T14:11:19.999Z</time></trkpt><trkpt lat="46.42108715898259" lon="11.232143526360467"><ele>610.0</ele><time>2026-04-06T14:11:20.999Z</time></trkpt><trkpt lat="46.42119790836691" lon="11.23225720472009"><ele>610.0</ele><time>2026-04-06T14:11:21.999Z</time></trkpt><trkpt lat="46.421298782037596" lon="11.23238494962452"><ele>610.0</ele><time>2026-04-06T14:11:22.999Z</time></trkpt><trkpt lat="46.42138439653293" lon="11.232463867796222"><ele>610.0</ele><time>2026-04-06T14:11:23.999Z</time></trkpt><trkpt lat="46.421416099437174" lon="11.232563213480224"><ele>610.0</ele><time>2026-04-06T14:11:24.999Z</time></trkpt><trkpt lat="46.42139186370007" lon="11.232665415172344"><ele>611.5</ele><time>2026-04-06T14:11:25.999Z</time></trkpt><trkpt lat="46.42132523456098" lon="11.232728405963826"><ele>613.0</ele><time>2026-04-06T14:11:26.999Z</time></trkpt><trkpt lat="46.42122442559918" lon="11.232729883418214"><ele>614.5</ele><time>2026-04-06T14:11:27.999Z</time></trkpt><trkpt lat="46.42110421886159" lon="11.232727424985336"><ele>616.0</ele><time>2026-04-06T14:11:28.999Z</time></trkpt><trkpt lat="46.42095815291514" lon="11.232770015322254"><ele>609.6666666666667</ele><time>2026-04-06T14:11:29.999Z</time></trkpt><trkpt lat="46.42081783708741" lon="11.232867062018087"><ele>603.3333333333334</ele><time>2026-04-06T14:11:30.999Z</time></trkpt><trkpt lat="46.420667432109475" lon="11.23298794649135"><ele>597.0</ele><time>2026-04-06T14:11:31.999Z</time></trkpt><trkpt lat="46.42051517409614" lon="11.233091018607563"><ele>592.3333333333334</ele><time>2026-04-06T14:11:32.999Z</time></trkpt><trkpt lat="46.42035622293014" lon="11.233154640270737"><ele>587.6666666666667</ele><time>2026-04-06T14:11:33.999Z</time></trkpt><trkpt lat="46.420196376321954" lon="11.233182939536812"><ele>583.0</ele><time>2026-04-06T14:11:34.999Z</time></trkpt><trkpt lat="46.42004878387977" lon="11.233176554993598"><ele>583.0</ele><time>2026-04-06T14:11:35.999Z</time></trkpt><trkpt lat="46.419923903040576" lon="11.233149282257953"><ele>583.0</ele><time>2026-04-06T14:11:36.999Z</time></trkpt><trkpt lat="46.41982418970561" lon="11.23310383064098"><ele>583.0</ele><time>2026-04-06T14:11:37.999Z</time></trkpt><trkpt lat="46.41973970410512" lon="11.233073635308712"><ele>583.0</ele><time>2026-04-06T14:11:38.999Z</time></trkpt><trkpt lat="46.41966259754013" lon="11.233103945551745"><ele>583.0</ele><time>2026-04-06T14:11:39.999Z</time></trkpt><trkpt lat="46.41961845536152" lon="11.233205860099122"><ele>583.0</ele><time>2026-04-06T14:11:40.999Z</time></trkpt><trkpt lat="46.41962650757117" lon="11.233328174345218"><ele>583.0</ele><time>2026-04-06T14:11:41.999Z</time></trkpt><trkpt lat="46.419677288888614" lon="11.233453232009799"><ele>583.0</ele><time>2026-04-06T14:11:42.999Z</time></trkpt><trkpt lat="46.419758494318316" lon="11.233599964594308"><ele>583.0</ele><time>2026-04-06T14:11:43.999Z</time></trkpt><trkpt lat="46.419825962631194" lon="11.233757205037705"><ele>583.0</ele><time>2026-04-06T14:11:44.999Z</time></trkpt><trkpt lat="46.419901370925324" lon="11.233892356887763"><ele>580.5</ele><time>2026-04-06T14:11:45.999Z</time></trkpt><trkpt lat="46.42000094616418" lon="11.233990745840247"><ele>578.0</ele><time>2026-04-06T14:11:46.999Z</time></trkpt><trkpt lat="46.42013144627113" lon="11.234038376049893"><ele>575.5</ele><time>2026-04-06T14:11:47.999Z</time></trkpt><trkpt lat="46.420247302882736" lon="11.234083694900427"><ele>573.0</ele><time>2026-04-06T14:11:48.998Z</time></trkpt><trkpt lat="46.42033686145075" lon="11.234110087963199"><ele>573.0</ele><time>2026-04-06T14:11:49.998Z</time></trkpt><trkpt lat="46.42039396537137" lon="11.2341535630213"><ele>573.0</ele><time>2026-04-06T14:11:50.998Z</time></trkpt><trkpt lat="46.42040068530221" lon="11.23425316764629"><ele>573.0</ele><time>2026-04-06T14:11:51.998Z</time></trkpt><trkpt lat="46.420356240480864" lon="11.234340370919545"><ele>573.0</ele><time>2026-04-06T14:11:52.998Z</time></trkpt><trkpt lat="46.42028486906322" lon="11.234361644427368"><ele>573.0</ele><time>2026-04-06T14:11:53.998Z</time></trkpt><trkpt lat="46.42019249942368" lon="11.234310454613752"><ele>573.0</ele><time>2026-04-06T14:11:54.998Z</time></trkpt><trkpt lat="46.4200915370282" lon="11.234263226984515"><ele>573.0</ele><time>2026-04-06T14:11:55.998Z</time></trkpt><trkpt lat="46.4199831725896" lon="11.234286602952052"><ele>573.0</ele><time>2026-04-06T14:11:56.998Z</time></trkpt><trkpt lat="46.4198888884699" lon="11.234376106165312"><ele>573.0</ele><time>2026-04-06T14:11:57.998Z</time></trkpt><trkpt lat="46.41981510687821" lon="11.234464726977036"><ele>573.0</ele><time>2026-04-06T14:11:58.998Z</time></trkpt><trkpt lat="46.41973391301635" lon="11.234509868659552"><ele>573.0</ele><time>2026-04-06T14:11:59.998Z</time></trkpt><trkpt lat="46.419650701495456" lon="11.234502193026637"><ele>571.5</ele><time>2026-04-06T14:12:00.998Z</time></trkpt><trkpt lat="46.419562587799106" lon="11.234428025357541"><ele>570.0</ele><time>2026-04-06T14:12:01.998Z</time></trkpt><trkpt lat="46.41948997115672" lon="11.234297535779596"><ele>568.5</ele><time>2026-04-06T14:12:02.998Z</time></trkpt><trkpt lat="46.41936974143591" lon="11.234204687626086"><ele>567.0</ele><time>2026-04-06T14:12:03.998Z</time></trkpt><trkpt lat="46.419255530285895" lon="11.234096901487149"><ele>567.0</ele><time>2026-04-06T14:12:04.998Z</time></trkpt><trkpt lat="46.419145717554706" lon="11.233990344968303"><ele>567.0</ele><time>2026-04-06T14:12:05.998Z</time></trkpt><trkpt lat="46.41903602306199" lon="11.233892061380818"><ele>567.0</ele><time>2026-04-06T14:12:06.998Z</time></trkpt><trkpt lat="46.41893220173149" lon="11.233801353526188"><ele>567.0</ele><time>2026-04-06T14:12:07.998Z</time></trkpt><trkpt lat="46.41882320667819" lon="11.233727845906566"><ele>567.0</ele><time>2026-04-06T14:12:08.998Z</time></trkpt><trkpt lat="46.41872446619015" lon="11.233667184197756"><ele>567.0</ele><time>2026-04-06T14:12:09.998Z</time></trkpt><trkpt lat="46.41862362974465" lon="11.233573555730732"><ele>567.0</ele><time>2026-04-06T14:12:10.999Z</time></trkpt><trkpt lat="46.4185201806124" lon="11.23346502686503"><ele>567.0</ele><time>2026-04-06T14:12:11.999Z</time></trkpt><trkpt lat="46.418422407876065" lon="11.233323006328549"><ele>567.0</ele><time>2026-04-06T14:12:12.999Z</time></trkpt><trkpt lat="46.41830115550182" lon="11.233239138600673"><ele>567.0</ele><time>2026-04-06T14:12:13.999Z</time></trkpt><trkpt lat="46.418198419762355" lon="11.233144191626177"><ele>567.0</ele><time>2026-04-06T14:12:14.999Z</time></trkpt><trkpt lat="46.418104597957516" lon="11.233043171831891"><ele>567.0</ele><time>2026-04-06T14:12:15.999Z</time></trkpt><trkpt lat="46.41802621641969" lon="11.232939653703362"><ele>565.4</ele><time>2026-04-06T14:12:16.999Z</time></trkpt><trkpt lat="46.417968617416854" lon="11.232828377610632"><ele>563.8000000000001</ele><time>2026-04-06T14:12:17.999Z</time></trkpt><trkpt lat="46.4179323669113" lon="11.232696221645313"><ele>562.2</ele><time>2026-04-06T14:12:18.999Z</time></trkpt><trkpt lat="46.41793510253307" lon="11.232544525485206"><ele>560.6</ele><time>2026-04-06T14:12:19.999Z</time></trkpt><trkpt lat="46.41788388006512" lon="11.232444601820344"><ele>559.0</ele><time>2026-04-06T14:12:20.999Z</time></trkpt><trkpt lat="46.41779313908066" lon="11.232370570100754"><ele>559.0</ele><time>2026-04-06T14:12:21.999Z</time></trkpt><trkpt lat="46.417661068541605" lon="11.232348370925534"><ele>559.0</ele><time>2026-04-06T14:12:22.999Z</time></trkpt><trkpt lat="46.417512590790686" lon="11.23232200208195"><ele>559.0</ele><time>2026-04-06T14:12:23.999Z</time></trkpt><trkpt lat="46.41737921601295" lon="11.232211902900488"><ele>559.0</ele><time>2026-04-06T14:12:24.999Z</time></trkpt><trkpt lat="46.4172324195609" lon="11.232104223988097"><ele>556.3333333333334</ele><time>2026-04-06T14:12:25.999Z</time></trkpt><trkpt lat="46.417096275737826" lon="11.231939802556408"><ele>553.6666666666666</ele><time>2026-04-06T14:12:26.999Z</time></trkpt><trkpt lat="46.41698335743054" lon="11.231781152328807"><ele>551.0</ele><time>2026-04-06T14:12:27.999Z</time></trkpt><trkpt lat="46.4168663925335" lon="11.23164660134701"><ele>551.0</ele><time>2026-04-06T14:12:28.999Z</time></trkpt><trkpt lat="46.41671920802418" lon="11.231555460334846"><ele>551.0</ele><time>2026-04-06T14:12:29.999Z</time></trkpt><trkpt lat="46.41656223871261" lon="11.23148478304247"><ele>551.0</ele><time>2026-04-06T14:12:30.999Z</time></trkpt><trkpt lat="46.416416399576484" lon="11.231424421048267"><ele>553.6666666666666</ele><time>2026-04-06T14:12:31.999Z</time></trkpt><trkpt lat="46.41627360192001" lon="11.231394508041745"><ele>556.3333333333334</ele><time>2026-04-06T14:12:32.999Z</time></trkpt><trkpt lat="46.41612623106992" lon="11.231399850716635"><ele>559.0</ele><time>2026-04-06T14:12:33.999Z</time></trkpt><trkpt lat="46.41597029280656" lon="11.231441824496574"><ele>554.3333333333334</ele><time>2026-04-06T14:12:34.999Z</time></trkpt><trkpt lat="46.41579870244402" lon="11.231503626534383"><ele>549.6666666666666</ele><time>2026-04-06T14:12:35.999Z</time></trkpt><trkpt lat="46.415633230741484" lon="11.231565788493306"><ele>545.0</ele><time>2026-04-06T14:12:36.999Z</time></trkpt><trkpt lat="46.4154801578164" lon="11.231617307437118"><ele>541.6666666666666</ele><time>2026-04-06T14:12:37.999Z</time></trkpt><trkpt lat="46.415331431318315" lon="11.231637484965544"><ele>538.3333333333334</ele><time>2026-04-06T14:12:38.999Z</time></trkpt><trkpt lat="46.41517354017617" lon="11.231589932984289"><ele>535.0</ele><time>2026-04-06T14:12:39.999Z</time></trkpt><trkpt lat="46.415012126528076" lon="11.231510993962612"><ele>540.6666666666667</ele><time>2026-04-06T14:12:40.999Z</time></trkpt><trkpt lat="46.41486483010669" lon="11.23143158625434"><ele>546.3333333333334</ele><time>2026-04-06T14:12:41.999Z</time></trkpt><trkpt lat="46.414716455792245" lon="11.231388120549774"><ele>552.0</ele><time>2026-04-06T14:12:42.999Z</time></trkpt><trkpt lat="46.41455830357847" lon="11.231394245246944"><ele>552.0</ele><time>2026-04-06T14:12:43.999Z</time></trkpt><trkpt lat="46.4143892212486" lon="11.23143155822646"><ele>552.0</ele><time>2026-04-06T14:12:44.999Z</time></trkpt><trkpt lat="46.41423251414012" lon="11.231489259788255"><ele>552.0</ele><time>2026-04-06T14:12:45.999Z</time></trkpt><trkpt lat="46.414076313174334" lon="11.231550816275067"><ele>546.75</ele><time>2026-04-06T14:12:46.999Z</time></trkpt><trkpt lat="46.413934032439904" lon="11.231612861107097"><ele>541.5</ele><time>2026-04-06T14:12:47.999Z</time></trkpt><trkpt lat="46.41379660700258" lon="11.2316928185338"><ele>536.25</ele><time>2026-04-06T14:12:48.999Z</time></trkpt><trkpt lat="46.41367211014982" lon="11.231791768969037"><ele>531.0</ele><time>2026-04-06T14:12:49.999Z</time></trkpt><trkpt lat="46.41358230232212" lon="11.231927812972966"><ele>531.0</ele><time>2026-04-06T14:12:50.999Z</time></trkpt><trkpt lat="46.413535026490834" lon="11.232101446097623"><ele>531.0</ele><time>2026-04-06T14:12:51.999Z</time></trkpt><trkpt lat="46.41351362969377" lon="11.232299627709613"><ele>531.0</ele><time>2026-04-06T14:12:52.999Z</time></trkpt><trkpt lat="46.413506210407895" lon="11.232494423076696"><ele>531.0</ele><time>2026-04-06T14:12:53.999Z</time></trkpt><trkpt lat="46.41348982162622" lon="11.232672412243353"><ele>528.5</ele><time>2026-04-06T14:12:54.999Z</time></trkpt><trkpt lat="46.413442839184746" lon="11.23281180456183"><ele>526.0</ele><time>2026-04-06T14:12:55.999Z</time></trkpt><trkpt lat="46.413345963692244" lon="11.232883908051948"><ele>523.5</ele><time>2026-04-06T14:12:56.999Z</time></trkpt><trkpt lat="46.41324222946553" lon="11.232987134245617"><ele>521.0</ele><time>2026-04-06T14:12:57.999Z</time></trkpt><trkpt lat="46.41310436726171" lon="11.233069078163673"><ele>519.6666666666666</ele><time>2026-04-06T14:12:58.999Z</time></trkpt><trkpt lat="46.41296467224968" lon="11.23317004145383"><ele>518.3333333333334</ele><time>2026-04-06T14:12:59.999Z</time></trkpt><trkpt lat="46.412815532911274" lon="11.233285682261815"><ele>517.0</ele><time>2026-04-06T14:13:00.999Z</time></trkpt><trkpt lat="46.412658852942336" lon="11.233406505958737"><ele>517.0</ele><time>2026-04-06T14:13:01.999Z</time></trkpt><trkpt lat="46.41250960806278" lon="11.233523975970343"><ele>517.0</ele><time>2026-04-06T14:13:02.999Z</time></trkpt><trkpt lat="46.41235030423979" lon="11.233651840762006"><ele>517.0</ele><time>2026-04-06T14:13:03.999Z</time></trkpt><trkpt lat="46.4121856970003" lon="11.233797325027703"><ele>519.0</ele><time>2026-04-06T14:13:04.999Z</time></trkpt><trkpt lat="46.41202732043151" lon="11.233951596880546"><ele>521.0</ele><time>2026-04-06T14:13:05.999Z</time></trkpt><trkpt lat="46.41186943752451" lon="11.234112558052571"><ele>523.0</ele><time>2026-04-06T14:13:06.999Z</time></trkpt><trkpt lat="46.41171008103734" lon="11.23427058959855"><ele>521.6666666666667</ele><time>2026-04-06T14:13:07.999Z</time></trkpt><trkpt lat="46.41154861737533" lon="11.234424262489615"><ele>520.3333333333334</ele><time>2026-04-06T14:13:08.999Z</time></trkpt><trkpt lat="46.4113858870148" lon="11.234563246395826"><ele>519.0</ele><time>2026-04-06T14:13:09.999Z</time></trkpt><trkpt lat="46.41121903223018" lon="11.234680205499938"><ele>519.0</ele><time>2026-04-06T14:13:10.999Z</time></trkpt><trkpt lat="46.41104222825537" lon="11.234769048362889"><ele>519.0</ele><time>2026-04-06T14:13:11.999Z</time></trkpt><trkpt lat="46.41084719170603" lon="11.234853351428203"><ele>519.0</ele><time>2026-04-06T14:13:12.999Z</time></trkpt><trkpt lat="46.41063164769889" lon="11.234925090078452"><ele>513.6666666666666</ele><time>2026-04-06T14:13:13.999Z</time></trkpt><trkpt lat="46.41041757401676" lon="11.234992305064624"><ele>508.3333333333333</ele><time>2026-04-06T14:13:14.999Z</time></trkpt><trkpt lat="46.41021909805442" lon="11.23506245410306"><ele>503.0</ele><time>2026-04-06T14:13:15.999Z</time></trkpt><trkpt lat="46.410039160252126" lon="11.235148027987007"><ele>503.0</ele><time>2026-04-06T14:13:16.999Z</time></trkpt><trkpt lat="46.40986792963709" lon="11.235246726313436"><ele>503.0</ele><time>2026-04-06T14:13:17.999Z</time></trkpt><trkpt lat="46.4097090677929" lon="11.235347596714728"><ele>503.0</ele><time>2026-04-06T14:13:18.999Z</time></trkpt><trkpt lat="46.409541381130495" lon="11.235449015323825"><ele>503.3333333333333</ele><time>2026-04-06T14:13:19.999Z</time></trkpt><trkpt lat="46.409360440045724" lon="11.235541061793537"><ele>503.66666666666663</ele><time>2026-04-06T14:13:20.999Z</time></trkpt><trkpt lat="46.409162012967336" lon="11.235617734044515"><ele>504.0</ele><time>2026-04-06T14:13:21.999Z</time></trkpt><trkpt lat="46.40896380177952" lon="11.235666214372285"><ele>501.66666666666663</ele><time>2026-04-06T14:13:22.999Z</time></trkpt><trkpt lat="46.40876922155158" lon="11.235691737803656"><ele>499.3333333333333</ele><time>2026-04-06T14:13:23.999Z</time></trkpt><trkpt lat="46.40855477696093" lon="11.235708238647643"><ele>497.0</ele><time>2026-04-06T14:13:24.999Z</time></trkpt><trkpt lat="46.40832237858982" lon="11.235723275701398"><ele>497.0</ele><time>2026-04-06T14:13:25.999Z</time></trkpt><trkpt lat="46.4080984606055" lon="11.235740899054564"><ele>497.0</ele><time>2026-04-06T14:13:26.999Z</time></trkpt><trkpt lat="46.407895469055234" lon="11.235756834826569"><ele>497.0</ele><time>2026-04-06T14:13:27.999Z</time></trkpt><trkpt lat="46.40770641089386" lon="11.235766028477125"><ele>496.3333333333333</ele><time>2026-04-06T14:13:28.999Z</time></trkpt><trkpt lat="46.40752781725697" lon="11.23576609486279"><ele>495.66666666666663</ele><time>2026-04-06T14:13:29.999Z</time></trkpt><trkpt lat="46.40736323542305" lon="11.235714952856695"><ele>495.0</ele><time>2026-04-06T14:13:30.999Z</time></trkpt><trkpt lat="46.40720578045971" lon="11.23569127926833"><ele>494.25</ele><time>2026-04-06T14:13:31.999Z</time></trkpt><trkpt lat="46.40705898651593" lon="11.235643987399303"><ele>493.5</ele><time>2026-04-06T14:13:32.999Z</time></trkpt><trkpt lat="46.40692240181796" lon="11.23560955484015"><ele>492.75</ele><time>2026-04-06T14:13:33.999Z</time></trkpt><trkpt lat="46.40679250052564" lon="11.235578642609331"><ele>492.0</ele><time>2026-04-06T14:13:34.999Z</time></trkpt><trkpt lat="46.406665155995235" lon="11.235544971069961"><ele>495.5</ele><time>2026-04-06T14:13:35.999Z</time></trkpt><trkpt lat="46.40654369913553" lon="11.235516712213606"><ele>499.0</ele><time>2026-04-06T14:13:36.999Z</time></trkpt><trkpt lat="46.40642579918808" lon="11.23550660345001"><ele>502.5</ele><time>2026-04-06T14:13:37.999Z</time></trkpt><trkpt lat="46.40631197797074" lon="11.235530721441554"><ele>506.0</ele><time>2026-04-06T14:13:38.999Z</time></trkpt><trkpt lat="46.40620469268653" lon="11.235593909050401"><ele>504.25</ele><time>2026-04-06T14:13:39.999Z</time></trkpt><trkpt lat="46.40612570136575" lon="11.23572008137879"><ele>502.5</ele><time>2026-04-06T14:13:40.999Z</time></trkpt><trkpt lat="46.40608944655439" lon="11.235902715859504"><ele>500.75</ele><time>2026-04-06T14:13:41.999Z</time></trkpt><trkpt lat="46.40609032080929" lon="11.236070903389091"><ele>499.0</ele><time>2026-04-06T14:13:42.999Z</time></trkpt><trkpt lat="46.406139889573886" lon="11.236236385493669"><ele>499.0</ele><time>2026-04-06T14:13:43.999Z</time></trkpt><trkpt lat="46.406227797648455" lon="11.23637410415577"><ele>499.0</ele><time>2026-04-06T14:13:44.999Z</time></trkpt><trkpt lat="46.406348729433894" lon="11.23648364913251"><ele>499.0</ele><time>2026-04-06T14:13:45.999Z</time></trkpt><trkpt lat="46.40648159050582" lon="11.236613755195686"><ele>499.0</ele><time>2026-04-06T14:13:46.999Z</time></trkpt><trkpt lat="46.40663101460154" lon="11.23674277298504"><ele>494.0</ele><time>2026-04-06T14:13:47.999Z</time></trkpt><trkpt lat="46.40678975623221" lon="11.236862366261004"><ele>489.0</ele><time>2026-04-06T14:13:48.999Z</time></trkpt><trkpt lat="46.406927976528706" lon="11.236998419932569"><ele>484.0</ele><time>2026-04-06T14:13:49.999Z</time></trkpt><trkpt lat="46.40706775012556" lon="11.237124890166944"><ele>484.0</ele><time>2026-04-06T14:13:50.999Z</time></trkpt><trkpt lat="46.40721136461619" lon="11.237245680441779"><ele>484.0</ele><time>2026-04-06T14:13:51.999Z</time></trkpt><trkpt lat="46.407357903621346" lon="11.237350379458617"><ele>484.0</ele><time>2026-04-06T14:13:52.999Z</time></trkpt><trkpt lat="46.40751386797872" lon="11.237443084303353"><ele>480.33333333333337</ele><time>2026-04-06T14:13:53.999Z</time></trkpt><trkpt lat="46.407672447528064" lon="11.237517229658177"><ele>476.66666666666663</ele><time>2026-04-06T14:13:54.999Z</time></trkpt><trkpt lat="46.407823918063514" lon="11.23759238813712"><ele>473.0</ele><time>2026-04-06T14:13:55.999Z</time></trkpt><trkpt lat="46.40797161673107" lon="11.23767322803753"><ele>472.75</ele><time>2026-04-06T14:13:56.999Z</time></trkpt><trkpt lat="46.408111731387216" lon="11.237756095841263"><ele>472.5</ele><time>2026-04-06T14:13:57.999Z</time></trkpt><trkpt lat="46.40825102641609" lon="11.237838694418445"><ele>472.25</ele><time>2026-04-06T14:13:58.999Z</time></trkpt><trkpt lat="46.408385701456325" lon="11.23791556065102"><ele>472.0</ele><time>2026-04-06T14:13:59.999Z</time></trkpt><trkpt lat="46.40851970809881" lon="11.237995058355787"><ele>472.0</ele><time>2026-04-06T14:14:00.999Z</time></trkpt><trkpt lat="46.408649465202274" lon="11.23806961570164"><ele>472.0</ele><time>2026-04-06T14:14:01.999Z</time></trkpt><trkpt lat="46.408777760035306" lon="11.238140447877209"><ele>472.0</ele><time>2026-04-06T14:14:02.999Z</time></trkpt><trkpt lat="46.40890941315282" lon="11.238202468136956"><ele>472.0</ele><time>2026-04-06T14:14:03.999Z</time></trkpt><trkpt lat="46.40904537363243" lon="11.238290397273035"><ele>468.6666666666667</ele><time>2026-04-06T14:14:04.999Z</time></trkpt><trkpt lat="46.40919117158921" lon="11.238370649578219"><ele>465.33333333333337</ele><time>2026-04-06T14:14:05.999Z</time></trkpt><trkpt lat="46.40935089681439" lon="11.23845365544972"><ele>462.0</ele><time>2026-04-06T14:14:06.999Z</time></trkpt><trkpt lat="46.40952132355202" lon="11.238534989980508"><ele>461.66666666666663</ele><time>2026-04-06T14:14:07.999Z</time></trkpt><trkpt lat="46.40968609357932" lon="11.238616914259465"><ele>461.3333333333333</ele><time>2026-04-06T14:14:08.999Z</time></trkpt><trkpt lat="46.4098451846829" lon="11.238687249084116"><ele>461.0</ele><time>2026-04-06T14:14:09.999Z</time></trkpt><trkpt lat="46.40998338858025" lon="11.238809533507066"><ele>461.0</ele><time>2026-04-06T14:14:10.999Z</time></trkpt><trkpt lat="46.41010785428382" lon="11.238954624331788"><ele>461.0</ele><time>2026-04-06T14:14:11.999Z</time></trkpt><trkpt lat="46.41023165091472" lon="11.239109014517396"><ele>461.0</ele><time>2026-04-06T14:14:12.999Z</time></trkpt><trkpt lat="46.41034238129394" lon="11.239244182389575"><ele>459.0</ele><time>2026-04-06T14:14:13.999Z</time></trkpt><trkpt lat="46.41045079698914" lon="11.239363948998204"><ele>457.0</ele><time>2026-04-06T14:14:14.999Z</time></trkpt><trkpt lat="46.41055316517429" lon="11.23947804264232"><ele>455.0</ele><time>2026-04-06T14:14:15.999Z</time></trkpt><trkpt lat="46.410643797415304" lon="11.239589940049612"><ele>453.0</ele><time>2026-04-06T14:14:16.999Z</time></trkpt><trkpt lat="46.41072691901854" lon="11.23970978550439"><ele>451.5</ele><time>2026-04-06T14:14:17.999Z</time></trkpt><trkpt lat="46.410799018774036" lon="11.239835733353624"><ele>450.0</ele><time>2026-04-06T14:14:18.999Z</time></trkpt><trkpt lat="46.41085079171245" lon="11.239975433300282"><ele>448.5</ele><time>2026-04-06T14:14:19.999Z</time></trkpt><trkpt lat="46.41088882695658" lon="11.240127805800308"><ele>447.0</ele><time>2026-04-06T14:14:20.999Z</time></trkpt><trkpt lat="46.410902420897735" lon="11.240300538853164"><ele>447.0</ele><time>2026-04-06T14:14:21.999Z</time></trkpt><trkpt lat="46.41089708237972" lon="11.240468393901264"><ele>447.0</ele><time>2026-04-06T14:14:22.999Z</time></trkpt><trkpt lat="46.410876180062964" lon="11.240637823333834"><ele>447.0</ele><time>2026-04-06T14:14:23.999Z</time></trkpt><trkpt lat="46.41083770509711" lon="11.240796075419151"><ele>447.0</ele><time>2026-04-06T14:14:24.999Z</time></trkpt><trkpt lat="46.41078182845634" lon="11.240953042523213"><ele>445.5</ele><time>2026-04-06T14:14:26Z</time></trkpt><trkpt lat="46.41069133589626" lon="11.241087321238872"><ele>444.0</ele><time>2026-04-06T14:14:27Z</time></trkpt><trkpt lat="46.4105704717029" lon="11.241202121839628"><ele>442.5</ele><time>2026-04-06T14:14:28Z</time></trkpt><trkpt lat="46.4104148431706" lon="11.241283657249596"><ele>441.0</ele><time>2026-04-06T14:14:29Z</time></trkpt><trkpt lat="46.41023546043619" lon="11.24134709741929"><ele>440.0</ele><time>2026-04-06T14:14:30Z</time></trkpt><trkpt lat="46.41005680848339" lon="11.241410975024175"><ele>439.0</ele><time>2026-04-06T14:14:31Z</time></trkpt><trkpt lat="46.40988987633495" lon="11.241469162725421"><ele>438.0</ele><time>2026-04-06T14:14:32Z</time></trkpt><trkpt lat="46.40972842918744" lon="11.241546816578545"><ele>433.33333333333337</ele><time>2026-04-06T14:14:33Z</time></trkpt><trkpt lat="46.40957812030101" lon="11.24164956842052"><ele>428.6666666666667</ele><time>2026-04-06T14:14:34Z</time></trkpt><trkpt lat="46.409450264416336" lon="11.241776673425287"><ele>424.0</ele><time>2026-04-06T14:14:35Z</time></trkpt><trkpt lat="46.40933918425999" lon="11.241938824826935"><ele>424.0</ele><time>2026-04-06T14:14:36Z</time></trkpt><trkpt lat="46.40924228339943" lon="11.242111159414028"><ele>424.0</ele><time>2026-04-06T14:14:37Z</time></trkpt><trkpt lat="46.409161052133705" lon="11.242297428394053"><ele>424.0</ele><time>2026-04-06T14:14:38Z</time></trkpt><trkpt lat="46.409096143025245" lon="11.242494907601358"><ele>419.6666666666667</ele><time>2026-04-06T14:14:39Z</time></trkpt><trkpt lat="46.40904901842351" lon="11.242699423738442"><ele>415.33333333333337</ele><time>2026-04-06T14:14:40Z</time></trkpt><trkpt lat="46.40899315775636" lon="11.242905740389006"><ele>411.0</ele><time>2026-04-06T14:14:41Z</time></trkpt><trkpt lat="46.40890501660356" lon="11.243092059859912"><ele>408.0</ele><time>2026-04-06T14:14:42Z</time></trkpt><trkpt lat="46.408793598551654" lon="11.243236302013749"><ele>405.0</ele><time>2026-04-06T14:14:43Z</time></trkpt><trkpt lat="46.40864420196078" lon="11.243375006766676"><ele>402.0</ele><time>2026-04-06T14:14:44Z</time></trkpt><trkpt lat="46.4084586108896" lon="11.243473764727666"><ele>402.0</ele><time>2026-04-06T14:14:45Z</time></trkpt><trkpt lat="46.40826185632675" lon="11.24359499870912"><ele>402.0</ele><time>2026-04-06T14:14:46Z</time></trkpt><trkpt lat="46.40811342688575" lon="11.243773726509477"><ele>402.0</ele><time>2026-04-06T14:14:47Z</time></trkpt><trkpt lat="46.407975737184564" lon="11.243956630168107"><ele>398.0</ele><time>2026-04-06T14:14:48Z</time></trkpt><trkpt lat="46.40785154548437" lon="11.24415469106461"><ele>394.0</ele><time>2026-04-06T14:14:49Z</time></trkpt><trkpt lat="46.407730228074335" lon="11.244331733429819"><ele>390.0</ele><time>2026-04-06T14:14:50Z</time></trkpt><trkpt lat="46.40757405229655" lon="11.244428614537187"><ele>390.0</ele><time>2026-04-06T14:14:51Z</time></trkpt><trkpt lat="46.4074201275286" lon="11.24452498927656"><ele>390.0</ele><time>2026-04-06T14:14:52Z</time></trkpt><trkpt lat="46.40727992396697" lon="11.24463474789692"><ele>390.0</ele><time>2026-04-06T14:14:53Z</time></trkpt><trkpt lat="46.40714290022391" lon="11.244725825160517"><ele>394.0</ele><time>2026-04-06T14:14:54Z</time></trkpt><trkpt lat="46.407025427553236" lon="11.244860436139524"><ele>398.0</ele><time>2026-04-06T14:14:55Z</time></trkpt><trkpt lat="46.40694772178322" lon="11.245047193181556"><ele>402.0</ele><time>2026-04-06T14:14:56Z</time></trkpt><trkpt lat="46.40688818691895" lon="11.245270290694272"><ele>402.0</ele><time>2026-04-06T14:14:57Z</time></trkpt><trkpt lat="46.40684052328951" lon="11.245480538590817"><ele>402.0</ele><time>2026-04-06T14:14:58Z</time></trkpt><trkpt lat="46.40678742626737" lon="11.245676805395512"><ele>402.0</ele><time>2026-04-06T14:14:59Z</time></trkpt><trkpt lat="46.40673718271496" lon="11.245850072216433"><ele>402.0</ele><time>2026-04-06T14:15:00Z</time></trkpt><trkpt lat="46.40668683362835" lon="11.24601580037243"><ele>399.75</ele><time>2026-04-06T14:15:01Z</time></trkpt><trkpt lat="46.406646999312244" lon="11.246173494271737"><ele>397.5</ele><time>2026-04-06T14:15:02Z</time></trkpt><trkpt lat="46.406608685937115" lon="11.246336704054837"><ele>395.25</ele><time>2026-04-06T14:15:03Z</time></trkpt><trkpt lat="46.40656443265823" lon="11.246502521646121"><ele>393.0</ele><time>2026-04-06T14:15:04Z</time></trkpt><trkpt lat="46.40652364173511" lon="11.246652084139466"><ele>390.59999999999997</ele><time>2026-04-06T14:15:05Z</time></trkpt><trkpt lat="46.40648017154656" lon="11.246798367265772"><ele>388.2</ele><time>2026-04-06T14:15:06Z</time></trkpt><trkpt lat="46.40643998001522" lon="11.246946997042052"><ele>385.8</ele><time>2026-04-06T14:15:07Z</time></trkpt><trkpt lat="46.40639664557053" lon="11.247094196912787"><ele>383.4</ele><time>2026-04-06T14:15:08Z</time></trkpt><trkpt lat="46.40635637157557" lon="11.247235076763392"><ele>381.0</ele><time>2026-04-06T14:15:09Z</time></trkpt><trkpt lat="46.4063165620091" lon="11.247367947957885"><ele>380.8</ele><time>2026-04-06T14:15:10Z</time></trkpt><trkpt lat="46.40628620386561" lon="11.247500075313654"><ele>380.6</ele><time>2026-04-06T14:15:11Z</time></trkpt><trkpt lat="46.4062587818599" lon="11.247635865978456"><ele>380.4</ele><time>2026-04-06T14:15:12Z</time></trkpt><trkpt lat="46.40622322854004" lon="11.247763260789574"><ele>380.2</ele><time>2026-04-06T14:15:13Z</time></trkpt><trkpt lat="46.40618980004653" lon="11.247887095038294"><ele>380.0</ele><time>2026-04-06T14:15:14Z</time></trkpt><trkpt lat="46.406168442761256" lon="11.248024489980487"><ele>376.6</ele><time>2026-04-06T14:15:15Z</time></trkpt><trkpt lat="46.40613566494276" lon="11.24814838359487"><ele>373.2</ele><time>2026-04-06T14:15:16Z</time></trkpt><trkpt lat="46.40606392362154" lon="11.248272014582897"><ele>369.79999999999995</ele><time>2026-04-06T14:15:17Z</time></trkpt><trkpt lat="46.40596021859445" lon="11.248325499935914"><ele>366.4</ele><time>2026-04-06T14:15:18Z</time></trkpt><trkpt lat="46.4058592857929" lon="11.248383605687534"><ele>363.0</ele><time>2026-04-06T14:15:19Z</time></trkpt><trkpt lat="46.4057512272994" lon="11.248429256218136"><ele>363.0</ele><time>2026-04-06T14:15:20Z</time></trkpt><trkpt lat="46.4056325485286" lon="11.24845272177244"><ele>363.0</ele><time>2026-04-06T14:15:21Z</time></trkpt><trkpt lat="46.405517825737384" lon="11.248463140143405"><ele>363.0</ele><time>2026-04-06T14:15:22Z</time></trkpt><trkpt lat="46.405408152076866" lon="11.24847283337688"><ele>363.0</ele><time>2026-04-06T14:15:23Z</time></trkpt><trkpt lat="46.40528827171444" lon="11.248501422710813"><ele>361.5</ele><time>2026-04-06T14:15:24Z</time></trkpt><trkpt lat="46.4051511760376" lon="11.248511717537896"><ele>360.0</ele><time>2026-04-06T14:15:25Z</time></trkpt><trkpt lat="46.405026877816645" lon="11.248522057392915"><ele>358.5</ele><time>2026-04-06T14:15:26Z</time></trkpt><trkpt lat="46.404908418744505" lon="11.24853210421028"><ele>357.0</ele><time>2026-04-06T14:15:27Z</time></trkpt><trkpt lat="46.404795612838875" lon="11.248548367650267"><ele>357.0</ele><time>2026-04-06T14:15:28Z</time></trkpt><trkpt lat="46.40469349114053" lon="11.24855320950675"><ele>357.0</ele><time>2026-04-06T14:15:28.999Z</time></trkpt><trkpt lat="46.40459982785942" lon="11.248565573284779"><ele>357.0</ele><time>2026-04-06T14:15:29.999Z</time></trkpt><trkpt lat="46.40450440889489" lon="11.248579192627162"><ele>357.0</ele><time>2026-04-06T14:15:30.999Z</time></trkpt><trkpt lat="46.40441883512492" lon="11.248598034007607"><ele>357.0</ele><time>2026-04-06T14:15:31.999Z</time></trkpt><trkpt lat="46.4043378675624" lon="11.248596488134273"><ele>356.6666666666667</ele><time>2026-04-06T14:15:32.999Z</time></trkpt><trkpt lat="46.404272362041446" lon="11.248880851719392"><ele>356.33333333333337</ele><time>2026-04-06T14:15:34.999Z</time></trkpt><trkpt lat="46.40427065905126" lon="11.249053038657316"><ele>356.0</ele><time>2026-04-06T14:15:35.999Z</time></trkpt><trkpt lat="46.40424338959694" lon="11.249232624905567"><ele>352.25</ele><time>2026-04-06T14:15:36.999Z</time></trkpt><trkpt lat="46.40419090527997" lon="11.249406793365559"><ele>348.5</ele><time>2026-04-06T14:15:37.999Z</time></trkpt><trkpt lat="46.404102290482356" lon="11.249574324819546"><ele>344.75</ele><time>2026-04-06T14:15:38.999Z</time></trkpt><trkpt lat="46.404000539198734" lon="11.249732420822554"><ele>341.0</ele><time>2026-04-06T14:15:39.999Z</time></trkpt><trkpt lat="46.403889108259996" lon="11.249872563005583"><ele>337.33333333333337</ele><time>2026-04-06T14:15:40.999Z</time></trkpt><trkpt lat="46.40376151691911" lon="11.249986301634735"><ele>333.6666666666667</ele><time>2026-04-06T14:15:41.999Z</time></trkpt><trkpt lat="46.40362750830597" lon="11.250085944662626"><ele>330.0</ele><time>2026-04-06T14:15:42.999Z</time></trkpt><trkpt lat="46.403470838548124" lon="11.250194038527228"><ele>330.0</ele><time>2026-04-06T14:15:43.999Z</time></trkpt><trkpt lat="46.40330728114886" lon="11.250301517284129"><ele>330.0</ele><time>2026-04-06T14:15:44.999Z</time></trkpt><trkpt lat="46.40315587047166" lon="11.250385706696038"><ele>330.0</ele><time>2026-04-06T14:15:45.999Z</time></trkpt><trkpt lat="46.40300840862424" lon="11.250445625946375"><ele>330.25</ele><time>2026-04-06T14:15:46.999Z</time></trkpt><trkpt lat="46.40286280520297" lon="11.250483115715122"><ele>330.5</ele><time>2026-04-06T14:15:47.999Z</time></trkpt><trkpt lat="46.40271534236656" lon="11.250502323450126"><ele>330.75</ele><time>2026-04-06T14:15:48.999Z</time></trkpt><trkpt lat="46.40256269702633" lon="11.250514534082004"><ele>331.0</ele><time>2026-04-06T14:15:49.999Z</time></trkpt><trkpt lat="46.40241278732286" lon="11.250560330798944"><ele>331.0</ele><time>2026-04-06T14:15:50.999Z</time></trkpt><trkpt lat="46.40227770955399" lon="11.25061340426457"><ele>331.0</ele><time>2026-04-06T14:15:51.999Z</time></trkpt><trkpt lat="46.40213253185291" lon="11.250724662805489"><ele>331.0</ele><time>2026-04-06T14:15:52.999Z</time></trkpt><trkpt lat="46.40197551382378" lon="11.25087010282438"><ele>327.66666666666663</ele><time>2026-04-06T14:15:53.999Z</time></trkpt><trkpt lat="46.401816684375724" lon="11.251017211756652"><ele>324.3333333333333</ele><time>2026-04-06T14:15:54.999Z</time></trkpt><trkpt lat="46.40168442494712" lon="11.251139909530822"><ele>321.0</ele><time>2026-04-06T14:15:55.999Z</time></trkpt><trkpt lat="46.40157565115739" lon="11.251251168177433"><ele>321.0</ele><time>2026-04-06T14:15:56.999Z</time></trkpt><trkpt lat="46.401490128950265" lon="11.251374942948692"><ele>321.0</ele><time>2026-04-06T14:15:57.999Z</time></trkpt><trkpt lat="46.40142259257678" lon="11.251527073198066"><ele>321.0</ele><time>2026-04-06T14:15:58.999Z</time></trkpt><trkpt lat="46.40138387190938" lon="11.251702085908418"><ele>321.0</ele><time>2026-04-06T14:15:59.999Z</time></trkpt><trkpt lat="46.40136696588676" lon="11.25190337687061"><ele>316.3333333333333</ele><time>2026-04-06T14:16:00.999Z</time></trkpt><trkpt lat="46.401352274207795" lon="11.252143797679487"><ele>311.66666666666663</ele><time>2026-04-06T14:16:01.999Z</time></trkpt><trkpt lat="46.40133971539505" lon="11.25238631266075"><ele>307.0</ele><time>2026-04-06T14:16:02.999Z</time></trkpt><trkpt lat="46.40132479910407" lon="11.252614685399601"><ele>305.5</ele><time>2026-04-06T14:16:03.999Z</time></trkpt><trkpt lat="46.40126539148457" lon="11.25281037888402"><ele>304.0</ele><time>2026-04-06T14:16:04.999Z</time></trkpt><trkpt lat="46.40119683695094" lon="11.252989592368573"><ele>302.5</ele><time>2026-04-06T14:16:05.999Z</time></trkpt><trkpt lat="46.40110988432223" lon="11.253136104272825"><ele>301.0</ele><time>2026-04-06T14:16:06.999Z</time></trkpt><trkpt lat="46.40100382486826" lon="11.253223758211373"><ele>298.0</ele><time>2026-04-06T14:16:07.999Z</time></trkpt><trkpt lat="46.40086960027027" lon="11.25334299730639"><ele>295.0</ele><time>2026-04-06T14:16:08.999Z</time></trkpt><trkpt lat="46.40074134061965" lon="11.253485668926679"><ele>292.0</ele><time>2026-04-06T14:16:09.999Z</time></trkpt><trkpt lat="46.40063748364418" lon="11.25363553293639"><ele>292.0</ele><time>2026-04-06T14:16:10.999Z</time></trkpt><trkpt lat="46.400555971522124" lon="11.253847201258884"><ele>292.0</ele><time>2026-04-06T14:16:11.999Z</time></trkpt><trkpt lat="46.400479366178644" lon="11.254087120129439"><ele>292.0</ele><time>2026-04-06T14:16:12.999Z</time></trkpt><trkpt lat="46.40039951052108" lon="11.254306603640154"><ele>290.0</ele><time>2026-04-06T14:16:13.999Z</time></trkpt><trkpt lat="46.40031271658742" lon="11.254507354573912"><ele>288.0</ele><time>2026-04-06T14:16:14.999Z</time></trkpt><trkpt lat="46.40020110976567" lon="11.25470759369221"><ele>286.0</ele><time>2026-04-06T14:16:15.999Z</time></trkpt><trkpt lat="46.40005473336056" lon="11.254861636109311"><ele>283.3333333333333</ele><time>2026-04-06T14:16:16.999Z</time></trkpt><trkpt lat="46.399883713918626" lon="11.255054295601967"><ele>280.6666666666667</ele><time>2026-04-06T14:16:17.999Z</time></trkpt><trkpt lat="46.399707935764404" lon="11.25527458989023"><ele>278.0</ele><time>2026-04-06T14:16:18.999Z</time></trkpt><trkpt lat="46.39956094340049" lon="11.255466569116614"><ele>277.0</ele><time>2026-04-06T14:16:19.999Z</time></trkpt><trkpt lat="46.399423507438215" lon="11.255602209509163"><ele>276.0</ele><time>2026-04-06T14:16:20.999Z</time></trkpt><trkpt lat="46.399267982637994" lon="11.255719694222687"><ele>275.0</ele><time>2026-04-06T14:16:21.999Z</time></trkpt><trkpt lat="46.39907640761217" lon="11.255826605519147"><ele>272.5</ele><time>2026-04-06T14:16:23Z</time></trkpt><trkpt lat="46.398857933737176" lon="11.255953428214127"><ele>270.0</ele><time>2026-04-06T14:16:24Z</time></trkpt><trkpt lat="46.39862612500246" lon="11.25608084866085"><ele>266.0</ele><time>2026-04-06T14:16:25Z</time></trkpt><trkpt lat="46.39839239766883" lon="11.25623578015696"><ele>262.0</ele><time>2026-04-06T14:16:26Z</time></trkpt><trkpt lat="46.398174323138875" lon="11.256352220601654"><ele>260.3333333333333</ele><time>2026-04-06T14:16:27Z</time></trkpt><trkpt lat="46.397973200874986" lon="11.256456302143905"><ele>258.6666666666667</ele><time>2026-04-06T14:16:28Z</time></trkpt><trkpt lat="46.397780580514215" lon="11.256547294285275"><ele>257.0</ele><time>2026-04-06T14:16:29Z</time></trkpt><trkpt lat="46.39759909391464" lon="11.256622585536219"><ele>257.0</ele><time>2026-04-06T14:16:30Z</time></trkpt><trkpt lat="46.39743751519533" lon="11.25667984190719"><ele>257.0</ele><time>2026-04-06T14:16:31Z</time></trkpt><trkpt lat="46.397289173843184" lon="11.256739430963787"><ele>257.0</ele><time>2026-04-06T14:16:32Z</time></trkpt><trkpt lat="46.39715388556235" lon="11.256815226874405"><ele>256.75</ele><time>2026-04-06T14:16:33Z</time></trkpt><trkpt lat="46.397044670121154" lon="11.256934612678736"><ele>256.5</ele><time>2026-04-06T14:16:34Z</time></trkpt><trkpt lat="46.39696197225231" lon="11.2571026573179"><ele>256.25</ele><time>2026-04-06T14:16:35Z</time></trkpt><trkpt lat="46.396908077642586" lon="11.2573109206209"><ele>256.0</ele><time>2026-04-06T14:16:36Z</time></trkpt><trkpt lat="46.39685958332164" lon="11.257554477137884"><ele>256.0</ele><time>2026-04-06T14:16:37Z</time></trkpt><trkpt lat="46.3967681948318" lon="11.257757747215427"><ele>256.0</ele><time>2026-04-06T14:16:38Z</time></trkpt><trkpt lat="46.396645229785605" lon="11.257963152738167"><ele>256.0</ele><time>2026-04-06T14:16:39Z</time></trkpt><trkpt lat="46.39651847939719" lon="11.258165822118968"><ele>256.0</ele><time>2026-04-06T14:16:40Z</time></trkpt><trkpt lat="46.39641703045306" lon="11.258347480556997"><ele>256.0</ele><time>2026-04-06T14:16:41Z</time></trkpt><trkpt lat="46.39631280387967" lon="11.258497826595894"><ele>256.0</ele><time>2026-04-06T14:16:42Z</time></trkpt><trkpt lat="46.39621398494162" lon="11.258651707716076"><ele>254.33333333333331</ele><time>2026-04-06T14:16:43Z</time></trkpt><trkpt lat="46.39610577691664" lon="11.25882623248253"><ele>252.66666666666669</ele><time>2026-04-06T14:16:44Z</time></trkpt><trkpt lat="46.39599930134538" lon="11.258985646816727"><ele>251.0</ele><time>2026-04-06T14:16:45Z</time></trkpt><trkpt lat="46.39588913808191" lon="11.259143223195027"><ele>251.0</ele><time>2026-04-06T14:16:46Z</time></trkpt><trkpt lat="46.395800160449724" lon="11.259301471810433"><ele>251.0</ele><time>2026-04-06T14:16:47Z</time></trkpt><trkpt lat="46.39572893832685" lon="11.25946527762045"><ele>251.0</ele><time>2026-04-06T14:16:48Z</time></trkpt><trkpt lat="46.39566784079815" lon="11.259625320867256"><ele>251.0</ele><time>2026-04-06T14:16:49Z</time></trkpt><trkpt lat="46.395611395529315" lon="11.259783429031003"><ele>250.8</ele><time>2026-04-06T14:16:50Z</time></trkpt><trkpt lat="46.39556039575974" lon="11.259931312862118"><ele>250.60000000000002</ele><time>2026-04-06T14:16:51Z</time></trkpt><trkpt lat="46.395485789972106" lon="11.260041461040867"><ele>250.4</ele><time>2026-04-06T14:16:52Z</time></trkpt><trkpt lat="46.395414190017355" lon="11.260132670744209"><ele>250.2</ele><time>2026-04-06T14:16:53Z</time></trkpt><trkpt lat="46.39535405845617" lon="11.260234493096554"><ele>250.0</ele><time>2026-04-06T14:16:54Z</time></trkpt><trkpt lat="46.395280321884975" lon="11.260303217535196"><ele>250.0</ele><time>2026-04-06T14:16:55Z</time></trkpt><trkpt lat="46.395199867929804" lon="11.260396032954851"><ele>250.0</ele><time>2026-04-06T14:16:56Z</time></trkpt><trkpt lat="46.395103937406326" lon="11.260505363491506"><ele>250.0</ele><time>2026-04-06T14:16:57Z</time></trkpt><trkpt lat="46.395016336855264" lon="11.260604350103375"><ele>250.0</ele><time>2026-04-06T14:16:58Z</time></trkpt><trkpt lat="46.394939261063115" lon="11.260708811211792"><ele>250.0</ele><time>2026-04-06T14:16:59Z</time></trkpt><trkpt lat="46.39486077302995" lon="11.260822539872022"><ele>250.2</ele><time>2026-04-06T14:17:00Z</time></trkpt><trkpt lat="46.394778866137734" lon="11.260939840674087"><ele>250.4</ele><time>2026-04-06T14:17:01Z</time></trkpt><trkpt lat="46.39469682643516" lon="11.26105662946243"><ele>250.60000000000002</ele><time>2026-04-06T14:17:02Z</time></trkpt><trkpt lat="46.3946233328788" lon="11.261168290743058"><ele>250.8</ele><time>2026-04-06T14:17:03Z</time></trkpt><trkpt lat="46.39456627537527" lon="11.261286742774454"><ele>251.0</ele><time>2026-04-06T14:17:04Z</time></trkpt><trkpt lat="46.394509813195754" lon="11.261422057539441"><ele>250.4</ele><time>2026-04-06T14:17:05Z</time></trkpt><trkpt lat="46.394458601438586" lon="11.261562195110402"><ele>249.8</ele><time>2026-04-06T14:17:06Z</time></trkpt><trkpt lat="46.39442015284423" lon="11.261694986259617"><ele>249.20000000000002</ele><time>2026-04-06T14:17:07Z</time></trkpt><trkpt lat="46.394380552639156" lon="11.261831675073656"><ele>248.60000000000002</ele><time>2026-04-06T14:17:08Z</time></trkpt><trkpt lat="46.394339986425074" lon="11.261968746487746"><ele>248.0</ele><time>2026-04-06T14:17:09Z</time></trkpt><trkpt lat="46.394299666406724" lon="11.262113328999815"><ele>248.0</ele><time>2026-04-06T14:17:10Z</time></trkpt><trkpt lat="46.39425580616607" lon="11.262257025895188"><ele>248.0</ele><time>2026-04-06T14:17:11Z</time></trkpt><trkpt lat="46.39419886284991" lon="11.262389169289525"><ele>248.0</ele><time>2026-04-06T14:17:12Z</time></trkpt><trkpt lat="46.39412390448458" lon="11.262510655107324"><ele>248.0</ele><time>2026-04-06T14:17:13Z</time></trkpt><trkpt lat="46.394000284162125" lon="11.262608472141862"><ele>247.0</ele><time>2026-04-06T14:17:14Z</time></trkpt><trkpt lat="46.3938559799476" lon="11.26274970204826"><ele>246.0</ele><time>2026-04-06T14:17:15Z</time></trkpt><trkpt lat="46.39367940208773" lon="11.262926287918727"><ele>245.0</ele><time>2026-04-06T14:17:16Z</time></trkpt><trkpt lat="46.39351309046961" lon="11.263113382036204"><ele>247.0</ele><time>2026-04-06T14:17:17Z</time></trkpt><trkpt lat="46.39335738913533" lon="11.26326570466559"><ele>249.0</ele><time>2026-04-06T14:17:18Z</time></trkpt><trkpt lat="46.393230104310945" lon="11.263422220495173"><ele>251.0</ele><time>2026-04-06T14:17:19Z</time></trkpt><trkpt lat="46.393124249234624" lon="11.263576342413447"><ele>251.0</ele><time>2026-04-06T14:17:20Z</time></trkpt><trkpt lat="46.39302654179941" lon="11.263747493004571"><ele>251.0</ele><time>2026-04-06T14:17:21Z</time></trkpt><trkpt lat="46.39293154259107" lon="11.263941083893489"><ele>251.0</ele><time>2026-04-06T14:17:22Z</time></trkpt><trkpt lat="46.392836575697885" lon="11.26417429605519"><ele>250.0</ele><time>2026-04-06T14:17:23Z</time></trkpt><trkpt lat="46.392751700403956" lon="11.264410344618698"><ele>249.0</ele><time>2026-04-06T14:17:24Z</time></trkpt><trkpt lat="46.39268092604842" lon="11.26462160007415"><ele>248.0</ele><time>2026-04-06T14:17:25Z</time></trkpt><trkpt lat="46.39262147436935" lon="11.264820546173306"><ele>248.0</ele><time>2026-04-06T14:17:26Z</time></trkpt><trkpt lat="46.39257777542816" lon="11.265006564576654"><ele>248.0</ele><time>2026-04-06T14:17:27Z</time></trkpt><trkpt lat="46.39254224488325" lon="11.265186769231082"><ele>248.0</ele><time>2026-04-06T14:17:28Z</time></trkpt><trkpt lat="46.39253262079257" lon="11.265362408915287"><ele>248.0</ele><time>2026-04-06T14:17:29Z</time></trkpt><trkpt lat="46.39255795315155" lon="11.265535427318351"><ele>247.75</ele><time>2026-04-06T14:17:30Z</time></trkpt><trkpt lat="46.39263505445115" lon="11.265693567534647"><ele>247.5</ele><time>2026-04-06T14:17:31Z</time></trkpt><trkpt lat="46.39272768753912" lon="11.26581880313111"><ele>247.25</ele><time>2026-04-06T14:17:32Z</time></trkpt><trkpt lat="46.392790360407034" lon="11.265956213457574"><ele>247.0</ele><time>2026-04-06T14:17:33Z</time></trkpt><trkpt lat="46.392759535998316" lon="11.266131659121552"><ele>247.0</ele><time>2026-04-06T14:17:34Z</time></trkpt><trkpt lat="46.3927128013093" lon="11.2663179012145"><ele>247.0</ele><time>2026-04-06T14:17:35Z</time></trkpt><trkpt lat="46.39261346270788" lon="11.266464139544075"><ele>247.0</ele><time>2026-04-06T14:17:36Z</time></trkpt><trkpt lat="46.39246141007723" lon="11.266530979921349"><ele>247.0</ele><time>2026-04-06T14:17:37Z</time></trkpt><trkpt lat="46.392280036783234" lon="11.26660485570327"><ele>248.0</ele><time>2026-04-06T14:17:38Z</time></trkpt><trkpt lat="46.39207025978989" lon="11.266643050601099"><ele>249.0</ele><time>2026-04-06T14:17:39Z</time></trkpt><trkpt lat="46.391854506523885" lon="11.2666576107579"><ele>250.0</ele><time>2026-04-06T14:17:40Z</time></trkpt><trkpt lat="46.39165665279629" lon="11.266637591736467"><ele>250.0</ele><time>2026-04-06T14:17:41Z</time></trkpt><trkpt lat="46.39147950366306" lon="11.26662493688133"><ele>250.0</ele><time>2026-04-06T14:17:42Z</time></trkpt><trkpt lat="46.39130965579281" lon="11.266640766087189"><ele>250.0</ele><time>2026-04-06T14:17:43Z</time></trkpt><trkpt lat="46.39114099807701" lon="11.266691229206966"><ele>247.66666666666666</ele><time>2026-04-06T14:17:44Z</time></trkpt><trkpt lat="46.39097357021967" lon="11.266765923575228"><ele>245.33333333333331</ele><time>2026-04-06T14:17:45Z</time></trkpt><trkpt lat="46.39081203393276" lon="11.26681637410954"><ele>243.0</ele><time>2026-04-06T14:17:46Z</time></trkpt><trkpt lat="46.39065216026004" lon="11.266883412964546"><ele>240.33333333333331</ele><time>2026-04-06T14:17:47Z</time></trkpt><trkpt lat="46.39048364420771" lon="11.266951951047538"><ele>237.66666666666666</ele><time>2026-04-06T14:17:48Z</time></trkpt><trkpt lat="46.39031129695707" lon="11.267020477096743"><ele>235.0</ele><time>2026-04-06T14:17:49Z</time></trkpt><trkpt lat="46.39012151341001" lon="11.267087982790907"><ele>235.0</ele><time>2026-04-06T14:17:50Z</time></trkpt><trkpt lat="46.38992951318144" lon="11.267116335197269"><ele>235.0</ele><time>2026-04-06T14:17:51Z</time></trkpt><trkpt lat="46.38971438587053" lon="11.267361482716922"><ele>243.0</ele><time>2026-04-06T14:17:52Z</time></trkpt><trkpt lat="46.389488602449305" lon="11.267481990245416"><ele>251.0</ele><time>2026-04-06T14:17:53Z</time></trkpt><trkpt lat="46.38925393807126" lon="11.267603902357786"><ele>251.0</ele><time>2026-04-06T14:17:54Z</time></trkpt><trkpt lat="46.38901500372103" lon="11.267735880705633"><ele>251.0</ele><time>2026-04-06T14:17:55Z</time></trkpt><trkpt lat="46.388776708486255" lon="11.267892103927414"><ele>246.5</ele><time>2026-04-06T14:17:56Z</time></trkpt><trkpt lat="46.38854883612688" lon="11.268086515024274"><ele>242.0</ele><time>2026-04-06T14:17:57Z</time></trkpt><trkpt lat="46.38832634521031" lon="11.268301177614836"><ele>247.5</ele><time>2026-04-06T14:17:58Z</time></trkpt><trkpt lat="46.38810352977703" lon="11.268525896071624"><ele>253.0</ele><time>2026-04-06T14:17:59Z</time></trkpt><trkpt lat="46.387869559571854" lon="11.268716855293006"><ele>265.5</ele><time>2026-04-06T14:18:00Z</time></trkpt><trkpt lat="46.387651887171025" lon="11.268949393650562"><ele>278.0</ele><time>2026-04-06T14:18:01Z</time></trkpt><trkpt lat="46.38742900004142" lon="11.269185575320673"><ele>278.0</ele><time>2026-04-06T14:18:02Z</time></trkpt><trkpt lat="46.387211468728744" lon="11.26944700171714"><ele>278.0</ele><time>2026-04-06T14:18:03Z</time></trkpt><trkpt lat="46.38698633609269" lon="11.269726156029517"><ele>282.0</ele><time>2026-04-06T14:18:04Z</time></trkpt><trkpt lat="46.38675780631783" lon="11.270003888079925"><ele>286.0</ele><time>2026-04-06T14:18:05Z</time></trkpt><trkpt lat="46.38655654769611" lon="11.270244402916461"><ele>286.0</ele><time>2026-04-06T14:18:06Z</time></trkpt><trkpt lat="46.3863830627307" lon="11.270448081810871"><ele>286.0</ele><time>2026-04-06T14:18:07Z</time></trkpt><trkpt lat="46.386232539857446" lon="11.27062681270887"><ele>286.0</ele><time>2026-04-06T14:18:08Z</time></trkpt><trkpt lat="46.386103702170566" lon="11.270803019963527"><ele>287.3333333333333</ele><time>2026-04-06T14:18:09Z</time></trkpt><trkpt lat="46.385992271736484" lon="11.270998604884527"><ele>288.6666666666667</ele><time>2026-04-06T14:18:10Z</time></trkpt><trkpt lat="46.38590365215489" lon="11.271207377803016"><ele>290.0</ele><time>2026-04-06T14:18:11Z</time></trkpt><trkpt lat="46.38583914866502" lon="11.271400447203174"><ele>291.0</ele><time>2026-04-06T14:18:12Z</time></trkpt><trkpt lat="46.38575691859465" lon="11.27155325301647"><ele>292.0</ele><time>2026-04-06T14:18:13Z</time></trkpt><trkpt lat="46.385667459167166" lon="11.271666611846605"><ele>293.0</ele><time>2026-04-06T14:18:14Z</time></trkpt><trkpt lat="46.38556879582056" lon="11.271720868122875"><ele>294.0</ele><time>2026-04-06T14:18:15Z</time></trkpt><trkpt lat="46.38546064904934" lon="11.271812030224888"><ele>294.0</ele><time>2026-04-06T14:18:16Z</time></trkpt><trkpt lat="46.38532483659782" lon="11.271893924827557"><ele>294.0</ele><time>2026-04-06T14:18:16.999Z</time></trkpt><trkpt lat="46.38517479327957" lon="11.271984991229901"><ele>294.0</ele><time>2026-04-06T14:18:17.999Z</time></trkpt><trkpt lat="46.385011779154546" lon="11.272057522132455"><ele>294.0</ele><time>2026-04-06T14:18:18.999Z</time></trkpt><trkpt lat="46.38485051872715" lon="11.272155092576366"><ele>294.0</ele><time>2026-04-06T14:18:19.999Z</time></trkpt><trkpt lat="46.38470311286173" lon="11.272308698145714"><ele>294.0</ele><time>2026-04-06T14:18:20.999Z</time></trkpt><trkpt lat="46.38456936675297" lon="11.272511598034795"><ele>292.6666666666667</ele><time>2026-04-06T14:18:21.999Z</time></trkpt><trkpt lat="46.38443674981577" lon="11.272753862951307"><ele>291.33333333333337</ele><time>2026-04-06T14:18:22.999Z</time></trkpt><trkpt lat="46.38432849800449" lon="11.272987034234024"><ele>290.0</ele><time>2026-04-06T14:18:23.999Z</time></trkpt><trkpt lat="46.384242332284785" lon="11.273188482787507"><ele>293.75</ele><time>2026-04-06T14:18:24.999Z</time></trkpt><trkpt lat="46.38417854092578" lon="11.2733651412511"><ele>297.5</ele><time>2026-04-06T14:18:25.999Z</time></trkpt><trkpt lat="46.38414714946083" lon="11.27353816297583"><ele>301.25</ele><time>2026-04-06T14:18:26.999Z</time></trkpt><trkpt lat="46.38416310214977" lon="11.273691222477026"><ele>305.0</ele><time>2026-04-06T14:18:27.999Z</time></trkpt><trkpt lat="46.38424243740236" lon="11.273805525314403"><ele>305.0</ele><time>2026-04-06T14:18:28.999Z</time></trkpt><trkpt lat="46.38436593545385" lon="11.273857635587476"><ele>305.0</ele><time>2026-04-06T14:18:29.999Z</time></trkpt><trkpt lat="46.38452808664793" lon="11.273853352951155"><ele>305.0</ele><time>2026-04-06T14:18:30.999Z</time></trkpt><trkpt lat="46.38471336758758" lon="11.273839941159991"><ele>309.33333333333337</ele><time>2026-04-06T14:18:31.999Z</time></trkpt><trkpt lat="46.384910539744894" lon="11.273834869216527"><ele>313.6666666666667</ele><time>2026-04-06T14:18:32.999Z</time></trkpt><trkpt lat="46.385106747879306" lon="11.27386218237799"><ele>318.0</ele><time>2026-04-06T14:18:33.999Z</time></trkpt><trkpt lat="46.38531378315498" lon="11.273881988481651"><ele>318.0</ele><time>2026-04-06T14:18:34.999Z</time></trkpt><trkpt lat="46.38549319249081" lon="11.273908474800255"><ele>318.0</ele><time>2026-04-06T14:18:35.999Z</time></trkpt><trkpt lat="46.38562128764696" lon="11.273958385318403"><ele>318.0</ele><time>2026-04-06T14:18:36.999Z</time></trkpt><trkpt lat="46.385712594764776" lon="11.27405046243078"><ele>318.0</ele><time>2026-04-06T14:18:37.999Z</time></trkpt><trkpt lat="46.38578256976125" lon="11.274176362871462"><ele>324.3333333333333</ele><time>2026-04-06T14:18:38.999Z</time></trkpt><trkpt lat="46.385793488947265" lon="11.274407877704242"><ele>330.66666666666663</ele><time>2026-04-06T14:18:39.999Z</time></trkpt><trkpt lat="46.38580103706156" lon="11.274665158744849"><ele>337.0</ele><time>2026-04-06T14:18:40.999Z</time></trkpt><trkpt lat="46.385814028055634" lon="11.274955031581907"><ele>337.66666666666663</ele><time>2026-04-06T14:18:41.999Z</time></trkpt><trkpt lat="46.38581080568601" lon="11.275230139608997"><ele>338.3333333333333</ele><time>2026-04-06T14:18:42.999Z</time></trkpt><trkpt lat="46.38580443117941" lon="11.27551361211151"><ele>339.0</ele><time>2026-04-06T14:18:43.999Z</time></trkpt><trkpt lat="46.38577393027528" lon="11.275817379980088"><ele>344.0</ele><time>2026-04-06T14:18:44.999Z</time></trkpt><trkpt lat="46.385732163195456" lon="11.276138521857737"><ele>349.0</ele><time>2026-04-06T14:18:45.999Z</time></trkpt><trkpt lat="46.38568773758049" lon="11.276467322401317"><ele>354.3333333333333</ele><time>2026-04-06T14:18:46.999Z</time></trkpt><trkpt lat="46.38566858762886" lon="11.276738453473898"><ele>359.6666666666667</ele><time>2026-04-06T14:18:47.999Z</time></trkpt><trkpt lat="46.38565967838309" lon="11.276970533737963"><ele>365.0</ele><time>2026-04-06T14:18:48.999Z</time></trkpt><trkpt lat="46.38562599773162" lon="11.277142992911847"><ele>365.0</ele><time>2026-04-06T14:18:49.999Z</time></trkpt><trkpt lat="46.38552936471245" lon="11.277252066240006"><ele>365.0</ele><time>2026-04-06T14:18:50.999Z</time></trkpt><trkpt lat="46.38540369311" lon="11.277342360341596"><ele>365.0</ele><time>2026-04-06T14:18:51.999Z</time></trkpt><trkpt lat="46.385244143493985" lon="11.277454580576409"><ele>365.0</ele><time>2026-04-06T14:18:52.999Z</time></trkpt><trkpt lat="46.38506252294874" lon="11.277516410968243"><ele>364.0</ele><time>2026-04-06T14:18:53.999Z</time></trkpt><trkpt lat="46.384897754944895" lon="11.277607152602037"><ele>363.0</ele><time>2026-04-06T14:18:54.999Z</time></trkpt><trkpt lat="46.38475309995421" lon="11.277756741309801"><ele>362.0</ele><time>2026-04-06T14:18:55.999Z</time></trkpt><trkpt lat="46.38460495917595" lon="11.277944105172756"><ele>363.6666666666667</ele><time>2026-04-06T14:18:56.999Z</time></trkpt><trkpt lat="46.384430489765315" lon="11.278108511992462"><ele>365.3333333333333</ele><time>2026-04-06T14:18:57.999Z</time></trkpt><trkpt lat="46.38429058621855" lon="11.278233242974126"><ele>367.0</ele><time>2026-04-06T14:18:58.999Z</time></trkpt><trkpt lat="46.38416851463759" lon="11.278375278895387"><ele>367.0</ele><time>2026-04-06T14:18:59.999Z</time></trkpt><trkpt lat="46.38406371668333" lon="11.278501245469565"><ele>367.0</ele><time>2026-04-06T14:19:00.999Z</time></trkpt><trkpt lat="46.38395512202415" lon="11.278580234878408"><ele>367.0</ele><time>2026-04-06T14:19:01.999Z</time></trkpt><trkpt lat="46.38386411799511" lon="11.278654627074184"><ele>367.0</ele><time>2026-04-06T14:19:02.999Z</time></trkpt><trkpt lat="46.38379125891631" lon="11.278726457040394"><ele>367.8</ele><time>2026-04-06T14:19:03.999Z</time></trkpt><trkpt lat="46.38375332422195" lon="11.278823711337939"><ele>368.6</ele><time>2026-04-06T14:19:04.999Z</time></trkpt><trkpt lat="46.383777716623435" lon="11.278946013168028"><ele>369.40000000000003</ele><time>2026-04-06T14:19:05.999Z</time></trkpt><trkpt lat="46.38387874232027" lon="11.279075000870606"><ele>370.20000000000005</ele><time>2026-04-06T14:19:06.999Z</time></trkpt><trkpt lat="46.38397445129157" lon="11.27923355736185"><ele>371.0</ele><time>2026-04-06T14:19:07.999Z</time></trkpt><trkpt lat="46.38404756131731" lon="11.279395588995135"><ele>371.75</ele><time>2026-04-06T14:19:08.999Z</time></trkpt><trkpt lat="46.38407381935705" lon="11.279566195325271"><ele>372.5</ele><time>2026-04-06T14:19:09.999Z</time></trkpt><trkpt lat="46.384099560702126" lon="11.279771170741046"><ele>373.25</ele><time>2026-04-06T14:19:10.999Z</time></trkpt><trkpt lat="46.384121006001614" lon="11.280035549935748"><ele>374.0</ele><time>2026-04-06T14:19:11.999Z</time></trkpt><trkpt lat="46.3841892337701" lon="11.28030997515634"><ele>380.5</ele><time>2026-04-06T14:19:12.999Z</time></trkpt><trkpt lat="46.3842477302664" lon="11.280626031306785"><ele>387.0</ele><time>2026-04-06T14:19:13.999Z</time></trkpt><trkpt lat="46.38427822064176" lon="11.280976742352355"><ele>387.0</ele><time>2026-04-06T14:19:14.999Z</time></trkpt><trkpt lat="46.38433188249079" lon="11.281295573364892"><ele>387.0</ele><time>2026-04-06T14:19:15.999Z</time></trkpt><trkpt lat="46.384349146200734" lon="11.281570632225254"><ele>387.0</ele><time>2026-04-06T14:19:16.999Z</time></trkpt><trkpt lat="46.38434606786428" lon="11.281772864178167"><ele>387.25</ele><time>2026-04-06T14:19:17.999Z</time></trkpt><trkpt lat="46.38435311372575" lon="11.281961421404699"><ele>387.5</ele><time>2026-04-06T14:19:18.999Z</time></trkpt><trkpt lat="46.38436292791766" lon="11.282126903379257"><ele>387.75</ele><time>2026-04-06T14:19:19.999Z</time></trkpt><trkpt lat="46.384370854220286" lon="11.282294413450042"><ele>388.0</ele><time>2026-04-06T14:19:20.999Z</time></trkpt><trkpt lat="46.38439177026416" lon="11.282449087896513"><ele>385.0</ele><time>2026-04-06T14:19:21.999Z</time></trkpt><trkpt lat="46.38445378852017" lon="11.282608313383806"><ele>382.0</ele><time>2026-04-06T14:19:22.999Z</time></trkpt><trkpt lat="46.38457498643174" lon="11.282791115686113"><ele>379.0</ele><time>2026-04-06T14:19:23.999Z</time></trkpt><trkpt lat="46.38470762544526" lon="11.283007354305662"><ele>382.66666666666663</ele><time>2026-04-06T14:19:24.999Z</time></trkpt><trkpt lat="46.38482421492124" lon="11.283240746459963"><ele>386.3333333333333</ele><time>2026-04-06T14:19:25.999Z</time></trkpt><trkpt lat="46.38492761116649" lon="11.28343906142224"><ele>390.0</ele><time>2026-04-06T14:19:26.999Z</time></trkpt><trkpt lat="46.385016623635224" lon="11.283604603346904"><ele>390.0</ele><time>2026-04-06T14:19:27.999Z</time></trkpt><trkpt lat="46.38512705754494" lon="11.283722574964958"><ele>390.0</ele><time>2026-04-06T14:19:28.999Z</time></trkpt><trkpt lat="46.38521475015208" lon="11.283812613351165"><ele>390.0</ele><time>2026-04-06T14:19:29.999Z</time></trkpt><trkpt lat="46.38526205652124" lon="11.283892418750066"><ele>390.0</ele><time>2026-04-06T14:19:30.999Z</time></trkpt><trkpt lat="46.38522625982434" lon="11.28406722516758"><ele>390.0</ele><time>2026-04-06T14:19:32.999Z</time></trkpt><trkpt lat="46.385125619992586" lon="11.284103780671657"><ele>383.6666666666667</ele><time>2026-04-06T14:19:33.999Z</time></trkpt><trkpt lat="46.3849457904149" lon="11.284046319062046"><ele>377.33333333333337</ele><time>2026-04-06T14:19:34.999Z</time></trkpt><trkpt lat="46.38479575201624" lon="11.284111019364012"><ele>371.0</ele><time>2026-04-06T14:19:35.999Z</time></trkpt><trkpt lat="46.38463548638412" lon="11.28421933321636"><ele>366.25</ele><time>2026-04-06T14:19:36.999Z</time></trkpt><trkpt lat="46.384476854469234" lon="11.284283614295612"><ele>361.5</ele><time>2026-04-06T14:19:37.999Z</time></trkpt><trkpt lat="46.384336804732854" lon="11.284293402055104"><ele>356.75</ele><time>2026-04-06T14:19:38.999Z</time></trkpt><trkpt lat="46.38423043692441" lon="11.28435075145438"><ele>352.0</ele><time>2026-04-06T14:19:39.999Z</time></trkpt><trkpt lat="46.38414862378051" lon="11.284534818605467"><ele>347.3333333333333</ele><time>2026-04-06T14:19:40.999Z</time></trkpt><trkpt lat="46.3840512065062" lon="11.284777113108003"><ele>342.6666666666667</ele><time>2026-04-06T14:19:41.999Z</time></trkpt><trkpt lat="46.38396055143826" lon="11.28503275821183"><ele>338.0</ele><time>2026-04-06T14:19:42.999Z</time></trkpt><trkpt lat="46.38386926967953" lon="11.28526069335221"><ele>337.5</ele><time>2026-04-06T14:19:43.999Z</time></trkpt><trkpt lat="46.38376677722716" lon="11.285433763241551"><ele>337.0</ele><time>2026-04-06T14:19:44.999Z</time></trkpt><trkpt lat="46.38368197666792" lon="11.285599624181312"><ele>336.5</ele><time>2026-04-06T14:19:45.999Z</time></trkpt><trkpt lat="46.3835752145229" lon="11.285727871102553"><ele>336.0</ele><time>2026-04-06T14:19:46.999Z</time></trkpt><trkpt lat="46.38344103977537" lon="11.285766699766334"><ele>331.3333333333333</ele><time>2026-04-06T14:19:47.999Z</time></trkpt><trkpt lat="46.38329656518961" lon="11.285767800097984"><ele>326.66666666666663</ele><time>2026-04-06T14:19:48.999Z</time></trkpt><trkpt lat="46.383118652947566" lon="11.285729159133686"><ele>322.0</ele><time>2026-04-06T14:19:49.999Z</time></trkpt><trkpt lat="46.382971315771606" lon="11.285694897803562"><ele>313.0</ele><time>2026-04-06T14:19:50.999Z</time></trkpt><trkpt lat="46.38284179600958" lon="11.285670017609524"><ele>304.0</ele><time>2026-04-06T14:19:51.999Z</time></trkpt><trkpt lat="46.38272673983993" lon="11.285633915794074"><ele>295.0</ele><time>2026-04-06T14:19:52.999Z</time></trkpt><trkpt lat="46.38264785972723" lon="11.285549632114124"><ele>286.0</ele><time>2026-04-06T14:19:53.999Z</time></trkpt><trkpt lat="46.38261156098527" lon="11.285418182335146"><ele>277.0</ele><time>2026-04-06T14:19:54.999Z</time></trkpt><trkpt lat="46.38262048156395" lon="11.285275877574477"><ele>275.0</ele><time>2026-04-06T14:19:55.999Z</time></trkpt><trkpt lat="46.3827231889694" lon="11.285146735603728"><ele>273.0</ele><time>2026-04-06T14:19:56.999Z</time></trkpt><trkpt lat="46.382841322258514" lon="11.284953595915537"><ele>271.0</ele><time>2026-04-06T14:19:57.999Z</time></trkpt><trkpt lat="46.382951493411575" lon="11.284728185480962"><ele>286.66666666666663</ele><time>2026-04-06T14:19:58.999Z</time></trkpt><trkpt lat="46.38307896409869" lon="11.284524298331766"><ele>302.3333333333333</ele><time>2026-04-06T14:19:59.999Z</time></trkpt><trkpt lat="46.38319025949963" lon="11.284333161440593"><ele>318.0</ele><time>2026-04-06T14:20:00.999Z</time></trkpt><trkpt lat="46.38326992283771" lon="11.284138288503133"><ele>317.3333333333333</ele><time>2026-04-06T14:20:01.999Z</time></trkpt><trkpt lat="46.38331158173107" lon="11.283923297188943"><ele>316.66666666666663</ele><time>2026-04-06T14:20:02.999Z</time></trkpt><trkpt lat="46.38329391546765" lon="11.28368214529191"><ele>316.0</ele><time>2026-04-06T14:20:03.999Z</time></trkpt><trkpt lat="46.38322656149967" lon="11.283406607067466"><ele>316.0</ele><time>2026-04-06T14:20:04.999Z</time></trkpt><trkpt lat="46.38312962776836" lon="11.283131026313272"><ele>316.0</ele><time>2026-04-06T14:20:05.999Z</time></trkpt><trkpt lat="46.38306258766534" lon="11.28282518532751"><ele>316.0</ele><time>2026-04-06T14:20:06.999Z</time></trkpt><trkpt lat="46.38298597565368" lon="11.282549464155025"><ele>309.3333333333333</ele><time>2026-04-06T14:20:07.999Z</time></trkpt><trkpt lat="46.38291245711796" lon="11.28232013609311"><ele>302.6666666666667</ele><time>2026-04-06T14:20:08.999Z</time></trkpt><trkpt lat="46.38280006260571" lon="11.282129326878456"><ele>296.0</ele><time>2026-04-06T14:20:09.999Z</time></trkpt><trkpt lat="46.382670073383714" lon="11.281965190077882"><ele>296.0</ele><time>2026-04-06T14:20:10.999Z</time></trkpt><trkpt lat="46.382533789174445" lon="11.281837064805726"><ele>296.0</ele><time>2026-04-06T14:20:11.999Z</time></trkpt><trkpt lat="46.38241144390461" lon="11.281742436194756"><ele>296.0</ele><time>2026-04-06T14:20:12.999Z</time></trkpt><trkpt lat="46.38230267876163" lon="11.28166213985917"><ele>296.0</ele><time>2026-04-06T14:20:13.999Z</time></trkpt><trkpt lat="46.38220547965629" lon="11.281623878022073"><ele>300.0</ele><time>2026-04-06T14:20:14.999Z</time></trkpt><trkpt lat="46.38211459370507" lon="11.281659426119836"><ele>304.0</ele><time>2026-04-06T14:20:15.999Z</time></trkpt><trkpt lat="46.38204208186183" lon="11.281772033058838"><ele>308.0</ele><time>2026-04-06T14:20:16.999Z</time></trkpt><trkpt lat="46.38200991950199" lon="11.281975385334155"><ele>312.0</ele><time>2026-04-06T14:20:17.999Z</time></trkpt><trkpt lat="46.38202753421124" lon="11.28222915935604"><ele>305.0</ele><time>2026-04-06T14:20:18.999Z</time></trkpt><trkpt lat="46.38204096867274" lon="11.282481824319685"><ele>298.0</ele><time>2026-04-06T14:20:19.999Z</time></trkpt><trkpt lat="46.38205145218445" lon="11.282739251062706"><ele>291.0</ele><time>2026-04-06T14:20:20.999Z</time></trkpt><trkpt lat="46.382046951546066" lon="11.282979009314868"><ele>283.0</ele><time>2026-04-06T14:20:21.999Z</time></trkpt><trkpt lat="46.3820175367905" lon="11.283188174599148"><ele>275.0</ele><time>2026-04-06T14:20:22.999Z</time></trkpt><trkpt lat="46.381953532967295" lon="11.283369292850587"><ele>267.0</ele><time>2026-04-06T14:20:23.999Z</time></trkpt><trkpt lat="46.38183692692056" lon="11.283558029749704"><ele>267.0</ele><time>2026-04-06T14:20:24.999Z</time></trkpt><trkpt lat="46.38170046156388" lon="11.283749021586173"><ele>267.0</ele><time>2026-04-06T14:20:25.999Z</time></trkpt><trkpt lat="46.381563313875056" lon="11.283945103619063"><ele>267.0</ele><time>2026-04-06T14:20:26.999Z</time></trkpt><trkpt lat="46.38141879848286" lon="11.284159198139504"><ele>273.3333333333333</ele><time>2026-04-06T14:20:27.999Z</time></trkpt><trkpt lat="46.381273665530536" lon="11.284355651595876"><ele>279.66666666666663</ele><time>2026-04-06T14:20:28.999Z</time></trkpt><trkpt lat="46.38113206861791" lon="11.28453517534763"><ele>286.0</ele><time>2026-04-06T14:20:29.999Z</time></trkpt><trkpt lat="46.380983998062185" lon="11.284686826482693"><ele>273.0</ele><time>2026-04-06T14:20:30.999Z</time></trkpt><trkpt lat="46.380831701433316" lon="11.284824285534977"><ele>260.0</ele><time>2026-04-06T14:20:31.999Z</time></trkpt><trkpt lat="46.38065406891725" lon="11.284955328633972"><ele>247.0</ele><time>2026-04-06T14:20:32.999Z</time></trkpt><trkpt lat="46.3804583917984" lon="11.28505164133704"><ele>247.0</ele><time>2026-04-06T14:20:33.999Z</time></trkpt><trkpt lat="46.38024749911932" lon="11.285130483271855"><ele>247.0</ele><time>2026-04-06T14:20:34.999Z</time></trkpt><trkpt lat="46.38002574680325" lon="11.285185165570697"><ele>247.0</ele><time>2026-04-06T14:20:35.999Z</time></trkpt><trkpt lat="46.37978555673696" lon="11.285225992803793"><ele>245.5</ele><time>2026-04-06T14:20:36.999Z</time></trkpt><trkpt lat="46.37954296998558" lon="11.28524861699438"><ele>244.0</ele><time>2026-04-06T14:20:37.999Z</time></trkpt><trkpt lat="46.379298058283005" lon="11.285211207529098"><ele>244.0</ele><time>2026-04-06T14:20:38.999Z</time></trkpt><trkpt lat="46.379047174612175" lon="11.285183278992136"><ele>244.0</ele><time>2026-04-06T14:20:39.999Z</time></trkpt><trkpt lat="46.378792575908214" lon="11.285206687585893"><ele>244.5</ele><time>2026-04-06T14:20:40.999Z</time></trkpt><trkpt lat="46.378531367854805" lon="11.285249587977642"><ele>245.0</ele><time>2026-04-06T14:20:41.999Z</time></trkpt><trkpt lat="46.378265137753154" lon="11.285317314064072"><ele>252.0</ele><time>2026-04-06T14:20:42.999Z</time></trkpt><trkpt lat="46.37798036718632" lon="11.285396830293628"><ele>259.0</ele><time>2026-04-06T14:20:44Z</time></trkpt><trkpt lat="46.377716610932275" lon="11.285466008196657"><ele>259.0</ele><time>2026-04-06T14:20:45Z</time></trkpt><trkpt lat="46.37749549498815" lon="11.285523015824007"><ele>259.0</ele><time>2026-04-06T14:20:46Z</time></trkpt><trkpt lat="46.37729323324595" lon="11.2855864037538"><ele>259.0</ele><time>2026-04-06T14:20:47Z</time></trkpt><trkpt lat="46.377088499074496" lon="11.285689014053649"><ele>252.66666666666666</ele><time>2026-04-06T14:20:48Z</time></trkpt><trkpt lat="46.37689787742555" lon="11.285840076888064"><ele>246.33333333333331</ele><time>2026-04-06T14:20:49Z</time></trkpt><trkpt lat="46.37673575107715" lon="11.286009757186369"><ele>240.0</ele><time>2026-04-06T14:20:50Z</time></trkpt><trkpt lat="46.37658416860705" lon="11.286203596858385"><ele>233.66666666666669</ele><time>2026-04-06T14:20:51Z</time></trkpt><trkpt lat="46.37644925530911" lon="11.286429150958439"><ele>227.33333333333334</ele><time>2026-04-06T14:20:52Z</time></trkpt><trkpt lat="46.37634104564526" lon="11.28670462587983"><ele>221.0</ele><time>2026-04-06T14:20:53Z</time></trkpt><trkpt lat="46.37624179404239" lon="11.287008128386855"><ele>235.5</ele><time>2026-04-06T14:20:54Z</time></trkpt><trkpt lat="46.3761423237279" lon="11.28732303801794"><ele>250.0</ele><time>2026-04-06T14:20:55Z</time></trkpt><trkpt lat="46.37603307964348" lon="11.287646087178874"><ele>250.0</ele><time>2026-04-06T14:20:56Z</time></trkpt><trkpt lat="46.37591320846249" lon="11.287970820583025"><ele>250.0</ele><time>2026-04-06T14:20:57Z</time></trkpt><trkpt lat="46.37580962812464" lon="11.288268254308367"><ele>246.0</ele><time>2026-04-06T14:20:58Z</time></trkpt><trkpt lat="46.37571683397734" lon="11.288535167763563"><ele>242.0</ele><time>2026-04-06T14:20:59Z</time></trkpt><trkpt lat="46.375627267948595" lon="11.28878072075057"><ele>238.0</ele><time>2026-04-06T14:21:00Z</time></trkpt><trkpt lat="46.375529454857435" lon="11.289014875657386"><ele>243.66666666666666</ele><time>2026-04-06T14:21:01Z</time></trkpt><trkpt lat="46.375405319368646" lon="11.289233325679934"><ele>249.33333333333331</ele><time>2026-04-06T14:21:02Z</time></trkpt><trkpt lat="46.375260411648675" lon="11.289428925559406"><ele>255.0</ele><time>2026-04-06T14:21:03Z</time></trkpt><trkpt lat="46.37509968633495" lon="11.28956487283415"><ele>255.0</ele><time>2026-04-06T14:21:04Z</time></trkpt><trkpt lat="46.374932528468335" lon="11.289675642927461"><ele>255.0</ele><time>2026-04-06T14:21:05Z</time></trkpt><trkpt lat="46.37477859973583" lon="11.289742226605895"><ele>255.0</ele><time>2026-04-06T14:21:06Z</time></trkpt><trkpt lat="46.37464601836955" lon="11.289794886943879"><ele>248.75</ele><time>2026-04-06T14:21:07Z</time></trkpt><trkpt lat="46.37452616600066" lon="11.289812981732643"><ele>242.5</ele><time>2026-04-06T14:21:08Z</time></trkpt><trkpt lat="46.3744303807989" lon="11.289835852947617"><ele>236.25</ele><time>2026-04-06T14:21:09Z</time></trkpt><trkpt lat="46.37436141325315" lon="11.289835492191681"><ele>230.0</ele><time>2026-04-06T14:21:10Z</time></trkpt><trkpt lat="46.374487903010674" lon="11.290148479250718"><ele>230.0</ele><time>2026-04-06T14:21:13Z</time></trkpt><trkpt lat="46.37461999787361" lon="11.290207008676628"><ele>230.0</ele><time>2026-04-06T14:21:14Z</time></trkpt><trkpt lat="46.37478252469616" lon="11.290240342949652"><ele>230.0</ele><time>2026-04-06T14:21:15Z</time></trkpt><trkpt lat="46.3749519418299" lon="11.290267729282386"><ele>229.33333333333334</ele><time>2026-04-06T14:21:16Z</time></trkpt><trkpt lat="46.37513796011661" lon="11.290306950925562"><ele>228.66666666666669</ele><time>2026-04-06T14:21:17Z</time></trkpt><trkpt lat="46.37532318006272" lon="11.290349226935911"><ele>228.0</ele><time>2026-04-06T14:21:18Z</time></trkpt><trkpt lat="46.37552036110279" lon="11.290391146287217"><ele>225.33333333333331</ele><time>2026-04-06T14:21:19Z</time></trkpt><trkpt lat="46.375730206786514" lon="11.290440704002277"><ele>222.66666666666666</ele><time>2026-04-06T14:21:20Z</time></trkpt><trkpt lat="46.37595277231395" lon="11.29050066179751"><ele>220.0</ele><time>2026-04-06T14:21:21Z</time></trkpt><trkpt lat="46.37619056641388" lon="11.29056541892585"><ele>220.5</ele><time>2026-04-06T14:21:22Z</time></trkpt><trkpt lat="46.37643014499959" lon="11.290621277074797"><ele>221.0</ele><time>2026-04-06T14:21:23Z</time></trkpt><trkpt lat="46.37666691033254" lon="11.290669346305524"><ele>221.0</ele><time>2026-04-06T14:21:24Z</time></trkpt><trkpt lat="46.37691685850133" lon="11.290726646915468"><ele>221.0</ele><time>2026-04-06T14:21:25Z</time></trkpt><trkpt lat="46.377179205505605" lon="11.290795088793201"><ele>222.5</ele><time>2026-04-06T14:21:26Z</time></trkpt><trkpt lat="46.37744653838246" lon="11.290859682125465"><ele>224.0</ele><time>2026-04-06T14:21:27Z</time></trkpt><trkpt lat="46.37772068119323" lon="11.290925283706597"><ele>224.0</ele><time>2026-04-06T14:21:28Z</time></trkpt><trkpt lat="46.37799878531886" lon="11.29099491230149"><ele>224.0</ele><time>2026-04-06T14:21:29Z</time></trkpt><trkpt lat="46.37827245947619" lon="11.291064447401936"><ele>223.0</ele><time>2026-04-06T14:21:30Z</time></trkpt><trkpt lat="46.37853770995548" lon="11.2911297998829"><ele>222.0</ele><time>2026-04-06T14:21:31Z</time></trkpt><trkpt lat="46.37879933457674" lon="11.291194343549932"><ele>220.0</ele><time>2026-04-06T14:21:32Z</time></trkpt><trkpt lat="46.379055068150905" lon="11.291259438296832"><ele>218.0</ele><time>2026-04-06T14:21:33Z</time></trkpt><trkpt lat="46.37930826625834" lon="11.291325765082822"><ele>218.0</ele><time>2026-04-06T14:21:34Z</time></trkpt><trkpt lat="46.37956114387961" lon="11.29138546841825"><ele>218.0</ele><time>2026-04-06T14:21:35Z</time></trkpt><trkpt lat="46.379826394455904" lon="11.291448886655898"><ele>220.0</ele><time>2026-04-06T14:21:36Z</time></trkpt><trkpt lat="46.38009669074761" lon="11.291513991703775"><ele>222.0</ele><time>2026-04-06T14:21:37Z</time></trkpt><trkpt lat="46.38037382582474" lon="11.29158397948634"><ele>220.5</ele><time>2026-04-06T14:21:38Z</time></trkpt><trkpt lat="46.38065288525225" lon="11.291651968498828"><ele>219.0</ele><time>2026-04-06T14:21:39Z</time></trkpt><trkpt lat="46.38093154800343" lon="11.291745737987886"><ele>219.0</ele><time>2026-04-06T14:21:40Z</time></trkpt><trkpt lat="46.38120783152012" lon="11.291814526910798"><ele>219.0</ele><time>2026-04-06T14:21:41Z</time></trkpt><trkpt lat="46.381484858222926" lon="11.29188329971045"><ele>219.5</ele><time>2026-04-06T14:21:42Z</time></trkpt><trkpt lat="46.38175941215488" lon="11.291951458631216"><ele>220.0</ele><time>2026-04-06T14:21:43Z</time></trkpt><trkpt lat="46.38203945911722" lon="11.292020981217897"><ele>221.5</ele><time>2026-04-06T14:21:44Z</time></trkpt><trkpt lat="46.3823262896866" lon="11.292092187860753"><ele>223.0</ele><time>2026-04-06T14:21:45Z</time></trkpt><trkpt lat="46.38261508106752" lon="11.292164840447578"><ele>223.0</ele><time>2026-04-06T14:21:46Z</time></trkpt><trkpt lat="46.38290383998498" lon="11.292237508252802"><ele>223.0</ele><time>2026-04-06T14:21:47Z</time></trkpt><trkpt lat="46.38320101036086" lon="11.292312292848464"><ele>221.5</ele><time>2026-04-06T14:21:48Z</time></trkpt><trkpt lat="46.38349837833297" lon="11.292387127176374"><ele>220.0</ele><time>2026-04-06T14:21:49Z</time></trkpt><trkpt lat="46.383797236533425" lon="11.29246233691163"><ele>221.0</ele><time>2026-04-06T14:21:50Z</time></trkpt><trkpt lat="46.384099479075346" lon="11.292538414146403"><ele>222.0</ele><time>2026-04-06T14:21:51Z</time></trkpt><trkpt lat="46.38442246139044" lon="11.292588239806486"><ele>222.0</ele><time>2026-04-06T14:21:52Z</time></trkpt><trkpt lat="46.384748996881996" lon="11.292671515695721"><ele>222.0</ele><time>2026-04-06T14:21:53Z</time></trkpt><trkpt lat="46.385045242990174" lon="11.292746234077226"><ele>222.0</ele><time>2026-04-06T14:21:54Z</time></trkpt><trkpt lat="46.38530977315139" lon="11.29280924608775"><ele>222.0</ele><time>2026-04-06T14:21:55Z</time></trkpt><trkpt lat="46.385554377093285" lon="11.292867506904637"><ele>222.5</ele><time>2026-04-06T14:21:56Z</time></trkpt><trkpt lat="46.38580520125716" lon="11.292923911366117"><ele>223.0</ele><time>2026-04-06T14:21:57Z</time></trkpt><trkpt lat="46.38606697072879" lon="11.292975472539489"><ele>223.0</ele><time>2026-04-06T14:21:58Z</time></trkpt><trkpt lat="46.38632849642057" lon="11.293032450419272"><ele>223.0</ele><time>2026-04-06T14:21:59Z</time></trkpt><trkpt lat="46.38660034538287" lon="11.293097032532808"><ele>223.5</ele><time>2026-04-06T14:22:00Z</time></trkpt><trkpt lat="46.386875528746586" lon="11.293171946099532"><ele>224.0</ele><time>2026-04-06T14:22:01Z</time></trkpt><trkpt lat="46.38715114219741" lon="11.293259501892168"><ele>224.0</ele><time>2026-04-06T14:22:02Z</time></trkpt><trkpt lat="46.38741036795335" lon="11.293335383825989"><ele>224.0</ele><time>2026-04-06T14:22:03Z</time></trkpt><trkpt lat="46.3876493827059" lon="11.293396937460683"><ele>224.0</ele><time>2026-04-06T14:22:04Z</time></trkpt><trkpt lat="46.387872633389954" lon="11.293450301957183"><ele>224.0</ele><time>2026-04-06T14:22:05Z</time></trkpt><trkpt lat="46.38807940478059" lon="11.293500568379011"><ele>224.0</ele><time>2026-04-06T14:22:06Z</time></trkpt><trkpt lat="46.388274794442474" lon="11.293552724141563"><ele>223.0</ele><time>2026-04-06T14:22:07Z</time></trkpt><trkpt lat="46.38846034841763" lon="11.29360089088758"><ele>222.0</ele><time>2026-04-06T14:22:08Z</time></trkpt><trkpt lat="46.38865396510764" lon="11.293651500914544"><ele>221.0</ele><time>2026-04-06T14:22:09Z</time></trkpt><trkpt lat="46.388853001056916" lon="11.293701835682267"><ele>220.66666666666669</ele><time>2026-04-06T14:22:10Z</time></trkpt><trkpt lat="46.38903531075068" lon="11.293748925006312"><ele>220.33333333333331</ele><time>2026-04-06T14:22:11Z</time></trkpt><trkpt lat="46.38920354582184" lon="11.293790462871206"><ele>220.0</ele><time>2026-04-06T14:22:12Z</time></trkpt><trkpt lat="46.389350435695725" lon="11.293811825795773"><ele>220.0</ele><time>2026-04-06T14:22:13Z</time></trkpt><trkpt lat="46.38948031927846" lon="11.293779903338724"><ele>220.0</ele><time>2026-04-06T14:22:14Z</time></trkpt><trkpt lat="46.38959184341507" lon="11.293652591796011"><ele>220.0</ele><time>2026-04-06T14:22:15Z</time></trkpt><trkpt lat="46.38968837823395" lon="11.293455992343516"><ele>220.0</ele><time>2026-04-06T14:22:16Z</time></trkpt><trkpt lat="46.38976300474337" lon="11.293189561844585"><ele>221.0</ele><time>2026-04-06T14:22:17Z</time></trkpt><trkpt lat="46.38981952570165" lon="11.29287629136885"><ele>222.0</ele><time>2026-04-06T14:22:18Z</time></trkpt><trkpt lat="46.389899783896496" lon="11.292566592603224"><ele>223.0</ele><time>2026-04-06T14:22:19Z</time></trkpt><trkpt lat="46.38996658443488" lon="11.29223709663814"><ele>224.0</ele><time>2026-04-06T14:22:20Z</time></trkpt><trkpt lat="46.39003606940002" lon="11.291889933233383"><ele>224.0</ele><time>2026-04-06T14:22:21Z</time></trkpt><trkpt lat="46.39010591953286" lon="11.291553380231326"><ele>224.0</ele><time>2026-04-06T14:22:22Z</time></trkpt><trkpt lat="46.39016744725417" lon="11.291270796076942"><ele>224.0</ele><time>2026-04-06T14:22:23Z</time></trkpt><trkpt lat="46.39023111734152" lon="11.291048775196053"><ele>223.5</ele><time>2026-04-06T14:22:24Z</time></trkpt><trkpt lat="46.39030891132311" lon="11.290876738122392"><ele>223.0</ele><time>2026-04-06T14:22:25Z</time></trkpt><trkpt lat="46.39040977243833" lon="11.290743498380206"><ele>222.5</ele><time>2026-04-06T14:22:26Z</time></trkpt><trkpt lat="46.39053257697363" lon="11.29065022386296"><ele>222.0</ele><time>2026-04-06T14:22:27Z</time></trkpt><trkpt lat="46.390675579311186" lon="11.290573259208928"><ele>222.0</ele><time>2026-04-06T14:22:28Z</time></trkpt><trkpt lat="46.39082967463437" lon="11.29058726897538"><ele>222.0</ele><time>2026-04-06T14:22:29Z</time></trkpt><trkpt lat="46.39099929930989" lon="11.29066383940258"><ele>222.0</ele><time>2026-04-06T14:22:30Z</time></trkpt><trkpt lat="46.39119418061747" lon="11.29078966364201"><ele>222.5</ele><time>2026-04-06T14:22:31Z</time></trkpt><trkpt lat="46.391402364191485" lon="11.29093815347831"><ele>223.0</ele><time>2026-04-06T14:22:32Z</time></trkpt><trkpt lat="46.391601495583345" lon="11.291107690464548"><ele>223.0</ele><time>2026-04-06T14:22:33Z</time></trkpt><trkpt lat="46.391812376625616" lon="11.29127736228859"><ele>223.0</ele><time>2026-04-06T14:22:34Z</time></trkpt><trkpt lat="46.39203448176736" lon="11.291452684928213"><ele>222.5</ele><time>2026-04-06T14:22:35Z</time></trkpt><trkpt lat="46.39227016098106" lon="11.291630279628109"><ele>222.0</ele><time>2026-04-06T14:22:36Z</time></trkpt><trkpt lat="46.392513425760214" lon="11.291806082840077"><ele>222.0</ele><time>2026-04-06T14:22:37Z</time></trkpt><trkpt lat="46.39275356480849" lon="11.291997227788325"><ele>222.0</ele><time>2026-04-06T14:22:38Z</time></trkpt><trkpt lat="46.393021315424754" lon="11.292114445388574"><ele>222.0</ele><time>2026-04-06T14:22:39Z</time></trkpt><trkpt lat="46.39329238513357" lon="11.292174820097873"><ele>222.0</ele><time>2026-04-06T14:22:40Z</time></trkpt><trkpt lat="46.39355401061152" lon="11.292230864521148"><ele>222.5</ele><time>2026-04-06T14:22:41Z</time></trkpt><trkpt lat="46.393791101335765" lon="11.2922978524761"><ele>223.0</ele><time>2026-04-06T14:22:42Z</time></trkpt><trkpt lat="46.394017171414006" lon="11.292438751436276"><ele>223.0</ele><time>2026-04-06T14:22:43Z</time></trkpt><trkpt lat="46.39425798521873" lon="11.292579541965132"><ele>223.0</ele><time>2026-04-06T14:22:44Z</time></trkpt><trkpt lat="46.394509708184664" lon="11.292726710226383"><ele>224.5</ele><time>2026-04-06T14:22:45Z</time></trkpt><trkpt lat="46.39476380598" lon="11.292875059786127"><ele>226.0</ele><time>2026-04-06T14:22:46Z</time></trkpt><trkpt lat="46.39500846890593" lon="11.292992189971358"><ele>225.66666666666666</ele><time>2026-04-06T14:22:47Z</time></trkpt><trkpt lat="46.39522410157027" lon="11.293117937584586"><ele>225.33333333333331</ele><time>2026-04-06T14:22:48Z</time></trkpt><trkpt lat="46.395423955383436" lon="11.293235032735833"><ele>225.0</ele><time>2026-04-06T14:22:49Z</time></trkpt><trkpt lat="46.39561107521291" lon="11.29334581031341"><ele>226.0</ele><time>2026-04-06T14:22:50Z</time></trkpt><trkpt lat="46.395779699717075" lon="11.293494407431588"><ele>227.0</ele><time>2026-04-06T14:22:51Z</time></trkpt><trkpt lat="46.395959823531875" lon="11.293644806008388"><ele>228.0</ele><time>2026-04-06T14:22:52Z</time></trkpt><trkpt lat="46.39611420833752" lon="11.293799287147321"><ele>226.33333333333331</ele><time>2026-04-06T14:22:53Z</time></trkpt><trkpt lat="46.396258378523754" lon="11.293988608909437"><ele>224.66666666666666</ele><time>2026-04-06T14:22:54Z</time></trkpt><trkpt lat="46.39639760518235" lon="11.294217888857194"><ele>223.0</ele><time>2026-04-06T14:22:55Z</time></trkpt><trkpt lat="46.39655769511111" lon="11.294483011258594"><ele>223.0</ele><time>2026-04-06T14:22:56Z</time></trkpt><trkpt lat="46.396706241504155" lon="11.294779700838955"><ele>223.0</ele><time>2026-04-06T14:22:57Z</time></trkpt><trkpt lat="46.396824731733574" lon="11.295065065863962"><ele>223.0</ele><time>2026-04-06T14:22:58Z</time></trkpt><trkpt lat="46.396963923636946" lon="11.295294389968227"><ele>223.0</ele><time>2026-04-06T14:22:59Z</time></trkpt><trkpt lat="46.39708762090907" lon="11.295514767570982"><ele>223.0</ele><time>2026-04-06T14:23:00Z</time></trkpt><trkpt lat="46.39721427437102" lon="11.295715186956913"><ele>222.33333333333331</ele><time>2026-04-06T14:23:01Z</time></trkpt><trkpt lat="46.39734564573716" lon="11.29587443154144"><ele>221.66666666666669</ele><time>2026-04-06T14:23:02Z</time></trkpt><trkpt lat="46.39749554315505" lon="11.295985933205747"><ele>221.0</ele><time>2026-04-06T14:23:03Z</time></trkpt><trkpt lat="46.39767647595256" lon="11.296045385168028"><ele>221.0</ele><time>2026-04-06T14:23:04Z</time></trkpt><trkpt lat="46.39789078411179" lon="11.296051990163233"><ele>221.0</ele><time>2026-04-06T14:23:05Z</time></trkpt><trkpt lat="46.39813425710455" lon="11.296048842264959"><ele>222.0</ele><time>2026-04-06T14:23:06Z</time></trkpt><trkpt lat="46.398391904609504" lon="11.296064483583873"><ele>223.0</ele><time>2026-04-06T14:23:07Z</time></trkpt><trkpt lat="46.39864527260872" lon="11.296088272211357"><ele>222.5</ele><time>2026-04-06T14:23:08Z</time></trkpt><trkpt lat="46.39890855400331" lon="11.296112321951908"><ele>222.0</ele><time>2026-04-06T14:23:09Z</time></trkpt><trkpt lat="46.3991803259464" lon="11.296139459046225"><ele>222.0</ele><time>2026-04-06T14:23:10Z</time></trkpt><trkpt lat="46.399455216047244" lon="11.296166096162256"><ele>222.0</ele><time>2026-04-06T14:23:11Z</time></trkpt><trkpt lat="46.39973008893285" lon="11.296189880660659"><ele>220.5</ele><time>2026-04-06T14:23:12Z</time></trkpt><trkpt lat="46.400007487800785" lon="11.296254296800813"><ele>219.0</ele><time>2026-04-06T14:23:13Z</time></trkpt><trkpt lat="46.40030443620013" lon="11.296284649568795"><ele>218.0</ele><time>2026-04-06T14:23:14Z</time></trkpt><trkpt lat="46.400589504732714" lon="11.29631378802824"><ele>217.0</ele><time>2026-04-06T14:23:15Z</time></trkpt><trkpt lat="46.40084421458408" lon="11.296323627818722"><ele>217.0</ele><time>2026-04-06T14:23:16Z</time></trkpt><trkpt lat="46.401093547621535" lon="11.296370780195502"><ele>217.0</ele><time>2026-04-06T14:23:17Z</time></trkpt><trkpt lat="46.40133855644046" lon="11.296432471744065"><ele>220.5</ele><time>2026-04-06T14:23:18Z</time></trkpt><trkpt lat="46.40157358469049" lon="11.296533889840187"><ele>224.0</ele><time>2026-04-06T14:23:19Z</time></trkpt><trkpt lat="46.401830826034995" lon="11.296677091445261"><ele>224.0</ele><time>2026-04-06T14:23:20Z</time></trkpt><trkpt lat="46.40209661631208" lon="11.296856381194017"><ele>224.0</ele><time>2026-04-06T14:23:21Z</time></trkpt><trkpt lat="46.402342057981144" lon="11.297019395934852"><ele>223.5</ele><time>2026-04-06T14:23:22Z</time></trkpt><trkpt lat="46.402560493711285" lon="11.297160968590754"><ele>223.0</ele><time>2026-04-06T14:23:23Z</time></trkpt><trkpt lat="46.40276834351838" lon="11.297288145138031"><ele>223.0</ele><time>2026-04-06T14:23:24Z</time></trkpt><trkpt lat="46.402962989568394" lon="11.29742978369644"><ele>223.0</ele><time>2026-04-06T14:23:25Z</time></trkpt><trkpt lat="46.403150131540606" lon="11.297620846589176"><ele>223.0</ele><time>2026-04-06T14:23:26Z</time></trkpt><trkpt lat="46.403310617401004" lon="11.29782104903971"><ele>223.33333333333331</ele><time>2026-04-06T14:23:27Z</time></trkpt><trkpt lat="46.40344905857874" lon="11.29800226502573"><ele>223.66666666666669</ele><time>2026-04-06T14:23:28Z</time></trkpt><trkpt lat="46.40357670119711" lon="11.298162164192238"><ele>224.0</ele><time>2026-04-06T14:23:29Z</time></trkpt><trkpt lat="46.403694606714716" lon="11.298302241942823"><ele>223.5</ele><time>2026-04-06T14:23:30Z</time></trkpt><trkpt lat="46.40379999636529" lon="11.298424056873923"><ele>223.0</ele><time>2026-04-06T14:23:31Z</time></trkpt><trkpt lat="46.40389307840621" lon="11.298528699899773"><ele>222.5</ele><time>2026-04-06T14:23:32Z</time></trkpt><trkpt lat="46.4039772464158" lon="11.29862166843256"><ele>222.0</ele><time>2026-04-06T14:23:33Z</time></trkpt><trkpt lat="46.40406390870326" lon="11.298702915678223"><ele>222.0</ele><time>2026-04-06T14:23:34Z</time></trkpt><trkpt lat="46.40416327036368" lon="11.298766947792613"><ele>222.0</ele><time>2026-04-06T14:23:35Z</time></trkpt><trkpt lat="46.40430287424132" lon="11.29881499985102"><ele>222.0</ele><time>2026-04-06T14:23:36Z</time></trkpt><trkpt lat="46.404443585144726" lon="11.298871771699087"><ele>222.0</ele><time>2026-04-06T14:23:37Z</time></trkpt><trkpt lat="46.40457632214604" lon="11.298924601578706"><ele>222.0</ele><time>2026-04-06T14:23:38Z</time></trkpt><trkpt lat="46.40470456360208" lon="11.298972127040127"><ele>222.0</ele><time>2026-04-06T14:23:39Z</time></trkpt><trkpt lat="46.40482944218989" lon="11.299012854035663"><ele>222.0</ele><time>2026-04-06T14:23:40Z</time></trkpt><trkpt lat="46.40495310460731" lon="11.299047022744926"><ele>222.0</ele><time>2026-04-06T14:23:41Z</time></trkpt><trkpt lat="46.40507322044017" lon="11.299071098545586"><ele>222.0</ele><time>2026-04-06T14:23:42Z</time></trkpt><trkpt lat="46.40519259453044" lon="11.299087232212466"><ele>222.0</ele><time>2026-04-06T14:23:43Z</time></trkpt><trkpt lat="46.4053084458518" lon="11.299102120357201"><ele>222.0</ele><time>2026-04-06T14:23:44Z</time></trkpt><trkpt lat="46.40542592449951" lon="11.299115383370358"><ele>222.0</ele><time>2026-04-06T14:23:45Z</time></trkpt><trkpt lat="46.4055411619062" lon="11.29912710547544"><ele>221.75</ele><time>2026-04-06T14:23:46Z</time></trkpt><trkpt lat="46.405655705180926" lon="11.299138839370665"><ele>221.5</ele><time>2026-04-06T14:23:47Z</time></trkpt><trkpt lat="46.40577001916579" lon="11.299152746495269"><ele>221.25</ele><time>2026-04-06T14:23:48Z</time></trkpt><trkpt lat="46.405882252585975" lon="11.299169679199522"><ele>221.0</ele><time>2026-04-06T14:23:49Z</time></trkpt><trkpt lat="46.405993769795025" lon="11.299181152589348"><ele>221.0</ele><time>2026-04-06T14:23:50Z</time></trkpt><trkpt lat="46.406102194779756" lon="11.299182643247041"><ele>221.0</ele><time>2026-04-06T14:23:51Z</time></trkpt><trkpt lat="46.406216816016276" lon="11.299177147028919"><ele>221.0</ele><time>2026-04-06T14:23:52Z</time></trkpt><trkpt lat="46.406334219979044" lon="11.299175481483"><ele>221.0</ele><time>2026-04-06T14:23:53Z</time></trkpt><trkpt lat="46.406446606066844" lon="11.299171290746362"><ele>221.75</ele><time>2026-04-06T14:23:54Z</time></trkpt><trkpt lat="46.406562742759135" lon="11.29916846506098"><ele>222.5</ele><time>2026-04-06T14:23:55Z</time></trkpt><trkpt lat="46.40668558059032" lon="11.2991651054963"><ele>223.25</ele><time>2026-04-06T14:23:56Z</time></trkpt><trkpt lat="46.406818346130954" lon="11.299156411376686"><ele>224.0</ele><time>2026-04-06T14:23:57Z</time></trkpt><trkpt lat="46.40696086472212" lon="11.29915108209653"><ele>224.0</ele><time>2026-04-06T14:23:58Z</time></trkpt><trkpt lat="46.40711063981634" lon="11.299153414927867"><ele>224.0</ele><time>2026-04-06T14:23:59Z</time></trkpt><trkpt lat="46.40726571853627" lon="11.299160852400602"><ele>224.0</ele><time>2026-04-06T14:24:00Z</time></trkpt><trkpt lat="46.407421921086765" lon="11.299182900593468"><ele>224.0</ele><time>2026-04-06T14:24:01Z</time></trkpt><trkpt lat="46.40757357389672" lon="11.299222909892308"><ele>224.0</ele><time>2026-04-06T14:24:02Z</time></trkpt><trkpt lat="46.4077240444582" lon="11.29931633531487"><ele>224.0</ele><time>2026-04-06T14:24:03Z</time></trkpt><trkpt lat="46.40787452156847" lon="11.29948424163439"><ele>224.0</ele><time>2026-04-06T14:24:04Z</time></trkpt><trkpt lat="46.4080400338434" lon="11.2996931887187"><ele>224.0</ele><time>2026-04-06T14:24:05Z</time></trkpt><trkpt lat="46.40819499592094" lon="11.299893520859824"><ele>224.0</ele><time>2026-04-06T14:24:06Z</time></trkpt><trkpt lat="46.408371939625546" lon="11.300111941713642"><ele>223.33333333333334</ele><time>2026-04-06T14:24:07Z</time></trkpt><trkpt lat="46.4085501640968" lon="11.300331277439483"><ele>222.66666666666669</ele><time>2026-04-06T14:24:08Z</time></trkpt><trkpt lat="46.40870803165099" lon="11.300527817792917"><ele>222.0</ele><time>2026-04-06T14:24:09Z</time></trkpt><trkpt lat="46.40886488749979" lon="11.30072699727733"><ele>221.66666666666669</ele><time>2026-04-06T14:24:10Z</time></trkpt><trkpt lat="46.4090228949671" lon="11.30093141979833"><ele>221.33333333333334</ele><time>2026-04-06T14:24:11Z</time></trkpt><trkpt lat="46.409188610750675" lon="11.301144386869963"><ele>221.0</ele><time>2026-04-06T14:24:12Z</time></trkpt><trkpt lat="46.40935127146768" lon="11.301357278595537"><ele>221.0</ele><time>2026-04-06T14:24:13Z</time></trkpt><trkpt lat="46.409500358859134" lon="11.301551923997248"><ele>221.0</ele><time>2026-04-06T14:24:14Z</time></trkpt><trkpt lat="46.40963230598024" lon="11.30172881792586"><ele>221.0</ele><time>2026-04-06T14:24:15Z</time></trkpt><trkpt lat="46.409750156941406" lon="11.301885716936173"><ele>220.75</ele><time>2026-04-06T14:24:16Z</time></trkpt><trkpt lat="46.40986807617322" lon="11.302039476159843"><ele>220.5</ele><time>2026-04-06T14:24:17Z</time></trkpt><trkpt lat="46.40997578099027" lon="11.302176977646903"><ele>220.25</ele><time>2026-04-06T14:24:18Z</time></trkpt><trkpt lat="46.41008079492949" lon="11.302312007277468"><ele>220.0</ele><time>2026-04-06T14:24:19Z</time></trkpt><trkpt lat="46.410186743012424" lon="11.302452801508078"><ele>219.75</ele><time>2026-04-06T14:24:20Z</time></trkpt><trkpt lat="46.41029711223429" lon="11.302601682461912"><ele>219.5</ele><time>2026-04-06T14:24:21Z</time></trkpt><trkpt lat="46.410405481106004" lon="11.302753139407427"><ele>219.25</ele><time>2026-04-06T14:24:22Z</time></trkpt><trkpt lat="46.410505937024176" lon="11.302892410414128"><ele>219.0</ele><time>2026-04-06T14:24:23Z</time></trkpt><trkpt lat="46.41060385111887" lon="11.303014974071976"><ele>219.25</ele><time>2026-04-06T14:24:24Z</time></trkpt><trkpt lat="46.41071224194234" lon="11.303114183849889"><ele>219.5</ele><time>2026-04-06T14:24:25Z</time></trkpt><trkpt lat="46.41084738786078" lon="11.303175093969395"><ele>219.75</ele><time>2026-04-06T14:24:26Z</time></trkpt><trkpt lat="46.411005805205505" lon="11.30316487011068"><ele>220.0</ele><time>2026-04-06T14:24:27Z</time></trkpt><trkpt lat="46.41116415285621" lon="11.303134476674133"><ele>222.25</ele><time>2026-04-06T14:24:28Z</time></trkpt><trkpt lat="46.41133142704618" lon="11.303118359122152"><ele>224.5</ele><time>2026-04-06T14:24:29Z</time></trkpt><trkpt lat="46.41147171562547" lon="11.303092258086082"><ele>226.75</ele><time>2026-04-06T14:24:30Z</time></trkpt><trkpt lat="46.411604023290195" lon="11.303097125583482"><ele>229.0</ele><time>2026-04-06T14:24:31Z</time></trkpt><trkpt lat="46.411745159530696" lon="11.303136083866038"><ele>229.0</ele><time>2026-04-06T14:24:32Z</time></trkpt><trkpt lat="46.41187073306597" lon="11.303286504237642"><ele>229.0</ele><time>2026-04-06T14:24:33Z</time></trkpt><trkpt lat="46.41201112796554" lon="11.303476542164535"><ele>229.0</ele><time>2026-04-06T14:24:34Z</time></trkpt><trkpt lat="46.41216379686869" lon="11.303671527287658"><ele>227.33333333333331</ele><time>2026-04-06T14:24:35Z</time></trkpt><trkpt lat="46.41229126345447" lon="11.303851662206569"><ele>225.66666666666669</ele><time>2026-04-06T14:24:36Z</time></trkpt><trkpt lat="46.41240389311409" lon="11.304012996939136"><ele>224.0</ele><time>2026-04-06T14:24:37Z</time></trkpt><trkpt lat="46.41251302289051" lon="11.304163184495824"><ele>224.0</ele><time>2026-04-06T14:24:38Z</time></trkpt><trkpt lat="46.41262952918739" lon="11.304293400698912"><ele>224.0</ele><time>2026-04-06T14:24:39Z</time></trkpt><trkpt lat="46.41275662902401" lon="11.304419735609585"><ele>224.0</ele><time>2026-04-06T14:24:40Z</time></trkpt><trkpt lat="46.4128964529692" lon="11.304477368913924"><ele>224.0</ele><time>2026-04-06T14:24:41Z</time></trkpt><trkpt lat="46.413015922669615" lon="11.304567071795883"><ele>224.25</ele><time>2026-04-06T14:24:42Z</time></trkpt><trkpt lat="46.41311160190064" lon="11.304670389134849"><ele>224.5</ele><time>2026-04-06T14:24:43Z</time></trkpt><trkpt lat="46.413199253229735" lon="11.304801305632113"><ele>224.75</ele><time>2026-04-06T14:24:44Z</time></trkpt><trkpt lat="46.41326565706492" lon="11.30496380255184"><ele>225.0</ele><time>2026-04-06T14:24:44.999Z</time></trkpt><trkpt lat="46.413329118165166" lon="11.305152167190647"><ele>225.0</ele><time>2026-04-06T14:24:45.999Z</time></trkpt><trkpt lat="46.41339270958145" lon="11.305351790428873"><ele>225.0</ele><time>2026-04-06T14:24:47Z</time></trkpt><trkpt lat="46.413377795091805" lon="11.30558155712627"><ele>225.0</ele><time>2026-04-06T14:24:48Z</time></trkpt><trkpt lat="46.413372155269975" lon="11.305856415195144"><ele>224.33333333333331</ele><time>2026-04-06T14:24:49Z</time></trkpt><trkpt lat="46.41336922365385" lon="11.306162238185536"><ele>223.66666666666666</ele><time>2026-04-06T14:24:50Z</time></trkpt><trkpt lat="46.413362994285464" lon="11.306465372899378"><ele>223.0</ele><time>2026-04-06T14:24:51Z</time></trkpt><trkpt lat="46.41336310233403" lon="11.306721346683238"><ele>223.0</ele><time>2026-04-06T14:24:52Z</time></trkpt><trkpt lat="46.413351412698894" lon="11.30694584173987"><ele>223.0</ele><time>2026-04-06T14:24:53Z</time></trkpt><trkpt lat="46.41332049513895" lon="11.307137083436809"><ele>223.0</ele><time>2026-04-06T14:24:54Z</time></trkpt><trkpt lat="46.41325529209045" lon="11.307323788888768"><ele>223.0</ele><time>2026-04-06T14:24:55Z</time></trkpt><trkpt lat="46.41319175740066" lon="11.307522239968653"><ele>223.0</ele><time>2026-04-06T14:24:56Z</time></trkpt><trkpt lat="46.41314016458504" lon="11.307737097244466"><ele>223.0</ele><time>2026-04-06T14:24:57Z</time></trkpt><trkpt lat="46.41307751868622" lon="11.307929079793325"><ele>223.0</ele><time>2026-04-06T14:24:58Z</time></trkpt><trkpt lat="46.413014226454365" lon="11.3081176385516"><ele>223.0</ele><time>2026-04-06T14:24:59Z</time></trkpt><trkpt lat="46.412954450372325" lon="11.308308603097212"><ele>223.25</ele><time>2026-04-06T14:25:00Z</time></trkpt><trkpt lat="46.412908625283784" lon="11.30850656953933"><ele>223.5</ele><time>2026-04-06T14:25:01Z</time></trkpt><trkpt lat="46.4128819479194" lon="11.308713590425373"><ele>223.75</ele><time>2026-04-06T14:25:02Z</time></trkpt><trkpt lat="46.41286792482728" lon="11.308925253371354"><ele>224.0</ele><time>2026-04-06T14:25:03Z</time></trkpt><trkpt lat="46.41287615103236" lon="11.309134687005228"><ele>224.25</ele><time>2026-04-06T14:25:04Z</time></trkpt><trkpt lat="46.41290623504602" lon="11.30934711011422"><ele>224.5</ele><time>2026-04-06T14:25:05Z</time></trkpt><trkpt lat="46.412950273461085" lon="11.309549629791046"><ele>224.75</ele><time>2026-04-06T14:25:06Z</time></trkpt><trkpt lat="46.41301602137088" lon="11.309738298584664"><ele>225.0</ele><time>2026-04-06T14:25:07Z</time></trkpt><trkpt lat="46.41309520335209" lon="11.309909300567531"><ele>225.25</ele><time>2026-04-06T14:25:08Z</time></trkpt><trkpt lat="46.41316160287339" lon="11.31007762789607"><ele>225.5</ele><time>2026-04-06T14:25:09Z</time></trkpt><trkpt lat="46.41320957816949" lon="11.310244702091358"><ele>225.75</ele><time>2026-04-06T14:25:10Z</time></trkpt><trkpt lat="46.413257065593434" lon="11.310424037023742"><ele>226.0</ele><time>2026-04-06T14:25:11Z</time></trkpt><trkpt lat="46.41330321653894" lon="11.310617740438971"><ele>226.0</ele><time>2026-04-06T14:25:12Z</time></trkpt><trkpt lat="46.413344855869354" lon="11.310826961870116"><ele>226.0</ele><time>2026-04-06T14:25:13Z</time></trkpt><trkpt lat="46.41339130787065" lon="11.311060527950778"><ele>226.0</ele><time>2026-04-06T14:25:14Z</time></trkpt><trkpt lat="46.413443461423945" lon="11.311312632821458"><ele>226.0</ele><time>2026-04-06T14:25:15Z</time></trkpt><trkpt lat="46.41349533327934" lon="11.311552179945352"><ele>226.0</ele><time>2026-04-06T14:25:16Z</time></trkpt><trkpt lat="46.41354470550015" lon="11.311791370157703"><ele>226.0</ele><time>2026-04-06T14:25:17Z</time></trkpt><trkpt lat="46.41358321364892" lon="11.312050865525565"><ele>225.66666666666666</ele><time>2026-04-06T14:25:18Z</time></trkpt><trkpt lat="46.41361558692062" lon="11.31232180524215"><ele>225.33333333333331</ele><time>2026-04-06T14:25:19Z</time></trkpt><trkpt lat="46.4136671089969" lon="11.31259829028659"><ele>225.0</ele><time>2026-04-06T14:25:20Z</time></trkpt><trkpt lat="46.41374184961128" lon="11.312866027564851"><ele>225.0</ele><time>2026-04-06T14:25:21Z</time></trkpt><trkpt lat="46.413801636543525" lon="11.313115215829562"><ele>225.0</ele><time>2026-04-06T14:25:22Z</time></trkpt><trkpt lat="46.41390191503012" lon="11.313327494485803"><ele>225.0</ele><time>2026-04-06T14:25:23Z</time></trkpt><trkpt lat="46.413968378906375" lon="11.313563012730986"><ele>225.33333333333331</ele><time>2026-04-06T14:25:24Z</time></trkpt><trkpt lat="46.41400481042757" lon="11.313819383949204"><ele>225.66666666666666</ele><time>2026-04-06T14:25:25Z</time></trkpt><trkpt lat="46.41400638339653" lon="11.314056430939647"><ele>226.0</ele><time>2026-04-06T14:25:26Z</time></trkpt><trkpt lat="46.41398127049025" lon="11.314291928646979"><ele>226.0</ele><time>2026-04-06T14:25:27Z</time></trkpt><trkpt lat="46.413943543103095" lon="11.314555645786179"><ele>226.0</ele><time>2026-04-06T14:25:28Z</time></trkpt><trkpt lat="46.41390726070025" lon="11.314831648317139"><ele>226.0</ele><time>2026-04-06T14:25:29Z</time></trkpt><trkpt lat="46.413878749309696" lon="11.315077176376732"><ele>226.25</ele><time>2026-04-06T14:25:30Z</time></trkpt><trkpt lat="46.413859951847485" lon="11.315278962017874"><ele>226.5</ele><time>2026-04-06T14:25:31Z</time></trkpt><trkpt lat="46.41383302809743" lon="11.315462901034756"><ele>226.75</ele><time>2026-04-06T14:25:32Z</time></trkpt><trkpt lat="46.413798192995095" lon="11.315638412644267"><ele>227.0</ele><time>2026-04-06T14:25:33Z</time></trkpt><trkpt lat="46.41373682100684" lon="11.315819111837682"><ele>227.0</ele><time>2026-04-06T14:25:34Z</time></trkpt><trkpt lat="46.413656243352605" lon="11.316020983275036"><ele>227.0</ele><time>2026-04-06T14:25:35Z</time></trkpt><trkpt lat="46.413574127329056" lon="11.316228447526255"><ele>227.0</ele><time>2026-04-06T14:25:36Z</time></trkpt><trkpt lat="46.4134862216223" lon="11.316401177758632"><ele>227.5</ele><time>2026-04-06T14:25:37Z</time></trkpt><trkpt lat="46.41342094233588" lon="11.316569324034612"><ele>228.0</ele><time>2026-04-06T14:25:38Z</time></trkpt><trkpt lat="46.413346590994735" lon="11.316716016528964"><ele>228.5</ele><time>2026-04-06T14:25:39Z</time></trkpt><trkpt lat="46.413257469628284" lon="11.31685197635963"><ele>229.0</ele><time>2026-04-06T14:25:40Z</time></trkpt><trkpt lat="46.413130404166445" lon="11.316928129612162"><ele>229.0</ele><time>2026-04-06T14:25:41Z</time></trkpt><trkpt lat="46.412991160058276" lon="11.316900193572028"><ele>229.0</ele><time>2026-04-06T14:25:42Z</time></trkpt><trkpt lat="46.41286388214105" lon="11.316813154538671"><ele>229.0</ele><time>2026-04-06T14:25:43Z</time></trkpt><trkpt lat="46.412705861701994" lon="11.316649830228997"><ele>228.0</ele><time>2026-04-06T14:25:43.999Z</time></trkpt><trkpt lat="46.4125721023407" lon="11.316469516957833"><ele>227.0</ele><time>2026-04-06T14:25:44.999Z</time></trkpt><trkpt lat="46.41246819718278" lon="11.3163314822426"><ele>226.0</ele><time>2026-04-06T14:25:45.999Z</time></trkpt><trkpt lat="46.41239503440934" lon="11.316206263310155"><ele>225.0</ele><time>2026-04-06T14:25:46.999Z</time></trkpt><trkpt lat="46.412357281669024" lon="11.316077418977422"><ele>225.0</ele><time>2026-04-06T14:25:47.999Z</time></trkpt><trkpt lat="46.412310411330964" lon="11.315989295214688"><ele>225.0</ele><time>2026-04-06T14:25:48.999Z</time></trkpt><trkpt lat="46.41223705581217" lon="11.315969867652555"><ele>225.0</ele><time>2026-04-06T14:25:49.999Z</time></trkpt><trkpt lat="46.41217343062339" lon="11.316025515515276"><ele>225.0</ele><time>2026-04-06T14:25:50.999Z</time></trkpt><trkpt lat="46.412135387383294" lon="11.31614700940019"><ele>225.0</ele><time>2026-04-06T14:25:51.999Z</time></trkpt><trkpt lat="46.41211499432237" lon="11.316297574070042"><ele>225.0</ele><time>2026-04-06T14:25:52.999Z</time></trkpt><trkpt lat="46.41205402989006" lon="11.316457174856927"><ele>224.5</ele><time>2026-04-06T14:25:53.999Z</time></trkpt><trkpt lat="46.41194539115335" lon="11.316596174689279"><ele>224.0</ele><time>2026-04-06T14:25:54.999Z</time></trkpt><trkpt lat="46.411831963383676" lon="11.31671469162168"><ele>223.5</ele><time>2026-04-06T14:25:55.999Z</time></trkpt><trkpt lat="46.4117456255299" lon="11.316866689269057"><ele>223.0</ele><time>2026-04-06T14:25:56.999Z</time></trkpt><trkpt lat="46.41167669067124" lon="11.317069025882953"><ele>223.0</ele><time>2026-04-06T14:25:57.999Z</time></trkpt><trkpt lat="46.411635636065526" lon="11.31729942341843"><ele>223.0</ele><time>2026-04-06T14:25:58.999Z</time></trkpt><trkpt lat="46.41163192829397" lon="11.317579696184294"><ele>223.0</ele><time>2026-04-06T14:25:59.999Z</time></trkpt><trkpt lat="46.41164299256456" lon="11.317868288792688"><ele>223.66666666666666</ele><time>2026-04-06T14:26:00.999Z</time></trkpt><trkpt lat="46.411642155291815" lon="11.318173437108943"><ele>224.33333333333331</ele><time>2026-04-06T14:26:01.999Z</time></trkpt><trkpt lat="46.41161641006024" lon="11.318477211325087"><ele>225.0</ele><time>2026-04-06T14:26:02.999Z</time></trkpt><trkpt lat="46.411553708519136" lon="11.31871811052868"><ele>224.66666666666669</ele><time>2026-04-06T14:26:03.999Z</time></trkpt><trkpt lat="46.411484123529256" lon="11.318931083021523"><ele>224.33333333333334</ele><time>2026-04-06T14:26:04.999Z</time></trkpt><trkpt lat="46.41139951019579" lon="11.319120660417777"><ele>224.0</ele><time>2026-04-06T14:26:05.999Z</time></trkpt><trkpt lat="46.41130170718659" lon="11.319261787174588"><ele>223.75</ele><time>2026-04-06T14:26:06.999Z</time></trkpt><trkpt lat="46.411184557552595" lon="11.319394148026365"><ele>223.5</ele><time>2026-04-06T14:26:07.999Z</time></trkpt><trkpt lat="46.41108332382283" lon="11.319552135403082"><ele>223.25</ele><time>2026-04-06T14:26:08.999Z</time></trkpt><trkpt lat="46.410983385392115" lon="11.319695572621587"><ele>223.0</ele><time>2026-04-06T14:26:09.999Z</time></trkpt><trkpt lat="46.410851465319645" lon="11.319808265806751"><ele>223.33333333333331</ele><time>2026-04-06T14:26:10.999Z</time></trkpt><trkpt lat="46.41065773695623" lon="11.319840375603661"><ele>223.66666666666669</ele><time>2026-04-06T14:26:11.999Z</time></trkpt><trkpt lat="46.41046403717607" lon="11.3198589270327"><ele>224.0</ele><time>2026-04-06T14:26:12.999Z</time></trkpt><trkpt lat="46.410243129232185" lon="11.319876829156197"><ele>224.0</ele><time>2026-04-06T14:26:13.999Z</time></trkpt><trkpt lat="46.41005784591475" lon="11.319893389478185"><ele>224.0</ele><time>2026-04-06T14:26:14.999Z</time></trkpt><trkpt lat="46.40991895833986" lon="11.319947069027172"><ele>224.0</ele><time>2026-04-06T14:26:15.999Z</time></trkpt><trkpt lat="46.40976829186903" lon="11.320013669540105"><ele>223.5</ele><time>2026-04-06T14:26:16.999Z</time></trkpt><trkpt lat="46.409655660677274" lon="11.320133953763833"><ele>223.0</ele><time>2026-04-06T14:26:17.999Z</time></trkpt><trkpt lat="46.409567360912895" lon="11.320296321645614"><ele>222.5</ele><time>2026-04-06T14:26:18.999Z</time></trkpt><trkpt lat="46.40949968197503" lon="11.320490658447108"><ele>222.0</ele><time>2026-04-06T14:26:19.999Z</time></trkpt><trkpt lat="46.4094976338526" lon="11.320682177338636"><ele>222.0</ele><time>2026-04-06T14:26:20.999Z</time></trkpt><trkpt lat="46.40952907026752" lon="11.320920388222493"><ele>222.0</ele><time>2026-04-06T14:26:21.999Z</time></trkpt><trkpt lat="46.40956190060541" lon="11.321158734211766"><ele>222.0</ele><time>2026-04-06T14:26:22.999Z</time></trkpt><trkpt lat="46.40958396450762" lon="11.32144757782916"><ele>222.66666666666669</ele><time>2026-04-06T14:26:23.999Z</time></trkpt><trkpt lat="46.40955321455733" lon="11.321737682773636"><ele>223.33333333333334</ele><time>2026-04-06T14:26:24.999Z</time></trkpt><trkpt lat="46.4095425778675" lon="11.322000083659852"><ele>224.0</ele><time>2026-04-06T14:26:25.999Z</time></trkpt><trkpt lat="46.40947128204157" lon="11.322261289366697"><ele>224.33333333333334</ele><time>2026-04-06T14:26:26.999Z</time></trkpt><trkpt lat="46.409366432568405" lon="11.322513505171457"><ele>224.66666666666669</ele><time>2026-04-06T14:26:27.999Z</time></trkpt><trkpt lat="46.40923600740142" lon="11.322785392088676"><ele>225.0</ele><time>2026-04-06T14:26:28.999Z</time></trkpt><trkpt lat="46.40911326638061" lon="11.323028056035705"><ele>225.0</ele><time>2026-04-06T14:26:29.999Z</time></trkpt><trkpt lat="46.40897961463625" lon="11.323268533511877"><ele>225.0</ele><time>2026-04-06T14:26:30.999Z</time></trkpt><trkpt lat="46.40880229080192" lon="11.32343492904618"><ele>225.0</ele><time>2026-04-06T14:26:31.999Z</time></trkpt><trkpt lat="46.408614203164085" lon="11.323615604484164"><ele>225.0</ele><time>2026-04-06T14:26:32.999Z</time></trkpt><trkpt lat="46.40840983418844" lon="11.323791804120802"><ele>225.0</ele><time>2026-04-06T14:26:33.999Z</time></trkpt><trkpt lat="46.408234669666186" lon="11.323942579318636"><ele>225.0</ele><time>2026-04-06T14:26:34.999Z</time></trkpt><trkpt lat="46.40809126923044" lon="11.324092752898977"><ele>227.75</ele><time>2026-04-06T14:26:35.999Z</time></trkpt><trkpt lat="46.40796229507538" lon="11.324199381299332"><ele>230.5</ele><time>2026-04-06T14:26:36.999Z</time></trkpt><trkpt lat="46.40784908030398" lon="11.324287306921082"><ele>233.25</ele><time>2026-04-06T14:26:37.999Z</time></trkpt><trkpt lat="46.40775202470007" lon="11.324361958882019"><ele>236.0</ele><time>2026-04-06T14:26:38.999Z</time></trkpt><trkpt lat="46.40765012311918" lon="11.32441483669136"><ele>236.00000000000003</ele><time>2026-04-06T14:26:39.999Z</time></trkpt><trkpt lat="46.40758307318593" lon="11.324418947605267"><ele>236.0</ele><time>2026-04-06T14:26:40.999Z</time></trkpt><trkpt lat="46.407532458693574" lon="11.32448163141334"><ele>236.0</ele><time>2026-04-06T14:26:41.999Z</time></trkpt><trkpt lat="46.40749425498008" lon="11.324570483882608"><ele>236.0</ele><time>2026-04-06T14:26:42.999Z</time></trkpt><trkpt lat="46.40755630233958" lon="11.324714807381518"><ele>236.00000000000003</ele><time>2026-04-06T14:26:43.999Z</time></trkpt><trkpt lat="46.40762695072481" lon="11.324865769446795"><ele>236.0</ele><time>2026-04-06T14:26:44.999Z</time></trkpt><trkpt lat="46.40768733456283" lon="11.325086883338566"><ele>236.0</ele><time>2026-04-06T14:26:45.999Z</time></trkpt><trkpt lat="46.407723628244966" lon="11.325343150191959"><ele>236.0</ele><time>2026-04-06T14:26:46.999Z</time></trkpt><trkpt lat="46.407750476052826" lon="11.325593276196042"><ele>236.0</ele><time>2026-04-06T14:26:47.999Z</time></trkpt><trkpt lat="46.40778602632008" lon="11.325879487563117"><ele>237.66666666666669</ele><time>2026-04-06T14:26:48.999Z</time></trkpt><trkpt lat="46.407833104128386" lon="11.32617393043014"><ele>239.33333333333331</ele><time>2026-04-06T14:26:49.999Z</time></trkpt><trkpt lat="46.4078969984838" lon="11.326434481110867"><ele>241.0</ele><time>2026-04-06T14:26:50.999Z</time></trkpt><trkpt lat="46.407963850224526" lon="11.32664992473491"><ele>239.4</ele><time>2026-04-06T14:26:51.999Z</time></trkpt><trkpt lat="46.40802370137444" lon="11.326834029409142"><ele>237.8</ele><time>2026-04-06T14:26:53Z</time></trkpt><trkpt lat="46.4080633639615" lon="11.326997117159364"><ele>236.20000000000002</ele><time>2026-04-06T14:26:54Z</time></trkpt><trkpt lat="46.40807663396866" lon="11.327145319416102"><ele>234.60000000000002</ele><time>2026-04-06T14:26:55Z</time></trkpt><trkpt lat="46.408078360574976" lon="11.327255826971061"><ele>233.0</ele><time>2026-04-06T14:26:56Z</time></trkpt><trkpt lat="46.4081246086649" lon="11.32739639068468"><ele>233.0</ele><time>2026-04-06T14:26:58Z</time></trkpt><trkpt lat="46.40818681190283" lon="11.327459424696766"><ele>233.0</ele><time>2026-04-06T14:26:59Z</time></trkpt><trkpt lat="46.40826171670186" lon="11.327516927367444"><ele>233.0</ele><time>2026-04-06T14:27:00Z</time></trkpt><trkpt lat="46.40836272387828" lon="11.32761120524414"><ele>233.0</ele><time>2026-04-06T14:27:01Z</time></trkpt><trkpt lat="46.40850340448267" lon="11.327719654298459"><ele>233.0</ele><time>2026-04-06T14:27:02Z</time></trkpt><trkpt lat="46.408633247739324" lon="11.327805031120052"><ele>233.0</ele><time>2026-04-06T14:27:03Z</time></trkpt><trkpt lat="46.40876259238536" lon="11.327893514217275"><ele>233.0</ele><time>2026-04-06T14:27:04Z</time></trkpt><trkpt lat="46.40889793802088" lon="11.327988850179443"><ele>233.0</ele><time>2026-04-06T14:27:05Z</time></trkpt><trkpt lat="46.409022691315336" lon="11.328081803607922"><ele>233.0</ele><time>2026-04-06T14:27:06Z</time></trkpt><trkpt lat="46.40915189316049" lon="11.328181342653485"><ele>233.5</ele><time>2026-04-06T14:27:07Z</time></trkpt><trkpt lat="46.40928402696106" lon="11.328282012153275"><ele>234.0</ele><time>2026-04-06T14:27:08Z</time></trkpt><trkpt lat="46.409420923058455" lon="11.328378134004971"><ele>234.5</ele><time>2026-04-06T14:27:09Z</time></trkpt><trkpt lat="46.409548400719466" lon="11.328470423094176"><ele>235.0</ele><time>2026-04-06T14:27:10Z</time></trkpt><trkpt lat="46.409674137021575" lon="11.328560036916521"><ele>234.0</ele><time>2026-04-06T14:27:11Z</time></trkpt><trkpt lat="46.409800986485806" lon="11.328644274143105"><ele>233.0</ele><time>2026-04-06T14:27:12Z</time></trkpt><trkpt lat="46.40992785221576" lon="11.328724736973154"><ele>232.0</ele><time>2026-04-06T14:27:13Z</time></trkpt><trkpt lat="46.41004768841736" lon="11.328797815708011"><ele>231.0</ele><time>2026-04-06T14:27:14Z</time></trkpt><trkpt lat="46.410171747982986" lon="11.328872906084781"><ele>233.25</ele><time>2026-04-06T14:27:15Z</time></trkpt><trkpt lat="46.410303822152926" lon="11.328953978585236"><ele>235.5</ele><time>2026-04-06T14:27:16Z</time></trkpt><trkpt lat="46.410443876538274" lon="11.329041164364899"><ele>237.75</ele><time>2026-04-06T14:27:17Z</time></trkpt><trkpt lat="46.41057707475386" lon="11.329131282833426"><ele>240.0</ele><time>2026-04-06T14:27:18Z</time></trkpt><trkpt lat="46.41073038863522" lon="11.32922996726156"><ele>240.0</ele><time>2026-04-06T14:27:19Z</time></trkpt><trkpt lat="46.41091738373389" lon="11.329334211770467"><ele>240.0</ele><time>2026-04-06T14:27:20Z</time></trkpt><trkpt lat="46.41112463538868" lon="11.329442210122615"><ele>240.0</ele><time>2026-04-06T14:27:21Z</time></trkpt><trkpt lat="46.41133307912316" lon="11.329553925142353"><ele>237.33333333333331</ele><time>2026-04-06T14:27:22Z</time></trkpt><trkpt lat="46.41154486350249" lon="11.32966580928937"><ele>234.66666666666666</ele><time>2026-04-06T14:27:23Z</time></trkpt><trkpt lat="46.41175008161915" lon="11.3297772352177"><ele>232.0</ele><time>2026-04-06T14:27:24Z</time></trkpt><trkpt lat="46.411919364288984" lon="11.329872449884931"><ele>230.66666666666666</ele><time>2026-04-06T14:27:25Z</time></trkpt><trkpt lat="46.41206192957405" lon="11.329949900970936"><ele>229.33333333333331</ele><time>2026-04-06T14:27:26Z</time></trkpt><trkpt lat="46.412204032636225" lon="11.330012515029749"><ele>228.0</ele><time>2026-04-06T14:27:27Z</time></trkpt><trkpt lat="46.41235282271464" lon="11.330046588443766"><ele>228.0</ele><time>2026-04-06T14:27:28Z</time></trkpt><trkpt lat="46.41249864180229" lon="11.330084692817039"><ele>228.0</ele><time>2026-04-06T14:27:29Z</time></trkpt><trkpt lat="46.412642929261324" lon="11.330174620148663"><ele>228.0</ele><time>2026-04-06T14:27:30Z</time></trkpt><trkpt lat="46.41280456173415" lon="11.330316761628401"><ele>228.0</ele><time>2026-04-06T14:27:31Z</time></trkpt><trkpt lat="46.41298057333376" lon="11.3304998945762"><ele>228.0</ele><time>2026-04-06T14:27:32Z</time></trkpt><trkpt lat="46.413170089807075" lon="11.330702386383715"><ele>229.33333333333331</ele><time>2026-04-06T14:27:33Z</time></trkpt><trkpt lat="46.413358572505544" lon="11.330889703522322"><ele>230.66666666666666</ele><time>2026-04-06T14:27:34Z</time></trkpt><trkpt lat="46.413534277157396" lon="11.3310497123162"><ele>232.0</ele><time>2026-04-06T14:27:35Z</time></trkpt><trkpt lat="46.4137077133783" lon="11.331181743070426"><ele>231.33333333333331</ele><time>2026-04-06T14:27:36Z</time></trkpt><trkpt lat="46.413878267194605" lon="11.331330776940831"><ele>230.66666666666669</ele><time>2026-04-06T14:27:37Z</time></trkpt><trkpt lat="46.41405888448447" lon="11.331399853662298"><ele>230.0</ele><time>2026-04-06T14:27:38Z</time></trkpt><trkpt lat="46.414235625738975" lon="11.331445178652167"><ele>231.66666666666669</ele><time>2026-04-06T14:27:39Z</time></trkpt><trkpt lat="46.41440442279499" lon="11.33148500389997"><ele>233.33333333333331</ele><time>2026-04-06T14:27:40Z</time></trkpt><trkpt lat="46.41457908798862" lon="11.33152662824979"><ele>235.0</ele><time>2026-04-06T14:27:41Z</time></trkpt><trkpt lat="46.41474006741988" lon="11.331564991193703"><ele>235.0</ele><time>2026-04-06T14:27:42Z</time></trkpt><trkpt lat="46.414893242099204" lon="11.331601004986931"><ele>235.0</ele><time>2026-04-06T14:27:43Z</time></trkpt><trkpt lat="46.415036756787515" lon="11.331635212851458"><ele>235.0</ele><time>2026-04-06T14:27:44Z</time></trkpt><trkpt lat="46.41518142279311" lon="11.33167002157399"><ele>235.0</ele><time>2026-04-06T14:27:45Z</time></trkpt><trkpt lat="46.415324203980035" lon="11.331705551154322"><ele>235.0</ele><time>2026-04-06T14:27:46Z</time></trkpt><trkpt lat="46.41546181398685" lon="11.331739099478288"><ele>235.0</ele><time>2026-04-06T14:27:47Z</time></trkpt><trkpt lat="46.41560137147761" lon="11.331772949031143"><ele>235.0</ele><time>2026-04-06T14:27:48Z</time></trkpt><trkpt lat="46.41574258886654" lon="11.331806923256153"><ele>235.0</ele><time>2026-04-06T14:27:49Z</time></trkpt><trkpt lat="46.41588481181971" lon="11.33184089730071"><ele>234.5</ele><time>2026-04-06T14:27:50Z</time></trkpt><trkpt lat="46.416026394670475" lon="11.331874718444203"><ele>234.0</ele><time>2026-04-06T14:27:51Z</time></trkpt><trkpt lat="46.41617533306143" lon="11.33191029665611"><ele>233.5</ele><time>2026-04-06T14:27:52Z</time></trkpt><trkpt lat="46.4163261977719" lon="11.331922158484588"><ele>233.0</ele><time>2026-04-06T14:27:53Z</time></trkpt><trkpt lat="46.41647299630384" lon="11.331981402100398"><ele>233.0</ele><time>2026-04-06T14:27:54Z</time></trkpt><trkpt lat="46.41662249725416" lon="11.331999327787878"><ele>233.0</ele><time>2026-04-06T14:27:55Z</time></trkpt><trkpt lat="46.416763561879584" lon="11.332036094699033"><ele>233.0</ele><time>2026-04-06T14:27:56Z</time></trkpt><trkpt lat="46.41690686229557" lon="11.332070728760101"><ele>233.0</ele><time>2026-04-06T14:27:57Z</time></trkpt><trkpt lat="46.41705228475522" lon="11.332091964565176"><ele>233.33333333333334</ele><time>2026-04-06T14:27:58Z</time></trkpt><trkpt lat="46.41719978945598" lon="11.33212913729711"><ele>233.66666666666669</ele><time>2026-04-06T14:27:59Z</time></trkpt><trkpt lat="46.41734890174319" lon="11.33216415744663"><ele>234.0</ele><time>2026-04-06T14:28:00Z</time></trkpt><trkpt lat="46.41749253896866" lon="11.332222181953908"><ele>234.5</ele><time>2026-04-06T14:28:01Z</time></trkpt><trkpt lat="46.417634754497755" lon="11.33225638343011"><ele>235.0</ele><time>2026-04-06T14:28:02Z</time></trkpt><trkpt lat="46.417772930584995" lon="11.33228992542175"><ele>235.5</ele><time>2026-04-06T14:28:03Z</time></trkpt><trkpt lat="46.41790469933043" lon="11.332296939259278"><ele>236.0</ele><time>2026-04-06T14:28:04Z</time></trkpt><trkpt lat="46.41802895790836" lon="11.332329152357994"><ele>236.25</ele><time>2026-04-06T14:28:05Z</time></trkpt><trkpt lat="46.41816055554945" lon="11.332365302501866"><ele>236.5</ele><time>2026-04-06T14:28:06Z</time></trkpt><trkpt lat="46.41829493274744" lon="11.332395425722934"><ele>236.75</ele><time>2026-04-06T14:28:07Z</time></trkpt><trkpt lat="46.418421015431804" lon="11.332418214501189"><ele>237.0</ele><time>2026-04-06T14:28:08Z</time></trkpt><trkpt lat="46.418541746289506" lon="11.332443366471088"><ele>237.0</ele><time>2026-04-06T14:28:09Z</time></trkpt><trkpt lat="46.418668041929635" lon="11.332476664310349"><ele>237.0</ele><time>2026-04-06T14:28:10Z</time></trkpt><trkpt lat="46.41880352580868" lon="11.332513305649679"><ele>237.0</ele><time>2026-04-06T14:28:11Z</time></trkpt><trkpt lat="46.41893838450538" lon="11.332533325293326"><ele>237.0</ele><time>2026-04-06T14:28:12Z</time></trkpt><trkpt lat="46.41906945043981" lon="11.332528127308729"><ele>236.75</ele><time>2026-04-06T14:28:13Z</time></trkpt><trkpt lat="46.419191090742544" lon="11.33250350460003"><ele>236.5</ele><time>2026-04-06T14:28:14Z</time></trkpt><trkpt lat="46.41930800288715" lon="11.33246570698708"><ele>236.25</ele><time>2026-04-06T14:28:15Z</time></trkpt><trkpt lat="46.419429086773036" lon="11.332453221120906"><ele>236.0</ele><time>2026-04-06T14:28:16Z</time></trkpt><trkpt lat="46.41954447544273" lon="11.33241995288105"><ele>236.25</ele><time>2026-04-06T14:28:17Z</time></trkpt><trkpt lat="46.419667317767896" lon="11.332372514842215"><ele>236.5</ele><time>2026-04-06T14:28:18Z</time></trkpt><trkpt lat="46.419782320624634" lon="11.332321821326653"><ele>236.75</ele><time>2026-04-06T14:28:19Z</time></trkpt><trkpt lat="46.41989886124308" lon="11.332270021565227"><ele>237.0</ele><time>2026-04-06T14:28:20Z</time></trkpt><trkpt lat="46.42001189068164" lon="11.332219464978023"><ele>237.0</ele><time>2026-04-06T14:28:21Z</time></trkpt><trkpt lat="46.4201278425122" lon="11.332167600436167"><ele>237.0</ele><time>2026-04-06T14:28:22Z</time></trkpt><trkpt lat="46.42024545422588" lon="11.332117329112018"><ele>237.0</ele><time>2026-04-06T14:28:23Z</time></trkpt><trkpt lat="46.420372889118006" lon="11.332085599223714"><ele>237.0</ele><time>2026-04-06T14:28:24Z</time></trkpt><trkpt lat="46.420515359423" lon="11.332050865664016"><ele>237.0</ele><time>2026-04-06T14:28:25Z</time></trkpt><trkpt lat="46.42064598313261" lon="11.332019074760435"><ele>237.0</ele><time>2026-04-06T14:28:26Z</time></trkpt><trkpt lat="46.42076716844288" lon="11.331989580944624"><ele>237.0</ele><time>2026-04-06T14:28:27Z</time></trkpt><trkpt lat="46.42086458586794" lon="11.331965871721515"><ele>237.0</ele><time>2026-04-06T14:28:28Z</time></trkpt><trkpt lat="46.420942965692475" lon="11.331946795815773"><ele>237.0</ele><time>2026-04-06T14:28:29Z</time></trkpt><trkpt lat="46.421009297024575" lon="11.331930652246943"><ele>237.0</ele><time>2026-04-06T14:28:30Z</time></trkpt><trkpt lat="46.42108997424095" lon="11.331911959406657"><ele>237.0</ele><time>2026-04-06T14:28:32Z</time></trkpt><trkpt lat="46.42116303303288" lon="11.331899215446219"><ele>237.0</ele><time>2026-04-06T14:28:44Z</time></trkpt><trkpt lat="46.42123868332939" lon="11.331888300020418"><ele>237.0</ele><time>2026-04-06T14:28:45Z</time></trkpt><trkpt lat="46.4213302050796" lon="11.33188453315029"><ele>237.0</ele><time>2026-04-06T14:28:46Z</time></trkpt><trkpt lat="46.42144699502551" lon="11.331888085371544"><ele>237.0</ele><time>2026-04-06T14:28:47Z</time></trkpt><trkpt lat="46.42157258246757" lon="11.331879305353297"><ele>237.33333333333331</ele><time>2026-04-06T14:28:48Z</time></trkpt><trkpt lat="46.42171615782929" lon="11.331898580756251"><ele>237.66666666666666</ele><time>2026-04-06T14:28:49Z</time></trkpt><trkpt lat="46.42186809571702" lon="11.331936180628974"><ele>238.0</ele><time>2026-04-06T14:28:50Z</time></trkpt><trkpt lat="46.42202272569206" lon="11.331998089429533"><ele>237.66666666666666</ele><time>2026-04-06T14:28:51Z</time></trkpt><trkpt lat="46.42218201049466" lon="11.332073165542212"><ele>237.33333333333331</ele><time>2026-04-06T14:28:52Z</time></trkpt><trkpt lat="46.422322860523145" lon="11.332160574065623"><ele>237.0</ele><time>2026-04-06T14:28:53Z</time></trkpt><trkpt lat="46.42246520900274" lon="11.332259052219275"><ele>238.33333333333331</ele><time>2026-04-06T14:28:54Z</time></trkpt><trkpt lat="46.42260889990547" lon="11.332371555287901"><ele>239.66666666666666</ele><time>2026-04-06T14:28:55Z</time></trkpt><trkpt lat="46.42274827408175" lon="11.332503556114052"><ele>241.0</ele><time>2026-04-06T14:28:56Z</time></trkpt><trkpt lat="46.42288027264795" lon="11.332637938613779"><ele>241.0</ele><time>2026-04-06T14:28:57Z</time></trkpt><trkpt lat="46.42301078679162" lon="11.332775977364127"><ele>241.0</ele><time>2026-04-06T14:28:58Z</time></trkpt><trkpt lat="46.423126843470854" lon="11.332901713369454"><ele>241.0</ele><time>2026-04-06T14:28:59Z</time></trkpt><trkpt lat="46.42323758341487" lon="11.333016448066404"><ele>241.0</ele><time>2026-04-06T14:29:00Z</time></trkpt><trkpt lat="46.4233423815671" lon="11.33312580866567"><ele>241.0</ele><time>2026-04-06T14:29:01Z</time></trkpt><trkpt lat="46.4234235907547" lon="11.333246741645622"><ele>241.00000000000003</ele><time>2026-04-06T14:29:02Z</time></trkpt><trkpt lat="46.4235219686614" lon="11.333322450836086"><ele>241.00000000000003</ele><time>2026-04-06T14:29:03Z</time></trkpt><trkpt lat="46.42360367236456" lon="11.333413756800969"><ele>241.0</ele><time>2026-04-06T14:29:04Z</time></trkpt><trkpt lat="46.42367786036597" lon="11.333495047170235"><ele>241.0</ele><time>2026-04-06T14:29:05Z</time></trkpt><trkpt lat="46.423747050659244" lon="11.333574657841329"><ele>240.99999999999997</ele><time>2026-04-06T14:29:06Z</time></trkpt><trkpt lat="46.423813165977556" lon="11.333649669408048"><ele>241.0</ele><time>2026-04-06T14:29:07Z</time></trkpt><trkpt lat="46.423887504715466" lon="11.333730539997873"><ele>241.0</ele><time>2026-04-06T14:29:08Z</time></trkpt><trkpt lat="46.423941656182315" lon="11.333819635176258"><ele>241.0</ele><time>2026-04-06T14:29:09Z</time></trkpt><trkpt lat="46.424001792807815" lon="11.333885624601336"><ele>240.99999999999997</ele><time>2026-04-06T14:29:10Z</time></trkpt><trkpt lat="46.42405393932476" lon="11.333942847036804"><ele>241.0</ele><time>2026-04-06T14:29:11Z</time></trkpt><trkpt lat="46.42413114123378" lon="11.334027423629218"><ele>241.20000000000002</ele><time>2026-04-06T14:29:13Z</time></trkpt><trkpt lat="46.42418618258535" lon="11.334087971078924"><ele>241.40000000000003</ele><time>2026-04-06T14:29:15Z</time></trkpt><trkpt lat="46.42424416120805" lon="11.334151749682201"><ele>241.6</ele><time>2026-04-06T14:29:16Z</time></trkpt><trkpt lat="46.42435428766892" lon="11.334250744021343"><ele>241.8</ele><time>2026-04-06T14:29:17Z</time></trkpt><trkpt lat="46.4244560362061" lon="11.334383756980621"><ele>242.0</ele><time>2026-04-06T14:29:18Z</time></trkpt><trkpt lat="46.424582288500424" lon="11.33451433228904"><ele>242.33333333333334</ele><time>2026-04-06T14:29:19Z</time></trkpt><trkpt lat="46.42470584288409" lon="11.334641677903297"><ele>242.66666666666669</ele><time>2026-04-06T14:29:20Z</time></trkpt><trkpt lat="46.424834931308006" lon="11.33478238101551"><ele>243.0</ele><time>2026-04-06T14:29:21Z</time></trkpt><trkpt lat="46.42495363584382" lon="11.334910078941311"><ele>243.0</ele><time>2026-04-06T14:29:22Z</time></trkpt><trkpt lat="46.42505902765796" lon="11.335033293492037"><ele>243.0</ele><time>2026-04-06T14:29:23Z</time></trkpt><trkpt lat="46.425163512409775" lon="11.335150216115379"><ele>243.0</ele><time>2026-04-06T14:29:24Z</time></trkpt><trkpt lat="46.425274193075225" lon="11.335262836809811"><ele>243.0</ele><time>2026-04-06T14:29:25Z</time></trkpt><trkpt lat="46.42538838442299" lon="11.33539186039079"><ele>242.0</ele><time>2026-04-06T14:29:26Z</time></trkpt><trkpt lat="46.42551981348478" lon="11.335542938035628"><ele>241.0</ele><time>2026-04-06T14:29:27Z</time></trkpt><trkpt lat="46.42565713555349" lon="11.335696032089535"><ele>240.0</ele><time>2026-04-06T14:29:28Z</time></trkpt><trkpt lat="46.4257774513447" lon="11.335825209070288"><ele>242.0</ele><time>2026-04-06T14:29:29Z</time></trkpt><trkpt lat="46.4258765565229" lon="11.335935864948183"><ele>244.0</ele><time>2026-04-06T14:29:30Z</time></trkpt><trkpt lat="46.42597086462203" lon="11.336039924298534"><ele>246.0</ele><time>2026-04-06T14:29:31Z</time></trkpt><trkpt lat="46.42606819501177" lon="11.336146038523774"><ele>248.0</ele><time>2026-04-06T14:29:32Z</time></trkpt><trkpt lat="46.42616715096777" lon="11.336255324809558"><ele>248.0</ele><time>2026-04-06T14:29:33Z</time></trkpt><trkpt lat="46.42626886884149" lon="11.33636402565742"><ele>248.0</ele><time>2026-04-06T14:29:34Z</time></trkpt><trkpt lat="46.42635957166997" lon="11.336466261202341"><ele>248.0</ele><time>2026-04-06T14:29:35Z</time></trkpt><trkpt lat="46.42644435461116" lon="11.33655907551669"><ele>248.0</ele><time>2026-04-06T14:29:36Z</time></trkpt><trkpt lat="46.426521907116424" lon="11.336640099572069"><ele>248.0</ele><time>2026-04-06T14:29:37Z</time></trkpt><trkpt lat="46.42658235211957" lon="11.336710978579623"><ele>247.83333333333334</ele><time>2026-04-06T14:29:38Z</time></trkpt><trkpt lat="46.426642492324625" lon="11.336769454180718"><ele>247.66666666666669</ele><time>2026-04-06T14:29:39Z</time></trkpt><trkpt lat="46.42669179262077" lon="11.336826984889987"><ele>247.5</ele><time>2026-04-06T14:29:40Z</time></trkpt><trkpt lat="46.42677294131565" lon="11.336945066577156"><ele>247.33333333333331</ele><time>2026-04-06T14:29:42Z</time></trkpt><trkpt lat="46.42684285396579" lon="11.337036624375692"><ele>247.16666666666666</ele><time>2026-04-06T14:29:44Z</time></trkpt><trkpt lat="46.42689271447194" lon="11.3370957628313"><ele>247.0</ele><time>2026-04-06T14:29:48Z</time></trkpt><trkpt lat="46.42698186298967" lon="11.337199578998622"><ele>247.0</ele><time>2026-04-06T14:29:55Z</time></trkpt><trkpt lat="46.42704408536369" lon="11.337265368430902"><ele>247.0</ele><time>2026-04-06T14:29:56Z</time></trkpt><trkpt lat="46.4271286978522" lon="11.33735352025988"><ele>247.0</ele><time>2026-04-06T14:29:57Z</time></trkpt><trkpt lat="46.42722426485748" lon="11.337453445665938"><ele>247.0</ele><time>2026-04-06T14:29:58Z</time></trkpt><trkpt lat="46.42733883390196" lon="11.337572411848386"><ele>247.0</ele><time>2026-04-06T14:29:59Z</time></trkpt><trkpt lat="46.42744973865902" lon="11.33769090609544"><ele>247.0</ele><time>2026-04-06T14:30:00Z</time></trkpt><trkpt lat="46.42756179105444" lon="11.337825209022233"><ele>247.0</ele><time>2026-04-06T14:30:01Z</time></trkpt><trkpt lat="46.42767310660264" lon="11.337975115164452"><ele>247.0</ele><time>2026-04-06T14:30:02Z</time></trkpt><trkpt lat="46.4277680473329" lon="11.338134185125043"><ele>247.0</ele><time>2026-04-06T14:30:03Z</time></trkpt><trkpt lat="46.42784389311036" lon="11.33829967014455"><ele>246.5</ele><time>2026-04-06T14:30:04Z</time></trkpt><trkpt lat="46.42791647206906" lon="11.338472033171278"><ele>246.0</ele><time>2026-04-06T14:30:05Z</time></trkpt><trkpt lat="46.42797821604782" lon="11.338656130561143"><ele>245.5</ele><time>2026-04-06T14:30:06Z</time></trkpt><trkpt lat="46.42803305926037" lon="11.338851966866631"><ele>245.0</ele><time>2026-04-06T14:30:07Z</time></trkpt><trkpt lat="46.42807584989183" lon="11.339032725062395"><ele>244.8</ele><time>2026-04-06T14:30:08Z</time></trkpt><trkpt lat="46.42810170786759" lon="11.339195254061126"><ele>244.6</ele><time>2026-04-06T14:30:09Z</time></trkpt><trkpt lat="46.42812010410302" lon="11.339345526668538"><ele>244.39999999999998</ele><time>2026-04-06T14:30:10Z</time></trkpt><trkpt lat="46.42812634698653" lon="11.339487673362045"><ele>244.2</ele><time>2026-04-06T14:30:11Z</time></trkpt><trkpt lat="46.428138703431095" lon="11.339624713731975"><ele>244.0</ele><time>2026-04-06T14:30:12Z</time></trkpt><trkpt lat="46.42833056496493" lon="11.339721988443248"><ele>244.66666666666666</ele><time>2026-04-06T14:30:13Z</time></trkpt><trkpt lat="46.428460692674946" lon="11.339858851389698"><ele>245.33333333333331</ele><time>2026-04-06T14:30:14Z</time></trkpt><trkpt lat="46.42858457010871" lon="11.34000752831055"><ele>246.0</ele><time>2026-04-06T14:30:15Z</time></trkpt><trkpt lat="46.42869115709248" lon="11.340141128698678"><ele>246.0</ele><time>2026-04-06T14:30:16Z</time></trkpt><trkpt lat="46.428802868330166" lon="11.340242671692613"><ele>246.0</ele><time>2026-04-06T14:30:17Z</time></trkpt><trkpt lat="46.42892532724783" lon="11.340337730436085"><ele>246.0</ele><time>2026-04-06T14:30:18Z</time></trkpt><trkpt lat="46.42905565286205" lon="11.34041703730921"><ele>246.0</ele><time>2026-04-06T14:30:19Z</time></trkpt><trkpt lat="46.42918147483902" lon="11.3404713203454"><ele>244.5</ele><time>2026-04-06T14:30:20Z</time></trkpt><trkpt lat="46.4293083849951" lon="11.340499311885806"><ele>243.0</ele><time>2026-04-06T14:30:21Z</time></trkpt><trkpt lat="46.429422672921504" lon="11.340518885523752"><ele>241.5</ele><time>2026-04-06T14:30:22Z</time></trkpt><trkpt lat="46.42953507457858" lon="11.340542570435735"><ele>240.0</ele><time>2026-04-06T14:30:23Z</time></trkpt><trkpt lat="46.42964773207111" lon="11.340569963725533"><ele>239.25</ele><time>2026-04-06T14:30:24Z</time></trkpt><trkpt lat="46.42975882913001" lon="11.340594853312648"><ele>238.5</ele><time>2026-04-06T14:30:25Z</time></trkpt><trkpt lat="46.42987290383296" lon="11.340642969009116"><ele>237.75</ele><time>2026-04-06T14:30:26Z</time></trkpt><trkpt lat="46.42999792224067" lon="11.340672712598966"><ele>237.0</ele><time>2026-04-06T14:30:27Z</time></trkpt><trkpt lat="46.43014140984203" lon="11.340706686252554"><ele>237.0</ele><time>2026-04-06T14:30:28Z</time></trkpt><trkpt lat="46.43027015829945" lon="11.340713449174254"><ele>237.0</ele><time>2026-04-06T14:30:29Z</time></trkpt><trkpt lat="46.43037963393049" lon="11.340733850040158"><ele>237.0</ele><time>2026-04-06T14:30:30Z</time></trkpt><trkpt lat="46.430477767707536" lon="11.340749501480103"><ele>237.0</ele><time>2026-04-06T14:30:31Z</time></trkpt><trkpt lat="46.43055661617727" lon="11.340783890395084"><ele>237.0</ele><time>2026-04-06T14:30:32Z</time></trkpt><trkpt lat="46.430603043588754" lon="11.341017667966872"><ele>236.0</ele><time>2026-04-06T14:30:34Z</time></trkpt><trkpt lat="46.430645218824424" lon="11.341224772350493"><ele>235.0</ele><time>2026-04-06T14:30:35Z</time></trkpt><trkpt lat="46.43065711423191" lon="11.341485198450634"><ele>234.0</ele><time>2026-04-06T14:30:36Z</time></trkpt><trkpt lat="46.43067957343951" lon="11.341721030273902"><ele>234.0</ele><time>2026-04-06T14:30:37Z</time></trkpt><trkpt lat="46.430700104347935" lon="11.341909270218247"><ele>233.99999999999997</ele><time>2026-04-06T14:30:38Z</time></trkpt><trkpt lat="46.43072277445498" lon="11.342068002684218"><ele>233.99999999999997</ele><time>2026-04-06T14:30:39Z</time></trkpt><trkpt lat="46.43074892797082" lon="11.342202809554832"><ele>234.0</ele><time>2026-04-06T14:30:40Z</time></trkpt><trkpt lat="46.43077537827453" lon="11.342299044383845"><ele>234.0</ele><time>2026-04-06T14:30:41Z</time></trkpt><trkpt lat="46.43081976214684" lon="11.342376016478752"><ele>234.0</ele><time>2026-04-06T14:30:44Z</time></trkpt><trkpt lat="46.43075631925634" lon="11.342378479695018"><ele>234.0</ele><time>2026-04-06T14:31:03Z</time></trkpt></trkseg></trk></gpx>